<?xml version="1.0" encoding="UTF-8" standalone="no" ?>
<gpx xmlns="http://www.topografix.com/GPX/1/1" xmlns:xsi="http://www.w3.org/2001/XMLSchema-instance" xsi:schemaLocation="http://www.topografix.com/GPX/1/1 http://www.topografix.com/GPX/1/1/gpx.xsd" version="1.1" creator="VisuGPX - https://www.visugpx.com">
  <metadata>
    <name>Félines 250321</name>
  </metadata>
  <trk>
    <name><![CDATA[2021-03-25 16:49:52]]></name>
    <trkseg>
      <trkpt lat="43.30989" lon="2.61425">
        <ele>139.53</ele>
        <time>2021-03-25T13:09:12Z</time>
      </trkpt>
      <trkpt lat="43.30932" lon="2.61452">
        <ele>140.49</ele>
        <time>2021-03-25T13:09:35Z</time>
      </trkpt>
      <trkpt lat="43.30933" lon="2.61452">
        <ele>138.57</ele>
        <time>2021-03-25T13:09:43Z</time>
      </trkpt>
      <trkpt lat="43.30933" lon="2.61452">
        <ele>138.57</ele>
        <time>2021-03-25T13:09:58Z</time>
      </trkpt>
      <trkpt lat="43.30933" lon="2.61452">
        <ele>140.01</ele>
        <time>2021-03-25T13:10:04Z</time>
      </trkpt>
      <trkpt lat="43.30933" lon="2.61452">
        <ele>138.57</ele>
        <time>2021-03-25T13:10:09Z</time>
      </trkpt>
      <trkpt lat="43.30932" lon="2.61453">
        <ele>140.01</ele>
        <time>2021-03-25T13:10:16Z</time>
      </trkpt>
      <trkpt lat="43.30934" lon="2.61452">
        <ele>140.97</ele>
        <time>2021-03-25T13:10:40Z</time>
      </trkpt>
      <trkpt lat="43.30931" lon="2.61457">
        <ele>139.53</ele>
        <time>2021-03-25T13:11:08Z</time>
      </trkpt>
      <trkpt lat="43.30931" lon="2.61457">
        <ele>140.97</ele>
        <time>2021-03-25T13:11:18Z</time>
      </trkpt>
      <trkpt lat="43.30934" lon="2.61457">
        <ele>141.45</ele>
        <time>2021-03-25T13:11:44Z</time>
      </trkpt>
      <trkpt lat="43.30935" lon="2.61455">
        <ele>140.97</ele>
        <time>2021-03-25T13:12:17Z</time>
      </trkpt>
      <trkpt lat="43.30935" lon="2.61455">
        <ele>141.45</ele>
        <time>2021-03-25T13:12:36Z</time>
      </trkpt>
      <trkpt lat="43.30938" lon="2.61448">
        <ele>138.09</ele>
        <time>2021-03-25T13:12:44Z</time>
      </trkpt>
      <trkpt lat="43.30938" lon="2.61446">
        <ele>143.85</ele>
        <time>2021-03-25T13:12:45Z</time>
      </trkpt>
      <trkpt lat="43.30939" lon="2.61431">
        <ele>141.45</ele>
        <time>2021-03-25T13:12:55Z</time>
      </trkpt>
      <trkpt lat="43.30945" lon="2.61416">
        <ele>139.05</ele>
        <time>2021-03-25T13:13:07Z</time>
      </trkpt>
      <trkpt lat="43.30953" lon="2.61395">
        <ele>138.57</ele>
        <time>2021-03-25T13:13:20Z</time>
      </trkpt>
      <trkpt lat="43.30957" lon="2.61395">
        <ele>138.57</ele>
        <time>2021-03-25T13:13:33Z</time>
      </trkpt>
      <trkpt lat="43.30953" lon="2.61405">
        <ele>138.57</ele>
        <time>2021-03-25T13:13:41Z</time>
      </trkpt>
      <trkpt lat="43.30942" lon="2.6143">
        <ele>138.57</ele>
        <time>2021-03-25T13:13:54Z</time>
      </trkpt>
      <trkpt lat="43.30938" lon="2.6143">
        <ele>140.01</ele>
        <time>2021-03-25T13:13:57Z</time>
      </trkpt>
      <trkpt lat="43.30936" lon="2.61426">
        <ele>140.49</ele>
        <time>2021-03-25T13:13:59Z</time>
      </trkpt>
      <trkpt lat="43.30936" lon="2.61387">
        <ele>141.45</ele>
        <time>2021-03-25T13:14:23Z</time>
      </trkpt>
      <trkpt lat="43.30937" lon="2.61377">
        <ele>142.41</ele>
        <time>2021-03-25T13:14:29Z</time>
      </trkpt>
      <trkpt lat="43.30938" lon="2.61349">
        <ele>143.37</ele>
        <time>2021-03-25T13:14:44Z</time>
      </trkpt>
      <trkpt lat="43.30951" lon="2.61332">
        <ele>144.34</ele>
        <time>2021-03-25T13:15:00Z</time>
      </trkpt>
      <trkpt lat="43.3096" lon="2.61314">
        <ele>146.26</ele>
        <time>2021-03-25T13:15:14Z</time>
      </trkpt>
      <trkpt lat="43.30968" lon="2.61301">
        <ele>146.74</ele>
        <time>2021-03-25T13:15:24Z</time>
      </trkpt>
      <trkpt lat="43.30974" lon="2.61287">
        <ele>147.7</ele>
        <time>2021-03-25T13:15:37Z</time>
      </trkpt>
      <trkpt lat="43.30974" lon="2.61282">
        <ele>149.14</ele>
        <time>2021-03-25T13:15:51Z</time>
      </trkpt>
      <trkpt lat="43.30976" lon="2.61282">
        <ele>147.7</ele>
        <time>2021-03-25T13:16:03Z</time>
      </trkpt>
      <trkpt lat="43.30976" lon="2.61281">
        <ele>147.7</ele>
        <time>2021-03-25T13:16:05Z</time>
      </trkpt>
      <trkpt lat="43.30979" lon="2.61279">
        <ele>147.7</ele>
        <time>2021-03-25T13:16:07Z</time>
      </trkpt>
      <trkpt lat="43.30981" lon="2.61278">
        <ele>147.7</ele>
        <time>2021-03-25T13:16:08Z</time>
      </trkpt>
      <trkpt lat="43.30983" lon="2.61278">
        <ele>147.7</ele>
        <time>2021-03-25T13:16:09Z</time>
      </trkpt>
      <trkpt lat="43.30985" lon="2.61277">
        <ele>147.7</ele>
        <time>2021-03-25T13:16:10Z</time>
      </trkpt>
      <trkpt lat="43.30985" lon="2.61275">
        <ele>147.7</ele>
        <time>2021-03-25T13:16:11Z</time>
      </trkpt>
      <trkpt lat="43.30987" lon="2.61272">
        <ele>147.7</ele>
        <time>2021-03-25T13:16:13Z</time>
      </trkpt>
      <trkpt lat="43.30988" lon="2.61271">
        <ele>147.7</ele>
        <time>2021-03-25T13:16:14Z</time>
      </trkpt>
      <trkpt lat="43.3099" lon="2.6127">
        <ele>148.66</ele>
        <time>2021-03-25T13:16:15Z</time>
      </trkpt>
      <trkpt lat="43.30991" lon="2.61269">
        <ele>148.66</ele>
        <time>2021-03-25T13:16:16Z</time>
      </trkpt>
      <trkpt lat="43.30991" lon="2.61268">
        <ele>149.14</ele>
        <time>2021-03-25T13:16:17Z</time>
      </trkpt>
      <trkpt lat="43.30992" lon="2.61267">
        <ele>149.14</ele>
        <time>2021-03-25T13:16:18Z</time>
      </trkpt>
      <trkpt lat="43.30993" lon="2.61264">
        <ele>149.62</ele>
        <time>2021-03-25T13:16:21Z</time>
      </trkpt>
      <trkpt lat="43.30994" lon="2.61249">
        <ele>150.1</ele>
        <time>2021-03-25T13:16:30Z</time>
      </trkpt>
      <trkpt lat="43.30995" lon="2.61248">
        <ele>150.1</ele>
        <time>2021-03-25T13:16:31Z</time>
      </trkpt>
      <trkpt lat="43.30996" lon="2.61247">
        <ele>150.1</ele>
        <time>2021-03-25T13:16:32Z</time>
      </trkpt>
      <trkpt lat="43.30997" lon="2.61243">
        <ele>150.1</ele>
        <time>2021-03-25T13:16:34Z</time>
      </trkpt>
      <trkpt lat="43.30998" lon="2.6124">
        <ele>150.1</ele>
        <time>2021-03-25T13:16:35Z</time>
      </trkpt>
      <trkpt lat="43.31001" lon="2.61226">
        <ele>151.06</ele>
        <time>2021-03-25T13:16:45Z</time>
      </trkpt>
      <trkpt lat="43.31004" lon="2.61212">
        <ele>151.06</ele>
        <time>2021-03-25T13:16:57Z</time>
      </trkpt>
      <trkpt lat="43.31011" lon="2.61188">
        <ele>151.54</ele>
        <time>2021-03-25T13:17:12Z</time>
      </trkpt>
      <trkpt lat="43.31022" lon="2.61166">
        <ele>151.54</ele>
        <time>2021-03-25T13:17:27Z</time>
      </trkpt>
      <trkpt lat="43.31024" lon="2.61161">
        <ele>150.58</ele>
        <time>2021-03-25T13:17:30Z</time>
      </trkpt>
      <trkpt lat="43.31026" lon="2.61148">
        <ele>149.62</ele>
        <time>2021-03-25T13:17:36Z</time>
      </trkpt>
      <trkpt lat="43.31027" lon="2.6114">
        <ele>149.62</ele>
        <time>2021-03-25T13:17:42Z</time>
      </trkpt>
      <trkpt lat="43.31027" lon="2.61132">
        <ele>150.58</ele>
        <time>2021-03-25T13:17:47Z</time>
      </trkpt>
      <trkpt lat="43.31025" lon="2.61125">
        <ele>150.58</ele>
        <time>2021-03-25T13:17:57Z</time>
      </trkpt>
      <trkpt lat="43.31017" lon="2.61106">
        <ele>150.1</ele>
        <time>2021-03-25T13:18:10Z</time>
      </trkpt>
      <trkpt lat="43.31008" lon="2.61087">
        <ele>150.1</ele>
        <time>2021-03-25T13:18:22Z</time>
      </trkpt>
      <trkpt lat="43.31008" lon="2.61085">
        <ele>150.1</ele>
        <time>2021-03-25T13:18:23Z</time>
      </trkpt>
      <trkpt lat="43.31007" lon="2.61083">
        <ele>150.1</ele>
        <time>2021-03-25T13:18:24Z</time>
      </trkpt>
      <trkpt lat="43.31006" lon="2.61081">
        <ele>150.1</ele>
        <time>2021-03-25T13:18:25Z</time>
      </trkpt>
      <trkpt lat="43.31005" lon="2.61079">
        <ele>150.1</ele>
        <time>2021-03-25T13:18:26Z</time>
      </trkpt>
      <trkpt lat="43.31005" lon="2.61076">
        <ele>150.1</ele>
        <time>2021-03-25T13:18:27Z</time>
      </trkpt>
      <trkpt lat="43.31005" lon="2.61074">
        <ele>150.1</ele>
        <time>2021-03-25T13:18:28Z</time>
      </trkpt>
      <trkpt lat="43.31005" lon="2.61071">
        <ele>150.1</ele>
        <time>2021-03-25T13:18:29Z</time>
      </trkpt>
      <trkpt lat="43.31006" lon="2.6107">
        <ele>150.1</ele>
        <time>2021-03-25T13:18:30Z</time>
      </trkpt>
      <trkpt lat="43.31007" lon="2.61068">
        <ele>150.1</ele>
        <time>2021-03-25T13:18:31Z</time>
      </trkpt>
      <trkpt lat="43.31014" lon="2.61051">
        <ele>150.1</ele>
        <time>2021-03-25T13:18:42Z</time>
      </trkpt>
      <trkpt lat="43.31025" lon="2.61021">
        <ele>150.1</ele>
        <time>2021-03-25T13:18:57Z</time>
      </trkpt>
      <trkpt lat="43.31036" lon="2.60998">
        <ele>150.58</ele>
        <time>2021-03-25T13:19:14Z</time>
      </trkpt>
      <trkpt lat="43.31043" lon="2.60981">
        <ele>151.06</ele>
        <time>2021-03-25T13:19:26Z</time>
      </trkpt>
      <trkpt lat="43.31048" lon="2.60975">
        <ele>151.06</ele>
        <time>2021-03-25T13:19:38Z</time>
      </trkpt>
      <trkpt lat="43.31049" lon="2.60973">
        <ele>151.06</ele>
        <time>2021-03-25T13:19:39Z</time>
      </trkpt>
      <trkpt lat="43.31055" lon="2.60959">
        <ele>151.54</ele>
        <time>2021-03-25T13:19:52Z</time>
      </trkpt>
      <trkpt lat="43.31056" lon="2.60958">
        <ele>151.54</ele>
        <time>2021-03-25T13:19:53Z</time>
      </trkpt>
      <trkpt lat="43.31057" lon="2.60957">
        <ele>151.54</ele>
        <time>2021-03-25T13:19:54Z</time>
      </trkpt>
      <trkpt lat="43.3106" lon="2.60954">
        <ele>151.54</ele>
        <time>2021-03-25T13:19:56Z</time>
      </trkpt>
      <trkpt lat="43.31061" lon="2.60953">
        <ele>151.54</ele>
        <time>2021-03-25T13:19:57Z</time>
      </trkpt>
      <trkpt lat="43.31062" lon="2.60951">
        <ele>152.03</ele>
        <time>2021-03-25T13:19:58Z</time>
      </trkpt>
      <trkpt lat="43.31063" lon="2.6095">
        <ele>152.03</ele>
        <time>2021-03-25T13:19:59Z</time>
      </trkpt>
      <trkpt lat="43.31065" lon="2.60947">
        <ele>152.03</ele>
        <time>2021-03-25T13:20:02Z</time>
      </trkpt>
      <trkpt lat="43.31065" lon="2.60944">
        <ele>152.03</ele>
        <time>2021-03-25T13:20:03Z</time>
      </trkpt>
      <trkpt lat="43.31072" lon="2.60923">
        <ele>151.54</ele>
        <time>2021-03-25T13:20:15Z</time>
      </trkpt>
      <trkpt lat="43.31073" lon="2.60923">
        <ele>151.54</ele>
        <time>2021-03-25T13:20:16Z</time>
      </trkpt>
      <trkpt lat="43.31073" lon="2.6092">
        <ele>151.54</ele>
        <time>2021-03-25T13:20:18Z</time>
      </trkpt>
      <trkpt lat="43.31073" lon="2.60918">
        <ele>151.54</ele>
        <time>2021-03-25T13:20:19Z</time>
      </trkpt>
      <trkpt lat="43.31074" lon="2.60916">
        <ele>152.03</ele>
        <time>2021-03-25T13:20:20Z</time>
      </trkpt>
      <trkpt lat="43.31074" lon="2.60915">
        <ele>152.03</ele>
        <time>2021-03-25T13:20:21Z</time>
      </trkpt>
      <trkpt lat="43.31074" lon="2.60913">
        <ele>152.03</ele>
        <time>2021-03-25T13:20:22Z</time>
      </trkpt>
      <trkpt lat="43.31077" lon="2.60893">
        <ele>152.51</ele>
        <time>2021-03-25T13:20:33Z</time>
      </trkpt>
      <trkpt lat="43.31078" lon="2.60891">
        <ele>152.51</ele>
        <time>2021-03-25T13:20:34Z</time>
      </trkpt>
      <trkpt lat="43.31078" lon="2.6089">
        <ele>152.51</ele>
        <time>2021-03-25T13:20:35Z</time>
      </trkpt>
      <trkpt lat="43.31078" lon="2.60888">
        <ele>152.51</ele>
        <time>2021-03-25T13:20:36Z</time>
      </trkpt>
      <trkpt lat="43.31079" lon="2.60886">
        <ele>152.51</ele>
        <time>2021-03-25T13:20:37Z</time>
      </trkpt>
      <trkpt lat="43.31079" lon="2.60884">
        <ele>152.51</ele>
        <time>2021-03-25T13:20:38Z</time>
      </trkpt>
      <trkpt lat="43.31079" lon="2.60878">
        <ele>152.99</ele>
        <time>2021-03-25T13:20:44Z</time>
      </trkpt>
      <trkpt lat="43.31079" lon="2.60876">
        <ele>152.99</ele>
        <time>2021-03-25T13:20:45Z</time>
      </trkpt>
      <trkpt lat="43.31079" lon="2.60865">
        <ele>152.99</ele>
        <time>2021-03-25T13:20:55Z</time>
      </trkpt>
      <trkpt lat="43.31082" lon="2.60854">
        <ele>151.54</ele>
        <time>2021-03-25T13:21:01Z</time>
      </trkpt>
      <trkpt lat="43.31094" lon="2.60838">
        <ele>151.06</ele>
        <time>2021-03-25T13:21:12Z</time>
      </trkpt>
      <trkpt lat="43.31096" lon="2.60835">
        <ele>151.06</ele>
        <time>2021-03-25T13:21:17Z</time>
      </trkpt>
      <trkpt lat="43.31101" lon="2.6082">
        <ele>152.99</ele>
        <time>2021-03-25T13:21:27Z</time>
      </trkpt>
      <trkpt lat="43.31101" lon="2.60818">
        <ele>152.99</ele>
        <time>2021-03-25T13:21:28Z</time>
      </trkpt>
      <trkpt lat="43.31106" lon="2.60797">
        <ele>152.51</ele>
        <time>2021-03-25T13:21:38Z</time>
      </trkpt>
      <trkpt lat="43.31105" lon="2.60783">
        <ele>151.54</ele>
        <time>2021-03-25T13:21:46Z</time>
      </trkpt>
      <trkpt lat="43.31104" lon="2.60783">
        <ele>151.54</ele>
        <time>2021-03-25T13:21:47Z</time>
      </trkpt>
      <trkpt lat="43.31102" lon="2.60783">
        <ele>151.54</ele>
        <time>2021-03-25T13:21:48Z</time>
      </trkpt>
      <trkpt lat="43.31077" lon="2.60781">
        <ele>150.58</ele>
        <time>2021-03-25T13:22:02Z</time>
      </trkpt>
      <trkpt lat="43.31068" lon="2.60771">
        <ele>150.58</ele>
        <time>2021-03-25T13:22:13Z</time>
      </trkpt>
      <trkpt lat="43.31068" lon="2.60768">
        <ele>150.58</ele>
        <time>2021-03-25T13:22:15Z</time>
      </trkpt>
      <trkpt lat="43.31068" lon="2.60765">
        <ele>152.03</ele>
        <time>2021-03-25T13:22:17Z</time>
      </trkpt>
      <trkpt lat="43.31071" lon="2.60757">
        <ele>152.51</ele>
        <time>2021-03-25T13:22:23Z</time>
      </trkpt>
      <trkpt lat="43.3107" lon="2.60755">
        <ele>152.51</ele>
        <time>2021-03-25T13:22:24Z</time>
      </trkpt>
      <trkpt lat="43.31071" lon="2.60753">
        <ele>152.51</ele>
        <time>2021-03-25T13:22:25Z</time>
      </trkpt>
      <trkpt lat="43.31071" lon="2.60751">
        <ele>152.51</ele>
        <time>2021-03-25T13:22:26Z</time>
      </trkpt>
      <trkpt lat="43.31072" lon="2.60749">
        <ele>152.51</ele>
        <time>2021-03-25T13:22:27Z</time>
      </trkpt>
      <trkpt lat="43.31072" lon="2.60745">
        <ele>153.47</ele>
        <time>2021-03-25T13:22:31Z</time>
      </trkpt>
      <trkpt lat="43.31072" lon="2.60741">
        <ele>153.95</ele>
        <time>2021-03-25T13:22:34Z</time>
      </trkpt>
      <trkpt lat="43.3108" lon="2.60719">
        <ele>153.95</ele>
        <time>2021-03-25T13:22:45Z</time>
      </trkpt>
      <trkpt lat="43.31081" lon="2.60716">
        <ele>154.43</ele>
        <time>2021-03-25T13:22:48Z</time>
      </trkpt>
      <trkpt lat="43.31081" lon="2.60715">
        <ele>154.43</ele>
        <time>2021-03-25T13:22:49Z</time>
      </trkpt>
      <trkpt lat="43.31082" lon="2.60713">
        <ele>154.43</ele>
        <time>2021-03-25T13:22:50Z</time>
      </trkpt>
      <trkpt lat="43.31082" lon="2.60711">
        <ele>154.43</ele>
        <time>2021-03-25T13:22:51Z</time>
      </trkpt>
      <trkpt lat="43.31083" lon="2.6071">
        <ele>154.43</ele>
        <time>2021-03-25T13:22:52Z</time>
      </trkpt>
      <trkpt lat="43.31092" lon="2.60698">
        <ele>154.91</ele>
        <time>2021-03-25T13:23:02Z</time>
      </trkpt>
      <trkpt lat="43.31105" lon="2.60689">
        <ele>154.91</ele>
        <time>2021-03-25T13:23:13Z</time>
      </trkpt>
      <trkpt lat="43.31112" lon="2.6068">
        <ele>154.91</ele>
        <time>2021-03-25T13:23:23Z</time>
      </trkpt>
      <trkpt lat="43.31119" lon="2.60674">
        <ele>155.39</ele>
        <time>2021-03-25T13:23:34Z</time>
      </trkpt>
      <trkpt lat="43.31125" lon="2.60668">
        <ele>156.35</ele>
        <time>2021-03-25T13:23:39Z</time>
      </trkpt>
      <trkpt lat="43.31127" lon="2.60665">
        <ele>154.43</ele>
        <time>2021-03-25T13:23:41Z</time>
      </trkpt>
      <trkpt lat="43.31127" lon="2.60663">
        <ele>154.43</ele>
        <time>2021-03-25T13:23:42Z</time>
      </trkpt>
      <trkpt lat="43.31128" lon="2.60638">
        <ele>152.99</ele>
        <time>2021-03-25T13:23:53Z</time>
      </trkpt>
      <trkpt lat="43.31124" lon="2.60631">
        <ele>151.54</ele>
        <time>2021-03-25T13:24:02Z</time>
      </trkpt>
      <trkpt lat="43.31123" lon="2.60629">
        <ele>150.58</ele>
        <time>2021-03-25T13:24:03Z</time>
      </trkpt>
      <trkpt lat="43.31122" lon="2.60626">
        <ele>150.58</ele>
        <time>2021-03-25T13:24:04Z</time>
      </trkpt>
      <trkpt lat="43.31118" lon="2.60616">
        <ele>149.62</ele>
        <time>2021-03-25T13:24:08Z</time>
      </trkpt>
      <trkpt lat="43.3111" lon="2.606">
        <ele>149.14</ele>
        <time>2021-03-25T13:24:17Z</time>
      </trkpt>
      <trkpt lat="43.3111" lon="2.60598">
        <ele>149.14</ele>
        <time>2021-03-25T13:24:19Z</time>
      </trkpt>
      <trkpt lat="43.31111" lon="2.60596">
        <ele>149.14</ele>
        <time>2021-03-25T13:24:20Z</time>
      </trkpt>
      <trkpt lat="43.31124" lon="2.60579">
        <ele>150.58</ele>
        <time>2021-03-25T13:24:32Z</time>
      </trkpt>
      <trkpt lat="43.31135" lon="2.60565">
        <ele>151.06</ele>
        <time>2021-03-25T13:24:45Z</time>
      </trkpt>
      <trkpt lat="43.31144" lon="2.6055">
        <ele>151.54</ele>
        <time>2021-03-25T13:24:57Z</time>
      </trkpt>
      <trkpt lat="43.31148" lon="2.60532">
        <ele>152.51</ele>
        <time>2021-03-25T13:25:08Z</time>
      </trkpt>
      <trkpt lat="43.31134" lon="2.60523">
        <ele>154.43</ele>
        <time>2021-03-25T13:25:21Z</time>
      </trkpt>
      <trkpt lat="43.31132" lon="2.60523">
        <ele>154.43</ele>
        <time>2021-03-25T13:25:23Z</time>
      </trkpt>
      <trkpt lat="43.31113" lon="2.6052">
        <ele>155.39</ele>
        <time>2021-03-25T13:25:34Z</time>
      </trkpt>
      <trkpt lat="43.31103" lon="2.60516">
        <ele>155.39</ele>
        <time>2021-03-25T13:25:44Z</time>
      </trkpt>
      <trkpt lat="43.31101" lon="2.60512">
        <ele>155.39</ele>
        <time>2021-03-25T13:25:48Z</time>
      </trkpt>
      <trkpt lat="43.31102" lon="2.60502">
        <ele>156.35</ele>
        <time>2021-03-25T13:25:54Z</time>
      </trkpt>
      <trkpt lat="43.31113" lon="2.60493">
        <ele>156.83</ele>
        <time>2021-03-25T13:26:06Z</time>
      </trkpt>
      <trkpt lat="43.31116" lon="2.60489">
        <ele>156.83</ele>
        <time>2021-03-25T13:26:12Z</time>
      </trkpt>
      <trkpt lat="43.31124" lon="2.6048">
        <ele>157.79</ele>
        <time>2021-03-25T13:26:21Z</time>
      </trkpt>
      <trkpt lat="43.3113" lon="2.60474">
        <ele>158.27</ele>
        <time>2021-03-25T13:26:28Z</time>
      </trkpt>
      <trkpt lat="43.31135" lon="2.60466">
        <ele>158.75</ele>
        <time>2021-03-25T13:26:32Z</time>
      </trkpt>
      <trkpt lat="43.31136" lon="2.60464">
        <ele>158.75</ele>
        <time>2021-03-25T13:26:33Z</time>
      </trkpt>
      <trkpt lat="43.31137" lon="2.60463">
        <ele>158.75</ele>
        <time>2021-03-25T13:26:34Z</time>
      </trkpt>
      <trkpt lat="43.31145" lon="2.60459">
        <ele>160.2</ele>
        <time>2021-03-25T13:26:43Z</time>
      </trkpt>
      <trkpt lat="43.31146" lon="2.60458">
        <ele>160.2</ele>
        <time>2021-03-25T13:26:44Z</time>
      </trkpt>
      <trkpt lat="43.31154" lon="2.60455">
        <ele>161.64</ele>
        <time>2021-03-25T13:26:52Z</time>
      </trkpt>
      <trkpt lat="43.31155" lon="2.60454">
        <ele>161.64</ele>
        <time>2021-03-25T13:26:53Z</time>
      </trkpt>
      <trkpt lat="43.31157" lon="2.60453">
        <ele>161.64</ele>
        <time>2021-03-25T13:26:55Z</time>
      </trkpt>
      <trkpt lat="43.31161" lon="2.60451">
        <ele>162.12</ele>
        <time>2021-03-25T13:27:00Z</time>
      </trkpt>
      <trkpt lat="43.31164" lon="2.6045">
        <ele>162.6</ele>
        <time>2021-03-25T13:27:02Z</time>
      </trkpt>
      <trkpt lat="43.31165" lon="2.6045">
        <ele>162.6</ele>
        <time>2021-03-25T13:27:03Z</time>
      </trkpt>
      <trkpt lat="43.31166" lon="2.60449">
        <ele>162.12</ele>
        <time>2021-03-25T13:27:04Z</time>
      </trkpt>
      <trkpt lat="43.31179" lon="2.6044">
        <ele>163.56</ele>
        <time>2021-03-25T13:27:15Z</time>
      </trkpt>
      <trkpt lat="43.31192" lon="2.60433">
        <ele>164.04</ele>
        <time>2021-03-25T13:27:27Z</time>
      </trkpt>
      <trkpt lat="43.31198" lon="2.60426">
        <ele>164.52</ele>
        <time>2021-03-25T13:27:32Z</time>
      </trkpt>
      <trkpt lat="43.31201" lon="2.60424">
        <ele>164.52</ele>
        <time>2021-03-25T13:27:35Z</time>
      </trkpt>
      <trkpt lat="43.31202" lon="2.60423">
        <ele>164.52</ele>
        <time>2021-03-25T13:27:36Z</time>
      </trkpt>
      <trkpt lat="43.31214" lon="2.60414">
        <ele>165</ele>
        <time>2021-03-25T13:27:47Z</time>
      </trkpt>
      <trkpt lat="43.31225" lon="2.60402">
        <ele>165</ele>
        <time>2021-03-25T13:27:58Z</time>
      </trkpt>
      <trkpt lat="43.31233" lon="2.60383">
        <ele>165.48</ele>
        <time>2021-03-25T13:28:10Z</time>
      </trkpt>
      <trkpt lat="43.31233" lon="2.60371">
        <ele>166.93</ele>
        <time>2021-03-25T13:28:20Z</time>
      </trkpt>
      <trkpt lat="43.31233" lon="2.60369">
        <ele>166.93</ele>
        <time>2021-03-25T13:28:21Z</time>
      </trkpt>
      <trkpt lat="43.31233" lon="2.60366">
        <ele>166.93</ele>
        <time>2021-03-25T13:28:22Z</time>
      </trkpt>
      <trkpt lat="43.31233" lon="2.60363">
        <ele>166.93</ele>
        <time>2021-03-25T13:28:23Z</time>
      </trkpt>
      <trkpt lat="43.31233" lon="2.6036">
        <ele>166.93</ele>
        <time>2021-03-25T13:28:24Z</time>
      </trkpt>
      <trkpt lat="43.31233" lon="2.60358">
        <ele>166.93</ele>
        <time>2021-03-25T13:28:25Z</time>
      </trkpt>
      <trkpt lat="43.31233" lon="2.60355">
        <ele>166.93</ele>
        <time>2021-03-25T13:28:26Z</time>
      </trkpt>
      <trkpt lat="43.31234" lon="2.60354">
        <ele>166.93</ele>
        <time>2021-03-25T13:28:27Z</time>
      </trkpt>
      <trkpt lat="43.31233" lon="2.60349">
        <ele>166.93</ele>
        <time>2021-03-25T13:28:32Z</time>
      </trkpt>
      <trkpt lat="43.31232" lon="2.60347">
        <ele>166.93</ele>
        <time>2021-03-25T13:28:33Z</time>
      </trkpt>
      <trkpt lat="43.31232" lon="2.60345">
        <ele>167.41</ele>
        <time>2021-03-25T13:28:34Z</time>
      </trkpt>
      <trkpt lat="43.31231" lon="2.60342">
        <ele>167.41</ele>
        <time>2021-03-25T13:28:35Z</time>
      </trkpt>
      <trkpt lat="43.31231" lon="2.60339">
        <ele>167.41</ele>
        <time>2021-03-25T13:28:36Z</time>
      </trkpt>
      <trkpt lat="43.31231" lon="2.60328">
        <ele>167.89</ele>
        <time>2021-03-25T13:28:42Z</time>
      </trkpt>
      <trkpt lat="43.31231" lon="2.60327">
        <ele>167.89</ele>
        <time>2021-03-25T13:28:43Z</time>
      </trkpt>
      <trkpt lat="43.31236" lon="2.60321">
        <ele>168.85</ele>
        <time>2021-03-25T13:28:50Z</time>
      </trkpt>
      <trkpt lat="43.31247" lon="2.60312">
        <ele>169.81</ele>
        <time>2021-03-25T13:29:00Z</time>
      </trkpt>
      <trkpt lat="43.31248" lon="2.60311">
        <ele>169.81</ele>
        <time>2021-03-25T13:29:01Z</time>
      </trkpt>
      <trkpt lat="43.31254" lon="2.60305">
        <ele>169.81</ele>
        <time>2021-03-25T13:29:10Z</time>
      </trkpt>
      <trkpt lat="43.31255" lon="2.60304">
        <ele>169.81</ele>
        <time>2021-03-25T13:29:11Z</time>
      </trkpt>
      <trkpt lat="43.31276" lon="2.60289">
        <ele>171.25</ele>
        <time>2021-03-25T13:29:26Z</time>
      </trkpt>
      <trkpt lat="43.31289" lon="2.60278">
        <ele>172.69</ele>
        <time>2021-03-25T13:29:40Z</time>
      </trkpt>
      <trkpt lat="43.31296" lon="2.60263">
        <ele>174.62</ele>
        <time>2021-03-25T13:29:50Z</time>
      </trkpt>
      <trkpt lat="43.31303" lon="2.60239">
        <ele>174.62</ele>
        <time>2021-03-25T13:30:06Z</time>
      </trkpt>
      <trkpt lat="43.31304" lon="2.60234">
        <ele>175.1</ele>
        <time>2021-03-25T13:30:10Z</time>
      </trkpt>
      <trkpt lat="43.31304" lon="2.60232">
        <ele>175.1</ele>
        <time>2021-03-25T13:30:11Z</time>
      </trkpt>
      <trkpt lat="43.31308" lon="2.60218">
        <ele>176.06</ele>
        <time>2021-03-25T13:30:20Z</time>
      </trkpt>
      <trkpt lat="43.31308" lon="2.60216">
        <ele>176.06</ele>
        <time>2021-03-25T13:30:21Z</time>
      </trkpt>
      <trkpt lat="43.31314" lon="2.60207">
        <ele>177.02</ele>
        <time>2021-03-25T13:30:30Z</time>
      </trkpt>
      <trkpt lat="43.3132" lon="2.602">
        <ele>177.5</ele>
        <time>2021-03-25T13:30:37Z</time>
      </trkpt>
      <trkpt lat="43.31321" lon="2.60199">
        <ele>177.5</ele>
        <time>2021-03-25T13:30:38Z</time>
      </trkpt>
      <trkpt lat="43.31323" lon="2.60197">
        <ele>177.5</ele>
        <time>2021-03-25T13:30:39Z</time>
      </trkpt>
      <trkpt lat="43.31328" lon="2.60195">
        <ele>177.5</ele>
        <time>2021-03-25T13:30:45Z</time>
      </trkpt>
      <trkpt lat="43.31329" lon="2.60194">
        <ele>177.98</ele>
        <time>2021-03-25T13:30:46Z</time>
      </trkpt>
      <trkpt lat="43.31331" lon="2.60193">
        <ele>177.98</ele>
        <time>2021-03-25T13:30:47Z</time>
      </trkpt>
      <trkpt lat="43.31332" lon="2.60192">
        <ele>177.98</ele>
        <time>2021-03-25T13:30:48Z</time>
      </trkpt>
      <trkpt lat="43.3134" lon="2.60181">
        <ele>178.94</ele>
        <time>2021-03-25T13:30:59Z</time>
      </trkpt>
      <trkpt lat="43.31349" lon="2.6017">
        <ele>179.42</ele>
        <time>2021-03-25T13:31:08Z</time>
      </trkpt>
      <trkpt lat="43.3136" lon="2.6016">
        <ele>179.9</ele>
        <time>2021-03-25T13:31:21Z</time>
      </trkpt>
      <trkpt lat="43.31361" lon="2.60159">
        <ele>179.9</ele>
        <time>2021-03-25T13:31:22Z</time>
      </trkpt>
      <trkpt lat="43.31363" lon="2.60146">
        <ele>181.35</ele>
        <time>2021-03-25T13:31:30Z</time>
      </trkpt>
      <trkpt lat="43.31365" lon="2.60143">
        <ele>180.38</ele>
        <time>2021-03-25T13:31:32Z</time>
      </trkpt>
      <trkpt lat="43.3137" lon="2.60134">
        <ele>180.87</ele>
        <time>2021-03-25T13:31:39Z</time>
      </trkpt>
      <trkpt lat="43.31383" lon="2.60117">
        <ele>181.83</ele>
        <time>2021-03-25T13:31:55Z</time>
      </trkpt>
      <trkpt lat="43.31383" lon="2.60115">
        <ele>181.83</ele>
        <time>2021-03-25T13:31:56Z</time>
      </trkpt>
      <trkpt lat="43.31383" lon="2.60113">
        <ele>181.83</ele>
        <time>2021-03-25T13:31:57Z</time>
      </trkpt>
      <trkpt lat="43.31383" lon="2.6011">
        <ele>181.83</ele>
        <time>2021-03-25T13:31:58Z</time>
      </trkpt>
      <trkpt lat="43.31383" lon="2.60108">
        <ele>181.83</ele>
        <time>2021-03-25T13:31:59Z</time>
      </trkpt>
      <trkpt lat="43.31383" lon="2.60105">
        <ele>181.83</ele>
        <time>2021-03-25T13:32:00Z</time>
      </trkpt>
      <trkpt lat="43.31382" lon="2.60087">
        <ele>181.83</ele>
        <time>2021-03-25T13:32:12Z</time>
      </trkpt>
      <trkpt lat="43.31381" lon="2.60085">
        <ele>181.83</ele>
        <time>2021-03-25T13:32:16Z</time>
      </trkpt>
      <trkpt lat="43.31381" lon="2.60084">
        <ele>181.83</ele>
        <time>2021-03-25T13:32:17Z</time>
      </trkpt>
      <trkpt lat="43.31381" lon="2.60081">
        <ele>181.83</ele>
        <time>2021-03-25T13:32:18Z</time>
      </trkpt>
      <trkpt lat="43.31381" lon="2.60079">
        <ele>181.83</ele>
        <time>2021-03-25T13:32:19Z</time>
      </trkpt>
      <trkpt lat="43.31381" lon="2.60076">
        <ele>181.83</ele>
        <time>2021-03-25T13:32:20Z</time>
      </trkpt>
      <trkpt lat="43.31381" lon="2.60074">
        <ele>181.83</ele>
        <time>2021-03-25T13:32:21Z</time>
      </trkpt>
      <trkpt lat="43.31381" lon="2.60057">
        <ele>181.83</ele>
        <time>2021-03-25T13:32:31Z</time>
      </trkpt>
      <trkpt lat="43.31382" lon="2.60041">
        <ele>182.31</ele>
        <time>2021-03-25T13:32:42Z</time>
      </trkpt>
      <trkpt lat="43.31384" lon="2.60032">
        <ele>182.79</ele>
        <time>2021-03-25T13:32:48Z</time>
      </trkpt>
      <trkpt lat="43.31384" lon="2.6003">
        <ele>182.79</ele>
        <time>2021-03-25T13:32:49Z</time>
      </trkpt>
      <trkpt lat="43.31384" lon="2.60027">
        <ele>183.27</ele>
        <time>2021-03-25T13:32:50Z</time>
      </trkpt>
      <trkpt lat="43.31384" lon="2.60023">
        <ele>183.27</ele>
        <time>2021-03-25T13:32:53Z</time>
      </trkpt>
      <trkpt lat="43.31383" lon="2.60021">
        <ele>183.27</ele>
        <time>2021-03-25T13:32:54Z</time>
      </trkpt>
      <trkpt lat="43.31385" lon="2.60018">
        <ele>183.75</ele>
        <time>2021-03-25T13:33:05Z</time>
      </trkpt>
      <trkpt lat="43.31386" lon="2.60017">
        <ele>183.75</ele>
        <time>2021-03-25T13:33:06Z</time>
      </trkpt>
      <trkpt lat="43.31386" lon="2.60015">
        <ele>183.75</ele>
        <time>2021-03-25T13:33:07Z</time>
      </trkpt>
      <trkpt lat="43.31388" lon="2.60007">
        <ele>183.75</ele>
        <time>2021-03-25T13:33:14Z</time>
      </trkpt>
      <trkpt lat="43.31396" lon="2.60001">
        <ele>184.71</ele>
        <time>2021-03-25T13:33:27Z</time>
      </trkpt>
      <trkpt lat="43.31399" lon="2.59993">
        <ele>184.71</ele>
        <time>2021-03-25T13:33:39Z</time>
      </trkpt>
      <trkpt lat="43.314" lon="2.5999">
        <ele>185.19</ele>
        <time>2021-03-25T13:33:45Z</time>
      </trkpt>
      <trkpt lat="43.314" lon="2.59983">
        <ele>185.19</ele>
        <time>2021-03-25T13:33:49Z</time>
      </trkpt>
      <trkpt lat="43.31403" lon="2.59966">
        <ele>185.19</ele>
        <time>2021-03-25T13:33:59Z</time>
      </trkpt>
      <trkpt lat="43.31404" lon="2.59964">
        <ele>185.19</ele>
        <time>2021-03-25T13:34:00Z</time>
      </trkpt>
      <trkpt lat="43.31403" lon="2.59951">
        <ele>185.67</ele>
        <time>2021-03-25T13:34:10Z</time>
      </trkpt>
      <trkpt lat="43.31403" lon="2.59946">
        <ele>186.63</ele>
        <time>2021-03-25T13:34:13Z</time>
      </trkpt>
      <trkpt lat="43.31397" lon="2.59935">
        <ele>185.67</ele>
        <time>2021-03-25T13:34:27Z</time>
      </trkpt>
      <trkpt lat="43.31395" lon="2.59922">
        <ele>184.71</ele>
        <time>2021-03-25T13:34:37Z</time>
      </trkpt>
      <trkpt lat="43.31396" lon="2.59913">
        <ele>184.71</ele>
        <time>2021-03-25T13:34:43Z</time>
      </trkpt>
      <trkpt lat="43.31396" lon="2.599">
        <ele>184.71</ele>
        <time>2021-03-25T13:34:53Z</time>
      </trkpt>
      <trkpt lat="43.31396" lon="2.599">
        <ele>184.71</ele>
        <time>2021-03-25T13:34:54Z</time>
      </trkpt>
      <trkpt lat="43.31395" lon="2.59897">
        <ele>184.71</ele>
        <time>2021-03-25T13:34:56Z</time>
      </trkpt>
      <trkpt lat="43.31391" lon="2.59876">
        <ele>184.23</ele>
        <time>2021-03-25T13:35:09Z</time>
      </trkpt>
      <trkpt lat="43.31389" lon="2.59858">
        <ele>184.23</ele>
        <time>2021-03-25T13:35:21Z</time>
      </trkpt>
      <trkpt lat="43.31389" lon="2.59856">
        <ele>184.23</ele>
        <time>2021-03-25T13:35:24Z</time>
      </trkpt>
      <trkpt lat="43.31386" lon="2.59836">
        <ele>184.23</ele>
        <time>2021-03-25T13:35:35Z</time>
      </trkpt>
      <trkpt lat="43.31386" lon="2.59828">
        <ele>184.23</ele>
        <time>2021-03-25T13:35:38Z</time>
      </trkpt>
      <trkpt lat="43.31387" lon="2.59824">
        <ele>184.23</ele>
        <time>2021-03-25T13:35:41Z</time>
      </trkpt>
      <trkpt lat="43.31395" lon="2.59819">
        <ele>183.75</ele>
        <time>2021-03-25T13:35:49Z</time>
      </trkpt>
      <trkpt lat="43.3141" lon="2.5982">
        <ele>185.19</ele>
        <time>2021-03-25T13:36:01Z</time>
      </trkpt>
      <trkpt lat="43.3141" lon="2.5982">
        <ele>185.19</ele>
        <time>2021-03-25T13:36:02Z</time>
      </trkpt>
      <trkpt lat="43.31412" lon="2.59819">
        <ele>185.19</ele>
        <time>2021-03-25T13:36:05Z</time>
      </trkpt>
      <trkpt lat="43.31414" lon="2.59802">
        <ele>186.63</ele>
        <time>2021-03-25T13:36:17Z</time>
      </trkpt>
      <trkpt lat="43.31412" lon="2.59792">
        <ele>187.11</ele>
        <time>2021-03-25T13:36:24Z</time>
      </trkpt>
      <trkpt lat="43.31413" lon="2.59787">
        <ele>188.56</ele>
        <time>2021-03-25T13:36:28Z</time>
      </trkpt>
      <trkpt lat="43.31414" lon="2.59773">
        <ele>189.52</ele>
        <time>2021-03-25T13:36:40Z</time>
      </trkpt>
      <trkpt lat="43.31413" lon="2.59775">
        <ele>190</ele>
        <time>2021-03-25T13:37:01Z</time>
      </trkpt>
      <trkpt lat="43.31414" lon="2.59771">
        <ele>190.48</ele>
        <time>2021-03-25T13:37:25Z</time>
      </trkpt>
      <trkpt lat="43.31415" lon="2.59763">
        <ele>190</ele>
        <time>2021-03-25T13:37:40Z</time>
      </trkpt>
      <trkpt lat="43.31417" lon="2.59742">
        <ele>190.96</ele>
        <time>2021-03-25T13:37:57Z</time>
      </trkpt>
      <trkpt lat="43.31424" lon="2.59738">
        <ele>190.96</ele>
        <time>2021-03-25T13:38:04Z</time>
      </trkpt>
      <trkpt lat="43.31441" lon="2.59734">
        <ele>190.96</ele>
        <time>2021-03-25T13:38:18Z</time>
      </trkpt>
      <trkpt lat="43.31447" lon="2.59733">
        <ele>190.48</ele>
        <time>2021-03-25T13:38:23Z</time>
      </trkpt>
      <trkpt lat="43.3146" lon="2.59729">
        <ele>191.44</ele>
        <time>2021-03-25T13:38:36Z</time>
      </trkpt>
      <trkpt lat="43.31461" lon="2.59729">
        <ele>191.44</ele>
        <time>2021-03-25T13:38:37Z</time>
      </trkpt>
      <trkpt lat="43.31482" lon="2.59721">
        <ele>191.92</ele>
        <time>2021-03-25T13:38:56Z</time>
      </trkpt>
      <trkpt lat="43.31499" lon="2.59715">
        <ele>191.92</ele>
        <time>2021-03-25T13:39:09Z</time>
      </trkpt>
      <trkpt lat="43.31506" lon="2.59716">
        <ele>191.92</ele>
        <time>2021-03-25T13:39:16Z</time>
      </trkpt>
      <trkpt lat="43.31507" lon="2.59717">
        <ele>191.92</ele>
        <time>2021-03-25T13:39:17Z</time>
      </trkpt>
      <trkpt lat="43.31509" lon="2.59718">
        <ele>191.92</ele>
        <time>2021-03-25T13:39:18Z</time>
      </trkpt>
      <trkpt lat="43.31511" lon="2.59719">
        <ele>191.92</ele>
        <time>2021-03-25T13:39:19Z</time>
      </trkpt>
      <trkpt lat="43.31513" lon="2.59719">
        <ele>191.92</ele>
        <time>2021-03-25T13:39:20Z</time>
      </trkpt>
      <trkpt lat="43.3152" lon="2.59722">
        <ele>191.92</ele>
        <time>2021-03-25T13:39:29Z</time>
      </trkpt>
      <trkpt lat="43.31522" lon="2.59722">
        <ele>191.92</ele>
        <time>2021-03-25T13:39:30Z</time>
      </trkpt>
      <trkpt lat="43.31523" lon="2.59723">
        <ele>191.92</ele>
        <time>2021-03-25T13:39:31Z</time>
      </trkpt>
      <trkpt lat="43.31525" lon="2.59723">
        <ele>191.92</ele>
        <time>2021-03-25T13:39:32Z</time>
      </trkpt>
      <trkpt lat="43.31526" lon="2.59724">
        <ele>190.48</ele>
        <time>2021-03-25T13:39:33Z</time>
      </trkpt>
      <trkpt lat="43.31528" lon="2.59726">
        <ele>190.48</ele>
        <time>2021-03-25T13:39:34Z</time>
      </trkpt>
      <trkpt lat="43.31529" lon="2.59727">
        <ele>190.48</ele>
        <time>2021-03-25T13:39:35Z</time>
      </trkpt>
      <trkpt lat="43.31536" lon="2.59728">
        <ele>190</ele>
        <time>2021-03-25T13:39:43Z</time>
      </trkpt>
      <trkpt lat="43.31537" lon="2.59728">
        <ele>190</ele>
        <time>2021-03-25T13:39:44Z</time>
      </trkpt>
      <trkpt lat="43.31539" lon="2.59728">
        <ele>190</ele>
        <time>2021-03-25T13:39:45Z</time>
      </trkpt>
      <trkpt lat="43.31543" lon="2.59729">
        <ele>190</ele>
        <time>2021-03-25T13:39:48Z</time>
      </trkpt>
      <trkpt lat="43.31544" lon="2.5973">
        <ele>190</ele>
        <time>2021-03-25T13:39:49Z</time>
      </trkpt>
      <trkpt lat="43.31558" lon="2.59738">
        <ele>189.04</ele>
        <time>2021-03-25T13:40:01Z</time>
      </trkpt>
      <trkpt lat="43.31564" lon="2.59744">
        <ele>189.04</ele>
        <time>2021-03-25T13:40:08Z</time>
      </trkpt>
      <trkpt lat="43.31565" lon="2.59746">
        <ele>189.04</ele>
        <time>2021-03-25T13:40:09Z</time>
      </trkpt>
      <trkpt lat="43.31576" lon="2.59763">
        <ele>188.56</ele>
        <time>2021-03-25T13:40:19Z</time>
      </trkpt>
      <trkpt lat="43.31581" lon="2.5977">
        <ele>187.59</ele>
        <time>2021-03-25T13:40:29Z</time>
      </trkpt>
      <trkpt lat="43.31588" lon="2.59776">
        <ele>186.63</ele>
        <time>2021-03-25T13:40:36Z</time>
      </trkpt>
      <trkpt lat="43.3159" lon="2.59777">
        <ele>186.63</ele>
        <time>2021-03-25T13:40:37Z</time>
      </trkpt>
      <trkpt lat="43.31591" lon="2.59777">
        <ele>186.63</ele>
        <time>2021-03-25T13:40:38Z</time>
      </trkpt>
      <trkpt lat="43.31593" lon="2.59777">
        <ele>186.63</ele>
        <time>2021-03-25T13:40:39Z</time>
      </trkpt>
      <trkpt lat="43.31595" lon="2.59777">
        <ele>186.63</ele>
        <time>2021-03-25T13:40:40Z</time>
      </trkpt>
      <trkpt lat="43.31597" lon="2.59778">
        <ele>186.63</ele>
        <time>2021-03-25T13:40:41Z</time>
      </trkpt>
      <trkpt lat="43.31599" lon="2.59778">
        <ele>185.67</ele>
        <time>2021-03-25T13:40:42Z</time>
      </trkpt>
      <trkpt lat="43.31609" lon="2.59777">
        <ele>184.71</ele>
        <time>2021-03-25T13:40:54Z</time>
      </trkpt>
      <trkpt lat="43.31626" lon="2.59776">
        <ele>182.79</ele>
        <time>2021-03-25T13:41:06Z</time>
      </trkpt>
      <trkpt lat="43.31645" lon="2.59788">
        <ele>181.83</ele>
        <time>2021-03-25T13:41:19Z</time>
      </trkpt>
      <trkpt lat="43.3166" lon="2.59795">
        <ele>181.35</ele>
        <time>2021-03-25T13:41:33Z</time>
      </trkpt>
      <trkpt lat="43.31676" lon="2.5981">
        <ele>180.87</ele>
        <time>2021-03-25T13:41:45Z</time>
      </trkpt>
      <trkpt lat="43.31688" lon="2.59823">
        <ele>180.87</ele>
        <time>2021-03-25T13:41:59Z</time>
      </trkpt>
      <trkpt lat="43.31698" lon="2.59825">
        <ele>180.38</ele>
        <time>2021-03-25T13:42:09Z</time>
      </trkpt>
      <trkpt lat="43.31713" lon="2.59819">
        <ele>179.9</ele>
        <time>2021-03-25T13:42:20Z</time>
      </trkpt>
      <trkpt lat="43.31723" lon="2.59804">
        <ele>180.87</ele>
        <time>2021-03-25T13:42:33Z</time>
      </trkpt>
      <trkpt lat="43.31733" lon="2.5979">
        <ele>182.31</ele>
        <time>2021-03-25T13:42:46Z</time>
      </trkpt>
      <trkpt lat="43.31744" lon="2.59776">
        <ele>183.27</ele>
        <time>2021-03-25T13:42:59Z</time>
      </trkpt>
      <trkpt lat="43.31758" lon="2.59762">
        <ele>184.23</ele>
        <time>2021-03-25T13:43:12Z</time>
      </trkpt>
      <trkpt lat="43.31768" lon="2.59747">
        <ele>185.67</ele>
        <time>2021-03-25T13:43:24Z</time>
      </trkpt>
      <trkpt lat="43.31772" lon="2.59737">
        <ele>186.15</ele>
        <time>2021-03-25T13:43:33Z</time>
      </trkpt>
      <trkpt lat="43.31772" lon="2.59735">
        <ele>186.63</ele>
        <time>2021-03-25T13:43:34Z</time>
      </trkpt>
      <trkpt lat="43.31778" lon="2.59714">
        <ele>186.63</ele>
        <time>2021-03-25T13:43:47Z</time>
      </trkpt>
      <trkpt lat="43.31785" lon="2.59697">
        <ele>186.63</ele>
        <time>2021-03-25T13:44:00Z</time>
      </trkpt>
      <trkpt lat="43.31797" lon="2.59678">
        <ele>188.08</ele>
        <time>2021-03-25T13:44:13Z</time>
      </trkpt>
      <trkpt lat="43.31808" lon="2.5966">
        <ele>189.04</ele>
        <time>2021-03-25T13:44:26Z</time>
      </trkpt>
      <trkpt lat="43.31814" lon="2.59641">
        <ele>189.52</ele>
        <time>2021-03-25T13:44:38Z</time>
      </trkpt>
      <trkpt lat="43.3182" lon="2.59625">
        <ele>190</ele>
        <time>2021-03-25T13:44:49Z</time>
      </trkpt>
      <trkpt lat="43.31822" lon="2.59622">
        <ele>190</ele>
        <time>2021-03-25T13:44:53Z</time>
      </trkpt>
      <trkpt lat="43.31823" lon="2.5962">
        <ele>190</ele>
        <time>2021-03-25T13:44:54Z</time>
      </trkpt>
      <trkpt lat="43.31833" lon="2.59602">
        <ele>191.44</ele>
        <time>2021-03-25T13:45:09Z</time>
      </trkpt>
      <trkpt lat="43.31839" lon="2.59587">
        <ele>191.92</ele>
        <time>2021-03-25T13:45:22Z</time>
      </trkpt>
      <trkpt lat="43.3184" lon="2.59586">
        <ele>191.92</ele>
        <time>2021-03-25T13:45:23Z</time>
      </trkpt>
      <trkpt lat="43.31842" lon="2.59585">
        <ele>191.92</ele>
        <time>2021-03-25T13:45:24Z</time>
      </trkpt>
      <trkpt lat="43.31843" lon="2.59583">
        <ele>191.92</ele>
        <time>2021-03-25T13:45:25Z</time>
      </trkpt>
      <trkpt lat="43.31844" lon="2.59582">
        <ele>191.92</ele>
        <time>2021-03-25T13:45:26Z</time>
      </trkpt>
      <trkpt lat="43.31846" lon="2.5958">
        <ele>191.92</ele>
        <time>2021-03-25T13:45:27Z</time>
      </trkpt>
      <trkpt lat="43.31848" lon="2.59578">
        <ele>191.92</ele>
        <time>2021-03-25T13:45:28Z</time>
      </trkpt>
      <trkpt lat="43.31849" lon="2.59577">
        <ele>190.48</ele>
        <time>2021-03-25T13:45:29Z</time>
      </trkpt>
      <trkpt lat="43.3185" lon="2.59576">
        <ele>190.48</ele>
        <time>2021-03-25T13:45:30Z</time>
      </trkpt>
      <trkpt lat="43.31861" lon="2.5957">
        <ele>190</ele>
        <time>2021-03-25T13:45:40Z</time>
      </trkpt>
      <trkpt lat="43.31879" lon="2.59574">
        <ele>189.52</ele>
        <time>2021-03-25T13:45:52Z</time>
      </trkpt>
      <trkpt lat="43.3188" lon="2.59575">
        <ele>189.52</ele>
        <time>2021-03-25T13:45:53Z</time>
      </trkpt>
      <trkpt lat="43.31881" lon="2.59576">
        <ele>189.52</ele>
        <time>2021-03-25T13:45:54Z</time>
      </trkpt>
      <trkpt lat="43.31888" lon="2.59591">
        <ele>189.52</ele>
        <time>2021-03-25T13:46:06Z</time>
      </trkpt>
      <trkpt lat="43.31891" lon="2.59594">
        <ele>189.52</ele>
        <time>2021-03-25T13:46:09Z</time>
      </trkpt>
      <trkpt lat="43.31892" lon="2.59596">
        <ele>189.52</ele>
        <time>2021-03-25T13:46:10Z</time>
      </trkpt>
      <trkpt lat="43.31893" lon="2.59597">
        <ele>189.52</ele>
        <time>2021-03-25T13:46:11Z</time>
      </trkpt>
      <trkpt lat="43.31895" lon="2.59598">
        <ele>189.52</ele>
        <time>2021-03-25T13:46:12Z</time>
      </trkpt>
      <trkpt lat="43.31896" lon="2.59598">
        <ele>189.52</ele>
        <time>2021-03-25T13:46:13Z</time>
      </trkpt>
      <trkpt lat="43.3191" lon="2.59605">
        <ele>190.96</ele>
        <time>2021-03-25T13:46:24Z</time>
      </trkpt>
      <trkpt lat="43.31922" lon="2.59618">
        <ele>192.4</ele>
        <time>2021-03-25T13:46:37Z</time>
      </trkpt>
      <trkpt lat="43.31934" lon="2.5963">
        <ele>192.4</ele>
        <time>2021-03-25T13:46:50Z</time>
      </trkpt>
      <trkpt lat="43.31942" lon="2.59647">
        <ele>192.4</ele>
        <time>2021-03-25T13:47:01Z</time>
      </trkpt>
      <trkpt lat="43.31947" lon="2.59656">
        <ele>192.4</ele>
        <time>2021-03-25T13:47:09Z</time>
      </trkpt>
      <trkpt lat="43.31949" lon="2.5966">
        <ele>192.4</ele>
        <time>2021-03-25T13:47:11Z</time>
      </trkpt>
      <trkpt lat="43.3195" lon="2.59663">
        <ele>192.4</ele>
        <time>2021-03-25T13:47:12Z</time>
      </trkpt>
      <trkpt lat="43.31951" lon="2.59665">
        <ele>192.4</ele>
        <time>2021-03-25T13:47:13Z</time>
      </trkpt>
      <trkpt lat="43.31952" lon="2.59666">
        <ele>192.4</ele>
        <time>2021-03-25T13:47:14Z</time>
      </trkpt>
      <trkpt lat="43.31953" lon="2.59668">
        <ele>192.4</ele>
        <time>2021-03-25T13:47:15Z</time>
      </trkpt>
      <trkpt lat="43.31954" lon="2.59669">
        <ele>192.4</ele>
        <time>2021-03-25T13:47:16Z</time>
      </trkpt>
      <trkpt lat="43.31967" lon="2.59679">
        <ele>192.4</ele>
        <time>2021-03-25T13:47:27Z</time>
      </trkpt>
      <trkpt lat="43.31978" lon="2.59688">
        <ele>192.88</ele>
        <time>2021-03-25T13:47:39Z</time>
      </trkpt>
      <trkpt lat="43.31989" lon="2.597">
        <ele>192.88</ele>
        <time>2021-03-25T13:47:50Z</time>
      </trkpt>
      <trkpt lat="43.31991" lon="2.59705">
        <ele>192.88</ele>
        <time>2021-03-25T13:47:54Z</time>
      </trkpt>
      <trkpt lat="43.31992" lon="2.59707">
        <ele>192.88</ele>
        <time>2021-03-25T13:47:55Z</time>
      </trkpt>
      <trkpt lat="43.31993" lon="2.59709">
        <ele>192.88</ele>
        <time>2021-03-25T13:47:56Z</time>
      </trkpt>
      <trkpt lat="43.31993" lon="2.59711">
        <ele>192.88</ele>
        <time>2021-03-25T13:47:57Z</time>
      </trkpt>
      <trkpt lat="43.31994" lon="2.59713">
        <ele>192.88</ele>
        <time>2021-03-25T13:47:58Z</time>
      </trkpt>
      <trkpt lat="43.31994" lon="2.59715">
        <ele>192.88</ele>
        <time>2021-03-25T13:47:59Z</time>
      </trkpt>
      <trkpt lat="43.31995" lon="2.59717">
        <ele>192.88</ele>
        <time>2021-03-25T13:48:00Z</time>
      </trkpt>
      <trkpt lat="43.31998" lon="2.59718">
        <ele>192.4</ele>
        <time>2021-03-25T13:48:04Z</time>
      </trkpt>
      <trkpt lat="43.31999" lon="2.59718">
        <ele>192.4</ele>
        <time>2021-03-25T13:48:05Z</time>
      </trkpt>
      <trkpt lat="43.32" lon="2.59718">
        <ele>192.4</ele>
        <time>2021-03-25T13:48:06Z</time>
      </trkpt>
      <trkpt lat="43.32003" lon="2.59717">
        <ele>192.4</ele>
        <time>2021-03-25T13:48:07Z</time>
      </trkpt>
      <trkpt lat="43.32003" lon="2.59717">
        <ele>192.4</ele>
        <time>2021-03-25T13:48:08Z</time>
      </trkpt>
      <trkpt lat="43.32004" lon="2.59717">
        <ele>192.88</ele>
        <time>2021-03-25T13:48:09Z</time>
      </trkpt>
      <trkpt lat="43.32014" lon="2.59713">
        <ele>194.32</ele>
        <time>2021-03-25T13:48:20Z</time>
      </trkpt>
      <trkpt lat="43.32014" lon="2.59714">
        <ele>194.8</ele>
        <time>2021-03-25T13:48:36Z</time>
      </trkpt>
      <trkpt lat="43.32014" lon="2.59715">
        <ele>194.8</ele>
        <time>2021-03-25T13:49:04Z</time>
      </trkpt>
      <trkpt lat="43.32013" lon="2.59714">
        <ele>194.8</ele>
        <time>2021-03-25T13:49:25Z</time>
      </trkpt>
      <trkpt lat="43.32013" lon="2.59714">
        <ele>194.8</ele>
        <time>2021-03-25T13:49:44Z</time>
      </trkpt>
      <trkpt lat="43.32015" lon="2.59714">
        <ele>193.36</ele>
        <time>2021-03-25T13:50:13Z</time>
      </trkpt>
      <trkpt lat="43.32015" lon="2.59715">
        <ele>193.36</ele>
        <time>2021-03-25T13:50:43Z</time>
      </trkpt>
      <trkpt lat="43.32014" lon="2.59714">
        <ele>193.36</ele>
        <time>2021-03-25T13:51:05Z</time>
      </trkpt>
      <trkpt lat="43.32013" lon="2.59717">
        <ele>194.32</ele>
        <time>2021-03-25T13:51:31Z</time>
      </trkpt>
      <trkpt lat="43.32011" lon="2.59719">
        <ele>194.32</ele>
        <time>2021-03-25T13:51:46Z</time>
      </trkpt>
      <trkpt lat="43.32003" lon="2.5972">
        <ele>192.4</ele>
        <time>2021-03-25T13:51:56Z</time>
      </trkpt>
      <trkpt lat="43.3199" lon="2.59737">
        <ele>191.44</ele>
        <time>2021-03-25T13:52:11Z</time>
      </trkpt>
      <trkpt lat="43.31982" lon="2.59743">
        <ele>191.44</ele>
        <time>2021-03-25T13:52:21Z</time>
      </trkpt>
      <trkpt lat="43.3198" lon="2.59744">
        <ele>191.44</ele>
        <time>2021-03-25T13:52:22Z</time>
      </trkpt>
      <trkpt lat="43.31975" lon="2.59749">
        <ele>191.44</ele>
        <time>2021-03-25T13:52:27Z</time>
      </trkpt>
      <trkpt lat="43.31974" lon="2.59749">
        <ele>190.96</ele>
        <time>2021-03-25T13:52:28Z</time>
      </trkpt>
      <trkpt lat="43.3197" lon="2.5975">
        <ele>190.48</ele>
        <time>2021-03-25T13:52:32Z</time>
      </trkpt>
      <trkpt lat="43.31969" lon="2.59751">
        <ele>190.48</ele>
        <time>2021-03-25T13:52:33Z</time>
      </trkpt>
      <trkpt lat="43.31968" lon="2.59752">
        <ele>190.48</ele>
        <time>2021-03-25T13:52:34Z</time>
      </trkpt>
      <trkpt lat="43.31959" lon="2.59759">
        <ele>190</ele>
        <time>2021-03-25T13:52:40Z</time>
      </trkpt>
      <trkpt lat="43.31947" lon="2.59778">
        <ele>190</ele>
        <time>2021-03-25T13:52:54Z</time>
      </trkpt>
      <trkpt lat="43.31946" lon="2.59779">
        <ele>190</ele>
        <time>2021-03-25T13:52:55Z</time>
      </trkpt>
      <trkpt lat="43.31944" lon="2.59781">
        <ele>190</ele>
        <time>2021-03-25T13:52:58Z</time>
      </trkpt>
      <trkpt lat="43.31943" lon="2.59782">
        <ele>190</ele>
        <time>2021-03-25T13:52:59Z</time>
      </trkpt>
      <trkpt lat="43.31942" lon="2.59784">
        <ele>190</ele>
        <time>2021-03-25T13:53:00Z</time>
      </trkpt>
      <trkpt lat="43.31941" lon="2.59785">
        <ele>190</ele>
        <time>2021-03-25T13:53:01Z</time>
      </trkpt>
      <trkpt lat="43.3194" lon="2.59786">
        <ele>190</ele>
        <time>2021-03-25T13:53:02Z</time>
      </trkpt>
      <trkpt lat="43.31939" lon="2.59788">
        <ele>190</ele>
        <time>2021-03-25T13:53:03Z</time>
      </trkpt>
      <trkpt lat="43.31938" lon="2.5979">
        <ele>190</ele>
        <time>2021-03-25T13:53:04Z</time>
      </trkpt>
      <trkpt lat="43.31937" lon="2.59791">
        <ele>190</ele>
        <time>2021-03-25T13:53:05Z</time>
      </trkpt>
      <trkpt lat="43.31936" lon="2.59792">
        <ele>190</ele>
        <time>2021-03-25T13:53:06Z</time>
      </trkpt>
      <trkpt lat="43.31921" lon="2.59807">
        <ele>190</ele>
        <time>2021-03-25T13:53:20Z</time>
      </trkpt>
      <trkpt lat="43.31918" lon="2.59809">
        <ele>190.96</ele>
        <time>2021-03-25T13:53:24Z</time>
      </trkpt>
      <trkpt lat="43.31917" lon="2.59809">
        <ele>190.96</ele>
        <time>2021-03-25T13:53:25Z</time>
      </trkpt>
      <trkpt lat="43.31916" lon="2.5981">
        <ele>190.96</ele>
        <time>2021-03-25T13:53:26Z</time>
      </trkpt>
      <trkpt lat="43.31903" lon="2.59818">
        <ele>191.92</ele>
        <time>2021-03-25T13:53:38Z</time>
      </trkpt>
      <trkpt lat="43.31902" lon="2.59819">
        <ele>191.92</ele>
        <time>2021-03-25T13:53:39Z</time>
      </trkpt>
      <trkpt lat="43.31901" lon="2.59822">
        <ele>191.92</ele>
        <time>2021-03-25T13:53:40Z</time>
      </trkpt>
      <trkpt lat="43.319" lon="2.59824">
        <ele>191.92</ele>
        <time>2021-03-25T13:53:41Z</time>
      </trkpt>
      <trkpt lat="43.31898" lon="2.59826">
        <ele>191.92</ele>
        <time>2021-03-25T13:53:42Z</time>
      </trkpt>
      <trkpt lat="43.31898" lon="2.59827">
        <ele>191.92</ele>
        <time>2021-03-25T13:53:43Z</time>
      </trkpt>
      <trkpt lat="43.31897" lon="2.59828">
        <ele>190.48</ele>
        <time>2021-03-25T13:53:44Z</time>
      </trkpt>
      <trkpt lat="43.31896" lon="2.5983">
        <ele>190.48</ele>
        <time>2021-03-25T13:53:45Z</time>
      </trkpt>
      <trkpt lat="43.31884" lon="2.59841">
        <ele>188.56</ele>
        <time>2021-03-25T13:53:57Z</time>
      </trkpt>
      <trkpt lat="43.31875" lon="2.59849">
        <ele>187.59</ele>
        <time>2021-03-25T13:54:08Z</time>
      </trkpt>
      <trkpt lat="43.31874" lon="2.5985">
        <ele>187.59</ele>
        <time>2021-03-25T13:54:09Z</time>
      </trkpt>
      <trkpt lat="43.31872" lon="2.59852">
        <ele>187.59</ele>
        <time>2021-03-25T13:54:11Z</time>
      </trkpt>
      <trkpt lat="43.31868" lon="2.59855">
        <ele>187.11</ele>
        <time>2021-03-25T13:54:17Z</time>
      </trkpt>
      <trkpt lat="43.31866" lon="2.59856">
        <ele>186.63</ele>
        <time>2021-03-25T13:54:19Z</time>
      </trkpt>
      <trkpt lat="43.31858" lon="2.59859">
        <ele>185.67</ele>
        <time>2021-03-25T13:54:33Z</time>
      </trkpt>
      <trkpt lat="43.31848" lon="2.59864">
        <ele>184.71</ele>
        <time>2021-03-25T13:54:42Z</time>
      </trkpt>
      <trkpt lat="43.31846" lon="2.59865">
        <ele>184.23</ele>
        <time>2021-03-25T13:54:43Z</time>
      </trkpt>
      <trkpt lat="43.31842" lon="2.59869">
        <ele>184.23</ele>
        <time>2021-03-25T13:54:46Z</time>
      </trkpt>
      <trkpt lat="43.31842" lon="2.59873">
        <ele>183.27</ele>
        <time>2021-03-25T13:54:48Z</time>
      </trkpt>
      <trkpt lat="43.3184" lon="2.59878">
        <ele>183.27</ele>
        <time>2021-03-25T13:54:52Z</time>
      </trkpt>
      <trkpt lat="43.31837" lon="2.59882">
        <ele>182.79</ele>
        <time>2021-03-25T13:55:06Z</time>
      </trkpt>
      <trkpt lat="43.31836" lon="2.59885">
        <ele>182.79</ele>
        <time>2021-03-25T13:55:08Z</time>
      </trkpt>
      <trkpt lat="43.31836" lon="2.59887">
        <ele>182.79</ele>
        <time>2021-03-25T13:55:09Z</time>
      </trkpt>
      <trkpt lat="43.31835" lon="2.5989">
        <ele>182.79</ele>
        <time>2021-03-25T13:55:10Z</time>
      </trkpt>
      <trkpt lat="43.31834" lon="2.59892">
        <ele>182.79</ele>
        <time>2021-03-25T13:55:11Z</time>
      </trkpt>
      <trkpt lat="43.3183" lon="2.59904">
        <ele>181.83</ele>
        <time>2021-03-25T13:55:23Z</time>
      </trkpt>
      <trkpt lat="43.31823" lon="2.59929">
        <ele>180.87</ele>
        <time>2021-03-25T13:55:38Z</time>
      </trkpt>
      <trkpt lat="43.31822" lon="2.59932">
        <ele>180.87</ele>
        <time>2021-03-25T13:55:49Z</time>
      </trkpt>
      <trkpt lat="43.31821" lon="2.59932">
        <ele>180.87</ele>
        <time>2021-03-25T13:56:01Z</time>
      </trkpt>
      <trkpt lat="43.31817" lon="2.59945">
        <ele>180.38</ele>
        <time>2021-03-25T13:56:11Z</time>
      </trkpt>
      <trkpt lat="43.31812" lon="2.59957">
        <ele>180.38</ele>
        <time>2021-03-25T13:56:20Z</time>
      </trkpt>
      <trkpt lat="43.31806" lon="2.59972">
        <ele>180.38</ele>
        <time>2021-03-25T13:56:31Z</time>
      </trkpt>
      <trkpt lat="43.31805" lon="2.59976">
        <ele>181.35</ele>
        <time>2021-03-25T13:56:37Z</time>
      </trkpt>
      <trkpt lat="43.31803" lon="2.59981">
        <ele>181.35</ele>
        <time>2021-03-25T13:56:55Z</time>
      </trkpt>
      <trkpt lat="43.31803" lon="2.5998">
        <ele>180.87</ele>
        <time>2021-03-25T13:57:12Z</time>
      </trkpt>
      <trkpt lat="43.31804" lon="2.5998">
        <ele>180.87</ele>
        <time>2021-03-25T13:57:23Z</time>
      </trkpt>
      <trkpt lat="43.31802" lon="2.59982">
        <ele>182.31</ele>
        <time>2021-03-25T13:57:26Z</time>
      </trkpt>
      <trkpt lat="43.31801" lon="2.59985">
        <ele>182.31</ele>
        <time>2021-03-25T13:57:28Z</time>
      </trkpt>
      <trkpt lat="43.31795" lon="2.59997">
        <ele>182.79</ele>
        <time>2021-03-25T13:57:39Z</time>
      </trkpt>
      <trkpt lat="43.31795" lon="2.59998">
        <ele>182.79</ele>
        <time>2021-03-25T13:57:40Z</time>
      </trkpt>
      <trkpt lat="43.31794" lon="2.6">
        <ele>182.79</ele>
        <time>2021-03-25T13:57:41Z</time>
      </trkpt>
      <trkpt lat="43.31794" lon="2.60002">
        <ele>182.79</ele>
        <time>2021-03-25T13:57:42Z</time>
      </trkpt>
      <trkpt lat="43.31793" lon="2.60004">
        <ele>183.27</ele>
        <time>2021-03-25T13:57:43Z</time>
      </trkpt>
      <trkpt lat="43.31792" lon="2.60006">
        <ele>183.27</ele>
        <time>2021-03-25T13:57:44Z</time>
      </trkpt>
      <trkpt lat="43.31791" lon="2.60007">
        <ele>183.27</ele>
        <time>2021-03-25T13:57:45Z</time>
      </trkpt>
      <trkpt lat="43.31784" lon="2.60024">
        <ele>184.71</ele>
        <time>2021-03-25T13:57:59Z</time>
      </trkpt>
      <trkpt lat="43.31784" lon="2.60026">
        <ele>184.71</ele>
        <time>2021-03-25T13:58:00Z</time>
      </trkpt>
      <trkpt lat="43.31783" lon="2.60027">
        <ele>184.71</ele>
        <time>2021-03-25T13:58:01Z</time>
      </trkpt>
      <trkpt lat="43.31781" lon="2.60029">
        <ele>185.19</ele>
        <time>2021-03-25T13:58:05Z</time>
      </trkpt>
      <trkpt lat="43.31781" lon="2.60032">
        <ele>185.19</ele>
        <time>2021-03-25T13:58:06Z</time>
      </trkpt>
      <trkpt lat="43.31779" lon="2.60035">
        <ele>186.15</ele>
        <time>2021-03-25T13:58:08Z</time>
      </trkpt>
      <trkpt lat="43.31777" lon="2.6004">
        <ele>186.15</ele>
        <time>2021-03-25T13:58:12Z</time>
      </trkpt>
      <trkpt lat="43.31777" lon="2.60042">
        <ele>186.15</ele>
        <time>2021-03-25T13:58:13Z</time>
      </trkpt>
      <trkpt lat="43.31776" lon="2.60045">
        <ele>186.15</ele>
        <time>2021-03-25T13:58:14Z</time>
      </trkpt>
      <trkpt lat="43.31775" lon="2.60047">
        <ele>186.15</ele>
        <time>2021-03-25T13:58:15Z</time>
      </trkpt>
      <trkpt lat="43.31777" lon="2.60052">
        <ele>186.15</ele>
        <time>2021-03-25T13:58:20Z</time>
      </trkpt>
      <trkpt lat="43.31784" lon="2.60068">
        <ele>187.11</ele>
        <time>2021-03-25T13:58:31Z</time>
      </trkpt>
      <trkpt lat="43.31785" lon="2.6007">
        <ele>187.11</ele>
        <time>2021-03-25T13:58:32Z</time>
      </trkpt>
      <trkpt lat="43.31793" lon="2.60086">
        <ele>188.08</ele>
        <time>2021-03-25T13:58:42Z</time>
      </trkpt>
      <trkpt lat="43.318" lon="2.60104">
        <ele>188.56</ele>
        <time>2021-03-25T13:58:53Z</time>
      </trkpt>
      <trkpt lat="43.31801" lon="2.60108">
        <ele>189.04</ele>
        <time>2021-03-25T13:58:56Z</time>
      </trkpt>
      <trkpt lat="43.31801" lon="2.6011">
        <ele>189.52</ele>
        <time>2021-03-25T13:58:58Z</time>
      </trkpt>
      <trkpt lat="43.31801" lon="2.60112">
        <ele>189.52</ele>
        <time>2021-03-25T13:58:59Z</time>
      </trkpt>
      <trkpt lat="43.31806" lon="2.6013">
        <ele>189.52</ele>
        <time>2021-03-25T13:59:10Z</time>
      </trkpt>
      <trkpt lat="43.31811" lon="2.60146">
        <ele>190</ele>
        <time>2021-03-25T13:59:23Z</time>
      </trkpt>
      <trkpt lat="43.31814" lon="2.60157">
        <ele>190.48</ele>
        <time>2021-03-25T13:59:29Z</time>
      </trkpt>
      <trkpt lat="43.31814" lon="2.60163">
        <ele>190.48</ele>
        <time>2021-03-25T13:59:35Z</time>
      </trkpt>
      <trkpt lat="43.31814" lon="2.60166">
        <ele>190.48</ele>
        <time>2021-03-25T13:59:36Z</time>
      </trkpt>
      <trkpt lat="43.31814" lon="2.60169">
        <ele>190.48</ele>
        <time>2021-03-25T13:59:37Z</time>
      </trkpt>
      <trkpt lat="43.31813" lon="2.60172">
        <ele>190.48</ele>
        <time>2021-03-25T13:59:38Z</time>
      </trkpt>
      <trkpt lat="43.31812" lon="2.60174">
        <ele>190.48</ele>
        <time>2021-03-25T13:59:39Z</time>
      </trkpt>
      <trkpt lat="43.31811" lon="2.6018">
        <ele>190.48</ele>
        <time>2021-03-25T13:59:45Z</time>
      </trkpt>
      <trkpt lat="43.3181" lon="2.60183">
        <ele>190.48</ele>
        <time>2021-03-25T13:59:46Z</time>
      </trkpt>
      <trkpt lat="43.31807" lon="2.60197">
        <ele>190.48</ele>
        <time>2021-03-25T13:59:55Z</time>
      </trkpt>
      <trkpt lat="43.31807" lon="2.602">
        <ele>190.48</ele>
        <time>2021-03-25T13:59:57Z</time>
      </trkpt>
      <trkpt lat="43.31807" lon="2.60202">
        <ele>190.48</ele>
        <time>2021-03-25T13:59:58Z</time>
      </trkpt>
      <trkpt lat="43.31807" lon="2.60205">
        <ele>190.48</ele>
        <time>2021-03-25T13:59:59Z</time>
      </trkpt>
      <trkpt lat="43.31807" lon="2.60208">
        <ele>190.48</ele>
        <time>2021-03-25T14:00:00Z</time>
      </trkpt>
      <trkpt lat="43.31807" lon="2.60211">
        <ele>190.48</ele>
        <time>2021-03-25T14:00:01Z</time>
      </trkpt>
      <trkpt lat="43.31805" lon="2.60222">
        <ele>190</ele>
        <time>2021-03-25T14:00:09Z</time>
      </trkpt>
      <trkpt lat="43.31804" lon="2.60224">
        <ele>190</ele>
        <time>2021-03-25T14:00:10Z</time>
      </trkpt>
      <trkpt lat="43.31799" lon="2.60239">
        <ele>190.48</ele>
        <time>2021-03-25T14:00:22Z</time>
      </trkpt>
      <trkpt lat="43.31798" lon="2.60241">
        <ele>190</ele>
        <time>2021-03-25T14:00:23Z</time>
      </trkpt>
      <trkpt lat="43.31797" lon="2.60243">
        <ele>190</ele>
        <time>2021-03-25T14:00:24Z</time>
      </trkpt>
      <trkpt lat="43.31797" lon="2.60245">
        <ele>189.04</ele>
        <time>2021-03-25T14:00:25Z</time>
      </trkpt>
      <trkpt lat="43.31796" lon="2.60247">
        <ele>189.04</ele>
        <time>2021-03-25T14:00:26Z</time>
      </trkpt>
      <trkpt lat="43.31795" lon="2.60249">
        <ele>189.04</ele>
        <time>2021-03-25T14:00:27Z</time>
      </trkpt>
      <trkpt lat="43.31792" lon="2.60269">
        <ele>188.08</ele>
        <time>2021-03-25T14:00:39Z</time>
      </trkpt>
      <trkpt lat="43.31793" lon="2.60288">
        <ele>186.63</ele>
        <time>2021-03-25T14:00:51Z</time>
      </trkpt>
      <trkpt lat="43.31793" lon="2.60296">
        <ele>185.67</ele>
        <time>2021-03-25T14:01:04Z</time>
      </trkpt>
      <trkpt lat="43.31793" lon="2.60294">
        <ele>185.67</ele>
        <time>2021-03-25T14:01:20Z</time>
      </trkpt>
      <trkpt lat="43.31794" lon="2.60293">
        <ele>185.67</ele>
        <time>2021-03-25T14:01:42Z</time>
      </trkpt>
      <trkpt lat="43.31793" lon="2.60292">
        <ele>185.67</ele>
        <time>2021-03-25T14:01:59Z</time>
      </trkpt>
      <trkpt lat="43.31793" lon="2.60293">
        <ele>185.67</ele>
        <time>2021-03-25T14:02:26Z</time>
      </trkpt>
      <trkpt lat="43.31794" lon="2.60307">
        <ele>185.67</ele>
        <time>2021-03-25T14:02:42Z</time>
      </trkpt>
      <trkpt lat="43.31796" lon="2.60311">
        <ele>184.71</ele>
        <time>2021-03-25T14:02:45Z</time>
      </trkpt>
      <trkpt lat="43.31797" lon="2.60314">
        <ele>184.71</ele>
        <time>2021-03-25T14:02:47Z</time>
      </trkpt>
      <trkpt lat="43.31812" lon="2.60329">
        <ele>181.83</ele>
        <time>2021-03-25T14:03:03Z</time>
      </trkpt>
      <trkpt lat="43.31827" lon="2.60333">
        <ele>179.42</ele>
        <time>2021-03-25T14:03:17Z</time>
      </trkpt>
      <trkpt lat="43.31838" lon="2.60347">
        <ele>177.98</ele>
        <time>2021-03-25T14:03:29Z</time>
      </trkpt>
      <trkpt lat="43.31839" lon="2.60348">
        <ele>177.98</ele>
        <time>2021-03-25T14:03:30Z</time>
      </trkpt>
      <trkpt lat="43.3185" lon="2.60358">
        <ele>176.06</ele>
        <time>2021-03-25T14:03:41Z</time>
      </trkpt>
      <trkpt lat="43.31853" lon="2.60358">
        <ele>175.58</ele>
        <time>2021-03-25T14:03:44Z</time>
      </trkpt>
      <trkpt lat="43.31854" lon="2.60358">
        <ele>175.1</ele>
        <time>2021-03-25T14:03:45Z</time>
      </trkpt>
      <trkpt lat="43.31855" lon="2.60358">
        <ele>175.1</ele>
        <time>2021-03-25T14:03:46Z</time>
      </trkpt>
      <trkpt lat="43.31857" lon="2.60358">
        <ele>175.1</ele>
        <time>2021-03-25T14:03:47Z</time>
      </trkpt>
      <trkpt lat="43.31858" lon="2.60357">
        <ele>175.1</ele>
        <time>2021-03-25T14:03:48Z</time>
      </trkpt>
      <trkpt lat="43.31865" lon="2.60347">
        <ele>172.69</ele>
        <time>2021-03-25T14:04:01Z</time>
      </trkpt>
      <trkpt lat="43.31867" lon="2.60337">
        <ele>171.73</ele>
        <time>2021-03-25T14:04:09Z</time>
      </trkpt>
      <trkpt lat="43.31868" lon="2.60336">
        <ele>171.73</ele>
        <time>2021-03-25T14:04:10Z</time>
      </trkpt>
      <trkpt lat="43.3187" lon="2.60334">
        <ele>171.25</ele>
        <time>2021-03-25T14:04:11Z</time>
      </trkpt>
      <trkpt lat="43.31872" lon="2.60331">
        <ele>171.25</ele>
        <time>2021-03-25T14:04:12Z</time>
      </trkpt>
      <trkpt lat="43.31873" lon="2.6033">
        <ele>171.25</ele>
        <time>2021-03-25T14:04:13Z</time>
      </trkpt>
      <trkpt lat="43.3188" lon="2.60317">
        <ele>170.29</ele>
        <time>2021-03-25T14:04:25Z</time>
      </trkpt>
      <trkpt lat="43.31891" lon="2.60309">
        <ele>169.81</ele>
        <time>2021-03-25T14:04:33Z</time>
      </trkpt>
      <trkpt lat="43.31892" lon="2.60309">
        <ele>169.81</ele>
        <time>2021-03-25T14:04:34Z</time>
      </trkpt>
      <trkpt lat="43.31894" lon="2.60309">
        <ele>169.81</ele>
        <time>2021-03-25T14:04:35Z</time>
      </trkpt>
      <trkpt lat="43.31895" lon="2.60309">
        <ele>169.81</ele>
        <time>2021-03-25T14:04:36Z</time>
      </trkpt>
      <trkpt lat="43.31897" lon="2.60309">
        <ele>169.81</ele>
        <time>2021-03-25T14:04:37Z</time>
      </trkpt>
      <trkpt lat="43.31911" lon="2.60312">
        <ele>168.37</ele>
        <time>2021-03-25T14:04:48Z</time>
      </trkpt>
      <trkpt lat="43.31916" lon="2.60311">
        <ele>167.89</ele>
        <time>2021-03-25T14:04:55Z</time>
      </trkpt>
      <trkpt lat="43.31917" lon="2.60311">
        <ele>167.41</ele>
        <time>2021-03-25T14:04:56Z</time>
      </trkpt>
      <trkpt lat="43.31934" lon="2.60311">
        <ele>165.96</ele>
        <time>2021-03-25T14:05:08Z</time>
      </trkpt>
      <trkpt lat="43.31943" lon="2.60306">
        <ele>165</ele>
        <time>2021-03-25T14:05:23Z</time>
      </trkpt>
      <trkpt lat="43.31945" lon="2.60305">
        <ele>165</ele>
        <time>2021-03-25T14:05:24Z</time>
      </trkpt>
      <trkpt lat="43.31962" lon="2.60297">
        <ele>162.12</ele>
        <time>2021-03-25T14:05:38Z</time>
      </trkpt>
      <trkpt lat="43.31981" lon="2.603">
        <ele>160.2</ele>
        <time>2021-03-25T14:05:51Z</time>
      </trkpt>
      <trkpt lat="43.31992" lon="2.60304">
        <ele>158.75</ele>
        <time>2021-03-25T14:06:04Z</time>
      </trkpt>
      <trkpt lat="43.31993" lon="2.60304">
        <ele>158.75</ele>
        <time>2021-03-25T14:06:05Z</time>
      </trkpt>
      <trkpt lat="43.31994" lon="2.60304">
        <ele>158.27</ele>
        <time>2021-03-25T14:06:06Z</time>
      </trkpt>
      <trkpt lat="43.32014" lon="2.60296">
        <ele>156.83</ele>
        <time>2021-03-25T14:06:20Z</time>
      </trkpt>
      <trkpt lat="43.32021" lon="2.60293">
        <ele>156.35</ele>
        <time>2021-03-25T14:06:25Z</time>
      </trkpt>
      <trkpt lat="43.32028" lon="2.60298">
        <ele>154.91</ele>
        <time>2021-03-25T14:06:38Z</time>
      </trkpt>
      <trkpt lat="43.32031" lon="2.60302">
        <ele>154.43</ele>
        <time>2021-03-25T14:06:43Z</time>
      </trkpt>
      <trkpt lat="43.32032" lon="2.60303">
        <ele>153.47</ele>
        <time>2021-03-25T14:06:44Z</time>
      </trkpt>
      <trkpt lat="43.32039" lon="2.60306">
        <ele>152.99</ele>
        <time>2021-03-25T14:06:48Z</time>
      </trkpt>
      <trkpt lat="43.32041" lon="2.60307">
        <ele>152.99</ele>
        <time>2021-03-25T14:06:49Z</time>
      </trkpt>
      <trkpt lat="43.32043" lon="2.60309">
        <ele>152.99</ele>
        <time>2021-03-25T14:06:50Z</time>
      </trkpt>
      <trkpt lat="43.32044" lon="2.6031">
        <ele>152.99</ele>
        <time>2021-03-25T14:06:51Z</time>
      </trkpt>
      <trkpt lat="43.32046" lon="2.60312">
        <ele>152.99</ele>
        <time>2021-03-25T14:06:52Z</time>
      </trkpt>
      <trkpt lat="43.32055" lon="2.60321">
        <ele>151.54</ele>
        <time>2021-03-25T14:07:04Z</time>
      </trkpt>
      <trkpt lat="43.3207" lon="2.60335">
        <ele>151.06</ele>
        <time>2021-03-25T14:07:16Z</time>
      </trkpt>
      <trkpt lat="43.32077" lon="2.60343">
        <ele>151.06</ele>
        <time>2021-03-25T14:07:28Z</time>
      </trkpt>
      <trkpt lat="43.32079" lon="2.60345">
        <ele>151.06</ele>
        <time>2021-03-25T14:07:29Z</time>
      </trkpt>
      <trkpt lat="43.3209" lon="2.60359">
        <ele>150.58</ele>
        <time>2021-03-25T14:07:42Z</time>
      </trkpt>
      <trkpt lat="43.32105" lon="2.60367">
        <ele>150.58</ele>
        <time>2021-03-25T14:07:52Z</time>
      </trkpt>
      <trkpt lat="43.32108" lon="2.60362">
        <ele>150.1</ele>
        <time>2021-03-25T14:07:58Z</time>
      </trkpt>
      <trkpt lat="43.32108" lon="2.6036">
        <ele>150.1</ele>
        <time>2021-03-25T14:07:59Z</time>
      </trkpt>
      <trkpt lat="43.3211" lon="2.60356">
        <ele>150.1</ele>
        <time>2021-03-25T14:08:01Z</time>
      </trkpt>
      <trkpt lat="43.32112" lon="2.60355">
        <ele>150.1</ele>
        <time>2021-03-25T14:08:02Z</time>
      </trkpt>
      <trkpt lat="43.32113" lon="2.60353">
        <ele>150.1</ele>
        <time>2021-03-25T14:08:03Z</time>
      </trkpt>
      <trkpt lat="43.32114" lon="2.60351">
        <ele>150.1</ele>
        <time>2021-03-25T14:08:04Z</time>
      </trkpt>
      <trkpt lat="43.32115" lon="2.60349">
        <ele>150.1</ele>
        <time>2021-03-25T14:08:05Z</time>
      </trkpt>
      <trkpt lat="43.32116" lon="2.60348">
        <ele>150.1</ele>
        <time>2021-03-25T14:08:06Z</time>
      </trkpt>
      <trkpt lat="43.32125" lon="2.60334">
        <ele>150.1</ele>
        <time>2021-03-25T14:08:17Z</time>
      </trkpt>
      <trkpt lat="43.32128" lon="2.60332">
        <ele>150.1</ele>
        <time>2021-03-25T14:08:21Z</time>
      </trkpt>
      <trkpt lat="43.32129" lon="2.60331">
        <ele>150.1</ele>
        <time>2021-03-25T14:08:22Z</time>
      </trkpt>
      <trkpt lat="43.3213" lon="2.6033">
        <ele>150.1</ele>
        <time>2021-03-25T14:08:23Z</time>
      </trkpt>
      <trkpt lat="43.32139" lon="2.60319">
        <ele>150.1</ele>
        <time>2021-03-25T14:08:34Z</time>
      </trkpt>
      <trkpt lat="43.32147" lon="2.60314">
        <ele>150.1</ele>
        <time>2021-03-25T14:08:42Z</time>
      </trkpt>
      <trkpt lat="43.32149" lon="2.60314">
        <ele>150.1</ele>
        <time>2021-03-25T14:08:51Z</time>
      </trkpt>
      <trkpt lat="43.3215" lon="2.60313">
        <ele>150.1</ele>
        <time>2021-03-25T14:08:52Z</time>
      </trkpt>
      <trkpt lat="43.32152" lon="2.60312">
        <ele>150.1</ele>
        <time>2021-03-25T14:08:53Z</time>
      </trkpt>
      <trkpt lat="43.32153" lon="2.6031">
        <ele>150.1</ele>
        <time>2021-03-25T14:08:54Z</time>
      </trkpt>
      <trkpt lat="43.32154" lon="2.6031">
        <ele>150.1</ele>
        <time>2021-03-25T14:08:55Z</time>
      </trkpt>
      <trkpt lat="43.32155" lon="2.60309">
        <ele>150.1</ele>
        <time>2021-03-25T14:08:56Z</time>
      </trkpt>
      <trkpt lat="43.32156" lon="2.60309">
        <ele>150.1</ele>
        <time>2021-03-25T14:08:57Z</time>
      </trkpt>
      <trkpt lat="43.32157" lon="2.60308">
        <ele>151.54</ele>
        <time>2021-03-25T14:08:59Z</time>
      </trkpt>
      <trkpt lat="43.32157" lon="2.60307">
        <ele>151.54</ele>
        <time>2021-03-25T14:09:00Z</time>
      </trkpt>
      <trkpt lat="43.32159" lon="2.60306">
        <ele>151.54</ele>
        <time>2021-03-25T14:09:01Z</time>
      </trkpt>
      <trkpt lat="43.32164" lon="2.60302">
        <ele>151.54</ele>
        <time>2021-03-25T14:09:08Z</time>
      </trkpt>
      <trkpt lat="43.32165" lon="2.60301">
        <ele>151.54</ele>
        <time>2021-03-25T14:09:09Z</time>
      </trkpt>
      <trkpt lat="43.32166" lon="2.603">
        <ele>151.54</ele>
        <time>2021-03-25T14:09:10Z</time>
      </trkpt>
      <trkpt lat="43.32167" lon="2.60299">
        <ele>151.54</ele>
        <time>2021-03-25T14:09:11Z</time>
      </trkpt>
      <trkpt lat="43.32169" lon="2.60298">
        <ele>151.54</ele>
        <time>2021-03-25T14:09:12Z</time>
      </trkpt>
      <trkpt lat="43.32171" lon="2.60297">
        <ele>151.54</ele>
        <time>2021-03-25T14:09:13Z</time>
      </trkpt>
      <trkpt lat="43.32172" lon="2.60297">
        <ele>151.54</ele>
        <time>2021-03-25T14:09:14Z</time>
      </trkpt>
      <trkpt lat="43.32173" lon="2.60296">
        <ele>151.54</ele>
        <time>2021-03-25T14:09:15Z</time>
      </trkpt>
      <trkpt lat="43.32182" lon="2.60292">
        <ele>150.1</ele>
        <time>2021-03-25T14:09:24Z</time>
      </trkpt>
      <trkpt lat="43.32189" lon="2.60296">
        <ele>149.62</ele>
        <time>2021-03-25T14:09:30Z</time>
      </trkpt>
      <trkpt lat="43.32191" lon="2.60298">
        <ele>149.62</ele>
        <time>2021-03-25T14:09:33Z</time>
      </trkpt>
      <trkpt lat="43.32192" lon="2.60299">
        <ele>149.14</ele>
        <time>2021-03-25T14:09:34Z</time>
      </trkpt>
      <trkpt lat="43.32193" lon="2.60301">
        <ele>149.14</ele>
        <time>2021-03-25T14:09:35Z</time>
      </trkpt>
      <trkpt lat="43.32194" lon="2.60308">
        <ele>148.66</ele>
        <time>2021-03-25T14:09:47Z</time>
      </trkpt>
      <trkpt lat="43.32195" lon="2.60309">
        <ele>148.66</ele>
        <time>2021-03-25T14:09:48Z</time>
      </trkpt>
      <trkpt lat="43.32196" lon="2.6031">
        <ele>148.66</ele>
        <time>2021-03-25T14:09:49Z</time>
      </trkpt>
      <trkpt lat="43.32198" lon="2.60312">
        <ele>148.66</ele>
        <time>2021-03-25T14:09:50Z</time>
      </trkpt>
      <trkpt lat="43.32199" lon="2.60313">
        <ele>148.66</ele>
        <time>2021-03-25T14:09:51Z</time>
      </trkpt>
      <trkpt lat="43.322" lon="2.60315">
        <ele>148.66</ele>
        <time>2021-03-25T14:09:52Z</time>
      </trkpt>
      <trkpt lat="43.32204" lon="2.60321">
        <ele>150.1</ele>
        <time>2021-03-25T14:09:57Z</time>
      </trkpt>
      <trkpt lat="43.32207" lon="2.60328">
        <ele>150.1</ele>
        <time>2021-03-25T14:10:01Z</time>
      </trkpt>
      <trkpt lat="43.3222" lon="2.60343">
        <ele>150.1</ele>
        <time>2021-03-25T14:10:13Z</time>
      </trkpt>
      <trkpt lat="43.32222" lon="2.60345">
        <ele>150.1</ele>
        <time>2021-03-25T14:10:15Z</time>
      </trkpt>
      <trkpt lat="43.32227" lon="2.60345">
        <ele>148.18</ele>
        <time>2021-03-25T14:10:21Z</time>
      </trkpt>
      <trkpt lat="43.32229" lon="2.60343">
        <ele>149.62</ele>
        <time>2021-03-25T14:10:23Z</time>
      </trkpt>
      <trkpt lat="43.3223" lon="2.60342">
        <ele>149.62</ele>
        <time>2021-03-25T14:10:24Z</time>
      </trkpt>
      <trkpt lat="43.32231" lon="2.60341">
        <ele>149.62</ele>
        <time>2021-03-25T14:10:25Z</time>
      </trkpt>
      <trkpt lat="43.32232" lon="2.60341">
        <ele>149.62</ele>
        <time>2021-03-25T14:10:26Z</time>
      </trkpt>
      <trkpt lat="43.3224" lon="2.60337">
        <ele>148.18</ele>
        <time>2021-03-25T14:10:31Z</time>
      </trkpt>
      <trkpt lat="43.32248" lon="2.6033">
        <ele>148.18</ele>
        <time>2021-03-25T14:10:40Z</time>
      </trkpt>
      <trkpt lat="43.32249" lon="2.60329">
        <ele>148.18</ele>
        <time>2021-03-25T14:10:41Z</time>
      </trkpt>
      <trkpt lat="43.32252" lon="2.60328">
        <ele>148.18</ele>
        <time>2021-03-25T14:10:42Z</time>
      </trkpt>
      <trkpt lat="43.3226" lon="2.60324">
        <ele>148.18</ele>
        <time>2021-03-25T14:10:51Z</time>
      </trkpt>
      <trkpt lat="43.32263" lon="2.60322">
        <ele>148.18</ele>
        <time>2021-03-25T14:10:53Z</time>
      </trkpt>
      <trkpt lat="43.32271" lon="2.60318">
        <ele>148.18</ele>
        <time>2021-03-25T14:11:01Z</time>
      </trkpt>
      <trkpt lat="43.32273" lon="2.60317">
        <ele>148.18</ele>
        <time>2021-03-25T14:11:02Z</time>
      </trkpt>
      <trkpt lat="43.32275" lon="2.60317">
        <ele>148.18</ele>
        <time>2021-03-25T14:11:03Z</time>
      </trkpt>
      <trkpt lat="43.32277" lon="2.60316">
        <ele>148.18</ele>
        <time>2021-03-25T14:11:04Z</time>
      </trkpt>
      <trkpt lat="43.32278" lon="2.60316">
        <ele>148.18</ele>
        <time>2021-03-25T14:11:05Z</time>
      </trkpt>
      <trkpt lat="43.32279" lon="2.60316">
        <ele>147.7</ele>
        <time>2021-03-25T14:11:06Z</time>
      </trkpt>
      <trkpt lat="43.32288" lon="2.60313">
        <ele>147.7</ele>
        <time>2021-03-25T14:11:17Z</time>
      </trkpt>
      <trkpt lat="43.32301" lon="2.60307">
        <ele>147.7</ele>
        <time>2021-03-25T14:11:29Z</time>
      </trkpt>
      <trkpt lat="43.32313" lon="2.60302">
        <ele>147.22</ele>
        <time>2021-03-25T14:11:40Z</time>
      </trkpt>
      <trkpt lat="43.32314" lon="2.60301">
        <ele>147.22</ele>
        <time>2021-03-25T14:11:41Z</time>
      </trkpt>
      <trkpt lat="43.32316" lon="2.603">
        <ele>147.22</ele>
        <time>2021-03-25T14:11:42Z</time>
      </trkpt>
      <trkpt lat="43.32325" lon="2.60296">
        <ele>148.66</ele>
        <time>2021-03-25T14:11:50Z</time>
      </trkpt>
      <trkpt lat="43.32326" lon="2.60295">
        <ele>148.66</ele>
        <time>2021-03-25T14:11:51Z</time>
      </trkpt>
      <trkpt lat="43.32328" lon="2.60294">
        <ele>148.66</ele>
        <time>2021-03-25T14:11:52Z</time>
      </trkpt>
      <trkpt lat="43.32329" lon="2.60293">
        <ele>149.14</ele>
        <time>2021-03-25T14:11:53Z</time>
      </trkpt>
      <trkpt lat="43.3233" lon="2.60293">
        <ele>149.14</ele>
        <time>2021-03-25T14:11:54Z</time>
      </trkpt>
      <trkpt lat="43.32331" lon="2.60292">
        <ele>149.14</ele>
        <time>2021-03-25T14:11:55Z</time>
      </trkpt>
      <trkpt lat="43.32332" lon="2.60292">
        <ele>149.14</ele>
        <time>2021-03-25T14:11:56Z</time>
      </trkpt>
      <trkpt lat="43.32348" lon="2.60284">
        <ele>149.14</ele>
        <time>2021-03-25T14:12:10Z</time>
      </trkpt>
      <trkpt lat="43.32361" lon="2.60282">
        <ele>150.1</ele>
        <time>2021-03-25T14:12:22Z</time>
      </trkpt>
      <trkpt lat="43.32362" lon="2.60282">
        <ele>149.62</ele>
        <time>2021-03-25T14:12:23Z</time>
      </trkpt>
      <trkpt lat="43.32373" lon="2.60289">
        <ele>151.06</ele>
        <time>2021-03-25T14:12:35Z</time>
      </trkpt>
      <trkpt lat="43.32379" lon="2.60298">
        <ele>151.06</ele>
        <time>2021-03-25T14:12:44Z</time>
      </trkpt>
      <trkpt lat="43.32379" lon="2.603">
        <ele>151.06</ele>
        <time>2021-03-25T14:12:45Z</time>
      </trkpt>
      <trkpt lat="43.32379" lon="2.60301">
        <ele>151.06</ele>
        <time>2021-03-25T14:12:46Z</time>
      </trkpt>
      <trkpt lat="43.32374" lon="2.60318">
        <ele>151.54</ele>
        <time>2021-03-25T14:12:59Z</time>
      </trkpt>
      <trkpt lat="43.32369" lon="2.60336">
        <ele>151.54</ele>
        <time>2021-03-25T14:13:11Z</time>
      </trkpt>
      <trkpt lat="43.32369" lon="2.60359">
        <ele>151.54</ele>
        <time>2021-03-25T14:13:24Z</time>
      </trkpt>
      <trkpt lat="43.32369" lon="2.60371">
        <ele>151.54</ele>
        <time>2021-03-25T14:13:34Z</time>
      </trkpt>
      <trkpt lat="43.32365" lon="2.60391">
        <ele>151.54</ele>
        <time>2021-03-25T14:13:46Z</time>
      </trkpt>
      <trkpt lat="43.32365" lon="2.60393">
        <ele>151.54</ele>
        <time>2021-03-25T14:13:47Z</time>
      </trkpt>
      <trkpt lat="43.32366" lon="2.604">
        <ele>150.58</ele>
        <time>2021-03-25T14:13:52Z</time>
      </trkpt>
      <trkpt lat="43.32369" lon="2.60417">
        <ele>149.62</ele>
        <time>2021-03-25T14:14:01Z</time>
      </trkpt>
      <trkpt lat="43.3237" lon="2.60427">
        <ele>149.62</ele>
        <time>2021-03-25T14:14:09Z</time>
      </trkpt>
      <trkpt lat="43.3237" lon="2.60428">
        <ele>149.62</ele>
        <time>2021-03-25T14:14:10Z</time>
      </trkpt>
      <trkpt lat="43.32374" lon="2.60441">
        <ele>149.62</ele>
        <time>2021-03-25T14:14:20Z</time>
      </trkpt>
      <trkpt lat="43.32381" lon="2.60459">
        <ele>150.58</ele>
        <time>2021-03-25T14:14:32Z</time>
      </trkpt>
      <trkpt lat="43.32387" lon="2.60473">
        <ele>151.06</ele>
        <time>2021-03-25T14:14:42Z</time>
      </trkpt>
      <trkpt lat="43.3239" lon="2.60482">
        <ele>151.54</ele>
        <time>2021-03-25T14:14:51Z</time>
      </trkpt>
      <trkpt lat="43.32394" lon="2.6049">
        <ele>152.03</ele>
        <time>2021-03-25T14:14:59Z</time>
      </trkpt>
      <trkpt lat="43.32394" lon="2.60492">
        <ele>152.03</ele>
        <time>2021-03-25T14:15:00Z</time>
      </trkpt>
      <trkpt lat="43.32395" lon="2.60494">
        <ele>152.51</ele>
        <time>2021-03-25T14:15:01Z</time>
      </trkpt>
      <trkpt lat="43.32395" lon="2.60495">
        <ele>152.51</ele>
        <time>2021-03-25T14:15:02Z</time>
      </trkpt>
      <trkpt lat="43.32396" lon="2.60497">
        <ele>152.99</ele>
        <time>2021-03-25T14:15:03Z</time>
      </trkpt>
      <trkpt lat="43.32397" lon="2.60501">
        <ele>153.47</ele>
        <time>2021-03-25T14:15:07Z</time>
      </trkpt>
      <trkpt lat="43.32397" lon="2.60504">
        <ele>153.47</ele>
        <time>2021-03-25T14:15:09Z</time>
      </trkpt>
      <trkpt lat="43.32398" lon="2.60506">
        <ele>153.47</ele>
        <time>2021-03-25T14:15:10Z</time>
      </trkpt>
      <trkpt lat="43.32398" lon="2.60508">
        <ele>153.47</ele>
        <time>2021-03-25T14:15:11Z</time>
      </trkpt>
      <trkpt lat="43.32401" lon="2.60512">
        <ele>153.95</ele>
        <time>2021-03-25T14:15:14Z</time>
      </trkpt>
      <trkpt lat="43.32402" lon="2.60513">
        <ele>153.95</ele>
        <time>2021-03-25T14:15:15Z</time>
      </trkpt>
      <trkpt lat="43.32403" lon="2.60515">
        <ele>153.95</ele>
        <time>2021-03-25T14:15:16Z</time>
      </trkpt>
      <trkpt lat="43.32403" lon="2.60517">
        <ele>153.95</ele>
        <time>2021-03-25T14:15:17Z</time>
      </trkpt>
      <trkpt lat="43.32408" lon="2.6053">
        <ele>155.39</ele>
        <time>2021-03-25T14:15:29Z</time>
      </trkpt>
      <trkpt lat="43.32408" lon="2.60528">
        <ele>155.39</ele>
        <time>2021-03-25T14:15:34Z</time>
      </trkpt>
      <trkpt lat="43.32405" lon="2.60523">
        <ele>155.39</ele>
        <time>2021-03-25T14:15:42Z</time>
      </trkpt>
      <trkpt lat="43.32402" lon="2.60516">
        <ele>155.39</ele>
        <time>2021-03-25T14:15:51Z</time>
      </trkpt>
      <trkpt lat="43.32401" lon="2.60514">
        <ele>155.39</ele>
        <time>2021-03-25T14:16:03Z</time>
      </trkpt>
      <trkpt lat="43.324" lon="2.60513">
        <ele>155.39</ele>
        <time>2021-03-25T14:16:06Z</time>
      </trkpt>
      <trkpt lat="43.324" lon="2.6051">
        <ele>155.39</ele>
        <time>2021-03-25T14:16:09Z</time>
      </trkpt>
      <trkpt lat="43.324" lon="2.60513">
        <ele>153.95</ele>
        <time>2021-03-25T14:16:19Z</time>
      </trkpt>
      <trkpt lat="43.32401" lon="2.60514">
        <ele>155.39</ele>
        <time>2021-03-25T14:16:27Z</time>
      </trkpt>
      <trkpt lat="43.32402" lon="2.60517">
        <ele>155.39</ele>
        <time>2021-03-25T14:16:28Z</time>
      </trkpt>
      <trkpt lat="43.32402" lon="2.60518">
        <ele>155.39</ele>
        <time>2021-03-25T14:16:29Z</time>
      </trkpt>
      <trkpt lat="43.32403" lon="2.60519">
        <ele>155.39</ele>
        <time>2021-03-25T14:16:30Z</time>
      </trkpt>
      <trkpt lat="43.32404" lon="2.60521">
        <ele>155.39</ele>
        <time>2021-03-25T14:16:31Z</time>
      </trkpt>
      <trkpt lat="43.32409" lon="2.60533">
        <ele>156.35</ele>
        <time>2021-03-25T14:16:43Z</time>
      </trkpt>
      <trkpt lat="43.32401" lon="2.60513">
        <ele>155.39</ele>
        <time>2021-03-25T14:16:54Z</time>
      </trkpt>
      <trkpt lat="43.32399" lon="2.60507">
        <ele>153.95</ele>
        <time>2021-03-25T14:17:05Z</time>
      </trkpt>
      <trkpt lat="43.32399" lon="2.60505">
        <ele>154.43</ele>
        <time>2021-03-25T14:17:06Z</time>
      </trkpt>
      <trkpt lat="43.32399" lon="2.60504">
        <ele>153.47</ele>
        <time>2021-03-25T14:17:07Z</time>
      </trkpt>
      <trkpt lat="43.32395" lon="2.60497">
        <ele>153.47</ele>
        <time>2021-03-25T14:17:18Z</time>
      </trkpt>
      <trkpt lat="43.32395" lon="2.60495">
        <ele>153.47</ele>
        <time>2021-03-25T14:17:19Z</time>
      </trkpt>
      <trkpt lat="43.32385" lon="2.60473">
        <ele>152.99</ele>
        <time>2021-03-25T14:17:29Z</time>
      </trkpt>
      <trkpt lat="43.32382" lon="2.60466">
        <ele>151.54</ele>
        <time>2021-03-25T14:17:36Z</time>
      </trkpt>
      <trkpt lat="43.32382" lon="2.60464">
        <ele>151.54</ele>
        <time>2021-03-25T14:17:37Z</time>
      </trkpt>
      <trkpt lat="43.32377" lon="2.60453">
        <ele>151.54</ele>
        <time>2021-03-25T14:17:48Z</time>
      </trkpt>
      <trkpt lat="43.32377" lon="2.6045">
        <ele>151.54</ele>
        <time>2021-03-25T14:17:52Z</time>
      </trkpt>
      <trkpt lat="43.32376" lon="2.60448">
        <ele>151.54</ele>
        <time>2021-03-25T14:17:53Z</time>
      </trkpt>
      <trkpt lat="43.32376" lon="2.60447">
        <ele>151.06</ele>
        <time>2021-03-25T14:17:54Z</time>
      </trkpt>
      <trkpt lat="43.32373" lon="2.60427">
        <ele>150.58</ele>
        <time>2021-03-25T14:18:08Z</time>
      </trkpt>
      <trkpt lat="43.32369" lon="2.60409">
        <ele>150.58</ele>
        <time>2021-03-25T14:18:20Z</time>
      </trkpt>
      <trkpt lat="43.32366" lon="2.60402">
        <ele>152.03</ele>
        <time>2021-03-25T14:18:24Z</time>
      </trkpt>
      <trkpt lat="43.32365" lon="2.60401">
        <ele>152.03</ele>
        <time>2021-03-25T14:18:25Z</time>
      </trkpt>
      <trkpt lat="43.32364" lon="2.604">
        <ele>152.03</ele>
        <time>2021-03-25T14:18:26Z</time>
      </trkpt>
      <trkpt lat="43.32363" lon="2.604">
        <ele>152.51</ele>
        <time>2021-03-25T14:18:27Z</time>
      </trkpt>
      <trkpt lat="43.32361" lon="2.60402">
        <ele>152.51</ele>
        <time>2021-03-25T14:18:28Z</time>
      </trkpt>
      <trkpt lat="43.32361" lon="2.60402">
        <ele>152.51</ele>
        <time>2021-03-25T14:18:29Z</time>
      </trkpt>
      <trkpt lat="43.3236" lon="2.60403">
        <ele>152.99</ele>
        <time>2021-03-25T14:18:30Z</time>
      </trkpt>
      <trkpt lat="43.32363" lon="2.60417">
        <ele>151.54</ele>
        <time>2021-03-25T14:18:44Z</time>
      </trkpt>
      <trkpt lat="43.32366" lon="2.60429">
        <ele>151.54</ele>
        <time>2021-03-25T14:18:56Z</time>
      </trkpt>
      <trkpt lat="43.32372" lon="2.60462">
        <ele>151.54</ele>
        <time>2021-03-25T14:19:11Z</time>
      </trkpt>
      <trkpt lat="43.32378" lon="2.60484">
        <ele>152.99</ele>
        <time>2021-03-25T14:19:24Z</time>
      </trkpt>
      <trkpt lat="43.32381" lon="2.60489">
        <ele>152.99</ele>
        <time>2021-03-25T14:19:29Z</time>
      </trkpt>
      <trkpt lat="43.32382" lon="2.6049">
        <ele>152.99</ele>
        <time>2021-03-25T14:19:30Z</time>
      </trkpt>
      <trkpt lat="43.32391" lon="2.60504">
        <ele>153.95</ele>
        <time>2021-03-25T14:19:43Z</time>
      </trkpt>
      <trkpt lat="43.32392" lon="2.60506">
        <ele>153.95</ele>
        <time>2021-03-25T14:19:44Z</time>
      </trkpt>
      <trkpt lat="43.32392" lon="2.60509">
        <ele>154.43</ele>
        <time>2021-03-25T14:19:45Z</time>
      </trkpt>
      <trkpt lat="43.32391" lon="2.60525">
        <ele>154.43</ele>
        <time>2021-03-25T14:19:57Z</time>
      </trkpt>
      <trkpt lat="43.32384" lon="2.60542">
        <ele>154.43</ele>
        <time>2021-03-25T14:20:10Z</time>
      </trkpt>
      <trkpt lat="43.32374" lon="2.60555">
        <ele>155.87</ele>
        <time>2021-03-25T14:20:23Z</time>
      </trkpt>
      <trkpt lat="43.32368" lon="2.60564">
        <ele>156.35</ele>
        <time>2021-03-25T14:20:34Z</time>
      </trkpt>
      <trkpt lat="43.32363" lon="2.6057">
        <ele>156.83</ele>
        <time>2021-03-25T14:20:41Z</time>
      </trkpt>
      <trkpt lat="43.32361" lon="2.60572">
        <ele>156.83</ele>
        <time>2021-03-25T14:20:42Z</time>
      </trkpt>
      <trkpt lat="43.3236" lon="2.60574">
        <ele>156.83</ele>
        <time>2021-03-25T14:20:43Z</time>
      </trkpt>
      <trkpt lat="43.32358" lon="2.60575">
        <ele>156.83</ele>
        <time>2021-03-25T14:20:44Z</time>
      </trkpt>
      <trkpt lat="43.32356" lon="2.60576">
        <ele>156.83</ele>
        <time>2021-03-25T14:20:46Z</time>
      </trkpt>
      <trkpt lat="43.32354" lon="2.60577">
        <ele>156.83</ele>
        <time>2021-03-25T14:20:47Z</time>
      </trkpt>
      <trkpt lat="43.32352" lon="2.60579">
        <ele>157.31</ele>
        <time>2021-03-25T14:20:50Z</time>
      </trkpt>
      <trkpt lat="43.3235" lon="2.6058">
        <ele>157.31</ele>
        <time>2021-03-25T14:20:51Z</time>
      </trkpt>
      <trkpt lat="43.32342" lon="2.60588">
        <ele>157.79</ele>
        <time>2021-03-25T14:20:59Z</time>
      </trkpt>
      <trkpt lat="43.32341" lon="2.6059">
        <ele>157.31</ele>
        <time>2021-03-25T14:21:00Z</time>
      </trkpt>
      <trkpt lat="43.32335" lon="2.60602">
        <ele>157.79</ele>
        <time>2021-03-25T14:21:09Z</time>
      </trkpt>
      <trkpt lat="43.32334" lon="2.60605">
        <ele>158.27</ele>
        <time>2021-03-25T14:21:13Z</time>
      </trkpt>
      <trkpt lat="43.32334" lon="2.60608">
        <ele>158.27</ele>
        <time>2021-03-25T14:21:14Z</time>
      </trkpt>
      <trkpt lat="43.32333" lon="2.6061">
        <ele>158.27</ele>
        <time>2021-03-25T14:21:15Z</time>
      </trkpt>
      <trkpt lat="43.32334" lon="2.60625">
        <ele>158.75</ele>
        <time>2021-03-25T14:21:26Z</time>
      </trkpt>
      <trkpt lat="43.32334" lon="2.6064">
        <ele>161.16</ele>
        <time>2021-03-25T14:21:36Z</time>
      </trkpt>
      <trkpt lat="43.32337" lon="2.60651">
        <ele>162.12</ele>
        <time>2021-03-25T14:21:47Z</time>
      </trkpt>
      <trkpt lat="43.3234" lon="2.60669">
        <ele>165</ele>
        <time>2021-03-25T14:21:59Z</time>
      </trkpt>
      <trkpt lat="43.32338" lon="2.60684">
        <ele>165.96</ele>
        <time>2021-03-25T14:22:09Z</time>
      </trkpt>
      <trkpt lat="43.32336" lon="2.60684">
        <ele>165.96</ele>
        <time>2021-03-25T14:22:11Z</time>
      </trkpt>
      <trkpt lat="43.32335" lon="2.60685">
        <ele>165.96</ele>
        <time>2021-03-25T14:22:12Z</time>
      </trkpt>
      <trkpt lat="43.32324" lon="2.60695">
        <ele>166.93</ele>
        <time>2021-03-25T14:22:23Z</time>
      </trkpt>
      <trkpt lat="43.32321" lon="2.60698">
        <ele>166.93</ele>
        <time>2021-03-25T14:22:33Z</time>
      </trkpt>
      <trkpt lat="43.3232" lon="2.60701">
        <ele>166.93</ele>
        <time>2021-03-25T14:22:40Z</time>
      </trkpt>
      <trkpt lat="43.32319" lon="2.60702">
        <ele>166.45</ele>
        <time>2021-03-25T14:22:41Z</time>
      </trkpt>
      <trkpt lat="43.32318" lon="2.60703">
        <ele>166.45</ele>
        <time>2021-03-25T14:22:42Z</time>
      </trkpt>
      <trkpt lat="43.32313" lon="2.60714">
        <ele>165.48</ele>
        <time>2021-03-25T14:22:49Z</time>
      </trkpt>
      <trkpt lat="43.32312" lon="2.60715">
        <ele>165.48</ele>
        <time>2021-03-25T14:22:50Z</time>
      </trkpt>
      <trkpt lat="43.32309" lon="2.60721">
        <ele>164.52</ele>
        <time>2021-03-25T14:22:58Z</time>
      </trkpt>
      <trkpt lat="43.323" lon="2.60743">
        <ele>166.45</ele>
        <time>2021-03-25T14:23:09Z</time>
      </trkpt>
      <trkpt lat="43.323" lon="2.60743">
        <ele>166.45</ele>
        <time>2021-03-25T14:23:10Z</time>
      </trkpt>
      <trkpt lat="43.32298" lon="2.60742">
        <ele>166.45</ele>
        <time>2021-03-25T14:23:13Z</time>
      </trkpt>
      <trkpt lat="43.32296" lon="2.60743">
        <ele>166.45</ele>
        <time>2021-03-25T14:23:14Z</time>
      </trkpt>
      <trkpt lat="43.32295" lon="2.60744">
        <ele>166.45</ele>
        <time>2021-03-25T14:23:15Z</time>
      </trkpt>
      <trkpt lat="43.32285" lon="2.60746">
        <ele>167.89</ele>
        <time>2021-03-25T14:23:26Z</time>
      </trkpt>
      <trkpt lat="43.32283" lon="2.60746">
        <ele>167.89</ele>
        <time>2021-03-25T14:23:27Z</time>
      </trkpt>
      <trkpt lat="43.32282" lon="2.60747">
        <ele>168.37</ele>
        <time>2021-03-25T14:23:28Z</time>
      </trkpt>
      <trkpt lat="43.32276" lon="2.60747">
        <ele>168.85</ele>
        <time>2021-03-25T14:23:35Z</time>
      </trkpt>
      <trkpt lat="43.32274" lon="2.60747">
        <ele>168.85</ele>
        <time>2021-03-25T14:23:36Z</time>
      </trkpt>
      <trkpt lat="43.32272" lon="2.60747">
        <ele>168.85</ele>
        <time>2021-03-25T14:23:37Z</time>
      </trkpt>
      <trkpt lat="43.32271" lon="2.60746">
        <ele>168.85</ele>
        <time>2021-03-25T14:23:38Z</time>
      </trkpt>
      <trkpt lat="43.32269" lon="2.60745">
        <ele>168.85</ele>
        <time>2021-03-25T14:23:39Z</time>
      </trkpt>
      <trkpt lat="43.32268" lon="2.60745">
        <ele>168.85</ele>
        <time>2021-03-25T14:23:40Z</time>
      </trkpt>
      <trkpt lat="43.32267" lon="2.60744">
        <ele>168.85</ele>
        <time>2021-03-25T14:23:41Z</time>
      </trkpt>
      <trkpt lat="43.32265" lon="2.60742">
        <ele>167.89</ele>
        <time>2021-03-25T14:23:43Z</time>
      </trkpt>
      <trkpt lat="43.32263" lon="2.60743">
        <ele>166.93</ele>
        <time>2021-03-25T14:23:48Z</time>
      </trkpt>
      <trkpt lat="43.32262" lon="2.60742">
        <ele>166.45</ele>
        <time>2021-03-25T14:23:49Z</time>
      </trkpt>
      <trkpt lat="43.3226" lon="2.60742">
        <ele>166.45</ele>
        <time>2021-03-25T14:23:50Z</time>
      </trkpt>
      <trkpt lat="43.32258" lon="2.60742">
        <ele>165.96</ele>
        <time>2021-03-25T14:23:51Z</time>
      </trkpt>
      <trkpt lat="43.32256" lon="2.60741">
        <ele>165.96</ele>
        <time>2021-03-25T14:23:52Z</time>
      </trkpt>
      <trkpt lat="43.32255" lon="2.60741">
        <ele>165.96</ele>
        <time>2021-03-25T14:23:53Z</time>
      </trkpt>
      <trkpt lat="43.32253" lon="2.60741">
        <ele>165.96</ele>
        <time>2021-03-25T14:23:54Z</time>
      </trkpt>
      <trkpt lat="43.32237" lon="2.60741">
        <ele>165.48</ele>
        <time>2021-03-25T14:24:06Z</time>
      </trkpt>
      <trkpt lat="43.32222" lon="2.60748">
        <ele>164.52</ele>
        <time>2021-03-25T14:24:18Z</time>
      </trkpt>
      <trkpt lat="43.32222" lon="2.60749">
        <ele>165</ele>
        <time>2021-03-25T14:24:19Z</time>
      </trkpt>
      <trkpt lat="43.32227" lon="2.60756">
        <ele>165</ele>
        <time>2021-03-25T14:24:26Z</time>
      </trkpt>
      <trkpt lat="43.32232" lon="2.6076">
        <ele>165.96</ele>
        <time>2021-03-25T14:24:33Z</time>
      </trkpt>
      <trkpt lat="43.32232" lon="2.60761">
        <ele>165.96</ele>
        <time>2021-03-25T14:24:34Z</time>
      </trkpt>
      <trkpt lat="43.32241" lon="2.60778">
        <ele>168.37</ele>
        <time>2021-03-25T14:24:47Z</time>
      </trkpt>
      <trkpt lat="43.32242" lon="2.60788">
        <ele>168.85</ele>
        <time>2021-03-25T14:24:53Z</time>
      </trkpt>
      <trkpt lat="43.32242" lon="2.6079">
        <ele>169.33</ele>
        <time>2021-03-25T14:24:54Z</time>
      </trkpt>
      <trkpt lat="43.32243" lon="2.60793">
        <ele>169.81</ele>
        <time>2021-03-25T14:24:56Z</time>
      </trkpt>
      <trkpt lat="43.32243" lon="2.60823">
        <ele>172.21</ele>
        <time>2021-03-25T14:25:14Z</time>
      </trkpt>
      <trkpt lat="43.32243" lon="2.60845">
        <ele>173.66</ele>
        <time>2021-03-25T14:25:29Z</time>
      </trkpt>
      <trkpt lat="43.32247" lon="2.60865">
        <ele>174.62</ele>
        <time>2021-03-25T14:25:41Z</time>
      </trkpt>
      <trkpt lat="43.32249" lon="2.60867">
        <ele>174.62</ele>
        <time>2021-03-25T14:25:42Z</time>
      </trkpt>
      <trkpt lat="43.3225" lon="2.6087">
        <ele>174.62</ele>
        <time>2021-03-25T14:25:43Z</time>
      </trkpt>
      <trkpt lat="43.32251" lon="2.60872">
        <ele>175.1</ele>
        <time>2021-03-25T14:25:44Z</time>
      </trkpt>
      <trkpt lat="43.32255" lon="2.60882">
        <ele>175.1</ele>
        <time>2021-03-25T14:25:55Z</time>
      </trkpt>
      <trkpt lat="43.3226" lon="2.60899">
        <ele>175.58</ele>
        <time>2021-03-25T14:26:06Z</time>
      </trkpt>
      <trkpt lat="43.32264" lon="2.6092">
        <ele>175.58</ele>
        <time>2021-03-25T14:26:20Z</time>
      </trkpt>
      <trkpt lat="43.32265" lon="2.60928">
        <ele>175.58</ele>
        <time>2021-03-25T14:26:27Z</time>
      </trkpt>
      <trkpt lat="43.32266" lon="2.6093">
        <ele>175.58</ele>
        <time>2021-03-25T14:26:28Z</time>
      </trkpt>
      <trkpt lat="43.32267" lon="2.60949">
        <ele>175.58</ele>
        <time>2021-03-25T14:26:40Z</time>
      </trkpt>
      <trkpt lat="43.32268" lon="2.60957">
        <ele>175.58</ele>
        <time>2021-03-25T14:26:46Z</time>
      </trkpt>
      <trkpt lat="43.32267" lon="2.60959">
        <ele>175.58</ele>
        <time>2021-03-25T14:26:47Z</time>
      </trkpt>
      <trkpt lat="43.32268" lon="2.60961">
        <ele>175.58</ele>
        <time>2021-03-25T14:26:48Z</time>
      </trkpt>
      <trkpt lat="43.32268" lon="2.60968">
        <ele>175.58</ele>
        <time>2021-03-25T14:27:00Z</time>
      </trkpt>
      <trkpt lat="43.32273" lon="2.60986">
        <ele>176.06</ele>
        <time>2021-03-25T14:27:14Z</time>
      </trkpt>
      <trkpt lat="43.32275" lon="2.60993">
        <ele>176.54</ele>
        <time>2021-03-25T14:27:25Z</time>
      </trkpt>
      <trkpt lat="43.32277" lon="2.61">
        <ele>176.54</ele>
        <time>2021-03-25T14:27:35Z</time>
      </trkpt>
      <trkpt lat="43.32276" lon="2.61004">
        <ele>176.54</ele>
        <time>2021-03-25T14:27:53Z</time>
      </trkpt>
      <trkpt lat="43.32276" lon="2.61004">
        <ele>176.54</ele>
        <time>2021-03-25T14:27:55Z</time>
      </trkpt>
      <trkpt lat="43.3228" lon="2.61008">
        <ele>176.54</ele>
        <time>2021-03-25T14:28:09Z</time>
      </trkpt>
      <trkpt lat="43.32279" lon="2.61011">
        <ele>176.54</ele>
        <time>2021-03-25T14:28:23Z</time>
      </trkpt>
      <trkpt lat="43.3228" lon="2.61016">
        <ele>176.54</ele>
        <time>2021-03-25T14:28:42Z</time>
      </trkpt>
      <trkpt lat="43.32282" lon="2.61024">
        <ele>176.54</ele>
        <time>2021-03-25T14:28:59Z</time>
      </trkpt>
      <trkpt lat="43.32283" lon="2.61028">
        <ele>176.54</ele>
        <time>2021-03-25T14:29:03Z</time>
      </trkpt>
      <trkpt lat="43.32285" lon="2.61034">
        <ele>177.02</ele>
        <time>2021-03-25T14:29:12Z</time>
      </trkpt>
      <trkpt lat="43.32288" lon="2.61042">
        <ele>177.02</ele>
        <time>2021-03-25T14:29:23Z</time>
      </trkpt>
      <trkpt lat="43.32288" lon="2.61044">
        <ele>177.02</ele>
        <time>2021-03-25T14:29:24Z</time>
      </trkpt>
      <trkpt lat="43.32288" lon="2.61045">
        <ele>177.02</ele>
        <time>2021-03-25T14:29:25Z</time>
      </trkpt>
      <trkpt lat="43.32292" lon="2.61057">
        <ele>177.5</ele>
        <time>2021-03-25T14:29:34Z</time>
      </trkpt>
      <trkpt lat="43.32294" lon="2.61067">
        <ele>177.98</ele>
        <time>2021-03-25T14:29:46Z</time>
      </trkpt>
      <trkpt lat="43.32299" lon="2.6108">
        <ele>178.46</ele>
        <time>2021-03-25T14:29:57Z</time>
      </trkpt>
      <trkpt lat="43.32299" lon="2.61081">
        <ele>178.46</ele>
        <time>2021-03-25T14:29:58Z</time>
      </trkpt>
      <trkpt lat="43.323" lon="2.61082">
        <ele>178.46</ele>
        <time>2021-03-25T14:29:59Z</time>
      </trkpt>
      <trkpt lat="43.32301" lon="2.61084">
        <ele>178.46</ele>
        <time>2021-03-25T14:30:00Z</time>
      </trkpt>
      <trkpt lat="43.32301" lon="2.61086">
        <ele>178.46</ele>
        <time>2021-03-25T14:30:01Z</time>
      </trkpt>
      <trkpt lat="43.32309" lon="2.61105">
        <ele>178.94</ele>
        <time>2021-03-25T14:30:14Z</time>
      </trkpt>
      <trkpt lat="43.32317" lon="2.61126">
        <ele>178.94</ele>
        <time>2021-03-25T14:30:29Z</time>
      </trkpt>
      <trkpt lat="43.32325" lon="2.61144">
        <ele>178.94</ele>
        <time>2021-03-25T14:30:40Z</time>
      </trkpt>
      <trkpt lat="43.32325" lon="2.61146">
        <ele>178.94</ele>
        <time>2021-03-25T14:30:41Z</time>
      </trkpt>
      <trkpt lat="43.32333" lon="2.6116">
        <ele>178.94</ele>
        <time>2021-03-25T14:30:52Z</time>
      </trkpt>
      <trkpt lat="43.32335" lon="2.6116">
        <ele>178.94</ele>
        <time>2021-03-25T14:30:53Z</time>
      </trkpt>
      <trkpt lat="43.32336" lon="2.61161">
        <ele>178.94</ele>
        <time>2021-03-25T14:30:54Z</time>
      </trkpt>
      <trkpt lat="43.32352" lon="2.61164">
        <ele>180.38</ele>
        <time>2021-03-25T14:31:06Z</time>
      </trkpt>
      <trkpt lat="43.32374" lon="2.61174">
        <ele>180.87</ele>
        <time>2021-03-25T14:31:27Z</time>
      </trkpt>
      <trkpt lat="43.32387" lon="2.61181">
        <ele>181.35</ele>
        <time>2021-03-25T14:31:39Z</time>
      </trkpt>
      <trkpt lat="43.324" lon="2.61189">
        <ele>182.31</ele>
        <time>2021-03-25T14:31:52Z</time>
      </trkpt>
      <trkpt lat="43.32413" lon="2.61197">
        <ele>182.79</ele>
        <time>2021-03-25T14:32:04Z</time>
      </trkpt>
      <trkpt lat="43.32428" lon="2.61204">
        <ele>183.75</ele>
        <time>2021-03-25T14:32:16Z</time>
      </trkpt>
      <trkpt lat="43.32429" lon="2.61209">
        <ele>184.23</ele>
        <time>2021-03-25T14:32:21Z</time>
      </trkpt>
      <trkpt lat="43.32429" lon="2.61212">
        <ele>184.23</ele>
        <time>2021-03-25T14:32:22Z</time>
      </trkpt>
      <trkpt lat="43.32429" lon="2.61213">
        <ele>184.23</ele>
        <time>2021-03-25T14:32:23Z</time>
      </trkpt>
      <trkpt lat="43.32425" lon="2.61227">
        <ele>184.23</ele>
        <time>2021-03-25T14:32:33Z</time>
      </trkpt>
      <trkpt lat="43.32424" lon="2.6123">
        <ele>184.23</ele>
        <time>2021-03-25T14:32:40Z</time>
      </trkpt>
      <trkpt lat="43.32423" lon="2.61231">
        <ele>184.23</ele>
        <time>2021-03-25T14:32:41Z</time>
      </trkpt>
      <trkpt lat="43.32422" lon="2.61232">
        <ele>184.23</ele>
        <time>2021-03-25T14:32:42Z</time>
      </trkpt>
      <trkpt lat="43.32417" lon="2.6125">
        <ele>184.23</ele>
        <time>2021-03-25T14:32:54Z</time>
      </trkpt>
      <trkpt lat="43.32416" lon="2.61252">
        <ele>184.23</ele>
        <time>2021-03-25T14:32:55Z</time>
      </trkpt>
      <trkpt lat="43.32414" lon="2.6126">
        <ele>184.23</ele>
        <time>2021-03-25T14:33:02Z</time>
      </trkpt>
      <trkpt lat="43.32409" lon="2.61279">
        <ele>184.23</ele>
        <time>2021-03-25T14:33:14Z</time>
      </trkpt>
      <trkpt lat="43.32401" lon="2.61302">
        <ele>184.23</ele>
        <time>2021-03-25T14:33:27Z</time>
      </trkpt>
      <trkpt lat="43.32397" lon="2.61322">
        <ele>182.79</ele>
        <time>2021-03-25T14:33:39Z</time>
      </trkpt>
      <trkpt lat="43.32394" lon="2.61337">
        <ele>182.79</ele>
        <time>2021-03-25T14:33:49Z</time>
      </trkpt>
      <trkpt lat="43.32394" lon="2.61338">
        <ele>182.79</ele>
        <time>2021-03-25T14:33:50Z</time>
      </trkpt>
      <trkpt lat="43.32395" lon="2.61348">
        <ele>182.79</ele>
        <time>2021-03-25T14:33:56Z</time>
      </trkpt>
      <trkpt lat="43.32398" lon="2.61357">
        <ele>184.23</ele>
        <time>2021-03-25T14:34:05Z</time>
      </trkpt>
      <trkpt lat="43.32402" lon="2.61362">
        <ele>184.71</ele>
        <time>2021-03-25T14:34:10Z</time>
      </trkpt>
      <trkpt lat="43.32404" lon="2.61364">
        <ele>184.71</ele>
        <time>2021-03-25T14:34:11Z</time>
      </trkpt>
      <trkpt lat="43.32405" lon="2.61366">
        <ele>184.71</ele>
        <time>2021-03-25T14:34:12Z</time>
      </trkpt>
      <trkpt lat="43.32407" lon="2.61367">
        <ele>184.71</ele>
        <time>2021-03-25T14:34:13Z</time>
      </trkpt>
      <trkpt lat="43.32408" lon="2.61369">
        <ele>184.71</ele>
        <time>2021-03-25T14:34:14Z</time>
      </trkpt>
      <trkpt lat="43.32415" lon="2.61381">
        <ele>184.71</ele>
        <time>2021-03-25T14:34:24Z</time>
      </trkpt>
      <trkpt lat="43.32416" lon="2.61398">
        <ele>185.67</ele>
        <time>2021-03-25T14:34:35Z</time>
      </trkpt>
      <trkpt lat="43.32415" lon="2.61413">
        <ele>186.63</ele>
        <time>2021-03-25T14:34:50Z</time>
      </trkpt>
      <trkpt lat="43.32415" lon="2.61415">
        <ele>186.63</ele>
        <time>2021-03-25T14:34:53Z</time>
      </trkpt>
      <trkpt lat="43.32414" lon="2.61417">
        <ele>186.63</ele>
        <time>2021-03-25T14:34:54Z</time>
      </trkpt>
      <trkpt lat="43.32414" lon="2.61418">
        <ele>186.63</ele>
        <time>2021-03-25T14:34:55Z</time>
      </trkpt>
      <trkpt lat="43.32414" lon="2.61424">
        <ele>187.11</ele>
        <time>2021-03-25T14:35:00Z</time>
      </trkpt>
      <trkpt lat="43.32414" lon="2.61426">
        <ele>187.11</ele>
        <time>2021-03-25T14:35:01Z</time>
      </trkpt>
      <trkpt lat="43.32414" lon="2.61428">
        <ele>187.11</ele>
        <time>2021-03-25T14:35:02Z</time>
      </trkpt>
      <trkpt lat="43.32414" lon="2.6143">
        <ele>187.11</ele>
        <time>2021-03-25T14:35:03Z</time>
      </trkpt>
      <trkpt lat="43.32415" lon="2.61432">
        <ele>187.11</ele>
        <time>2021-03-25T14:35:04Z</time>
      </trkpt>
      <trkpt lat="43.32417" lon="2.61445">
        <ele>187.59</ele>
        <time>2021-03-25T14:35:15Z</time>
      </trkpt>
      <trkpt lat="43.32417" lon="2.61454">
        <ele>188.08</ele>
        <time>2021-03-25T14:35:24Z</time>
      </trkpt>
      <trkpt lat="43.32417" lon="2.61456">
        <ele>188.08</ele>
        <time>2021-03-25T14:35:25Z</time>
      </trkpt>
      <trkpt lat="43.32417" lon="2.61458">
        <ele>188.08</ele>
        <time>2021-03-25T14:35:26Z</time>
      </trkpt>
      <trkpt lat="43.32417" lon="2.61461">
        <ele>188.08</ele>
        <time>2021-03-25T14:35:27Z</time>
      </trkpt>
      <trkpt lat="43.32416" lon="2.61476">
        <ele>189.52</ele>
        <time>2021-03-25T14:35:38Z</time>
      </trkpt>
      <trkpt lat="43.32416" lon="2.61485">
        <ele>190</ele>
        <time>2021-03-25T14:35:47Z</time>
      </trkpt>
      <trkpt lat="43.32415" lon="2.61488">
        <ele>190</ele>
        <time>2021-03-25T14:35:48Z</time>
      </trkpt>
      <trkpt lat="43.32415" lon="2.6149">
        <ele>190.48</ele>
        <time>2021-03-25T14:35:49Z</time>
      </trkpt>
      <trkpt lat="43.32414" lon="2.61502">
        <ele>190.96</ele>
        <time>2021-03-25T14:35:57Z</time>
      </trkpt>
      <trkpt lat="43.32413" lon="2.61506">
        <ele>190.96</ele>
        <time>2021-03-25T14:36:00Z</time>
      </trkpt>
      <trkpt lat="43.3241" lon="2.6151">
        <ele>190.96</ele>
        <time>2021-03-25T14:36:05Z</time>
      </trkpt>
      <trkpt lat="43.32409" lon="2.61512">
        <ele>191.44</ele>
        <time>2021-03-25T14:36:06Z</time>
      </trkpt>
      <trkpt lat="43.32401" lon="2.61525">
        <ele>192.88</ele>
        <time>2021-03-25T14:36:17Z</time>
      </trkpt>
      <trkpt lat="43.32389" lon="2.61531">
        <ele>194.8</ele>
        <time>2021-03-25T14:36:28Z</time>
      </trkpt>
      <trkpt lat="43.32387" lon="2.6153">
        <ele>195.28</ele>
        <time>2021-03-25T14:36:29Z</time>
      </trkpt>
      <trkpt lat="43.32385" lon="2.61529">
        <ele>195.28</ele>
        <time>2021-03-25T14:36:30Z</time>
      </trkpt>
      <trkpt lat="43.32384" lon="2.61528">
        <ele>195.77</ele>
        <time>2021-03-25T14:36:31Z</time>
      </trkpt>
      <trkpt lat="43.32383" lon="2.61527">
        <ele>195.77</ele>
        <time>2021-03-25T14:36:32Z</time>
      </trkpt>
      <trkpt lat="43.32379" lon="2.61524">
        <ele>196.73</ele>
        <time>2021-03-25T14:36:37Z</time>
      </trkpt>
      <trkpt lat="43.32378" lon="2.61524">
        <ele>196.73</ele>
        <time>2021-03-25T14:36:38Z</time>
      </trkpt>
      <trkpt lat="43.32376" lon="2.61522">
        <ele>196.73</ele>
        <time>2021-03-25T14:36:43Z</time>
      </trkpt>
      <trkpt lat="43.32375" lon="2.61521">
        <ele>196.73</ele>
        <time>2021-03-25T14:36:44Z</time>
      </trkpt>
      <trkpt lat="43.32374" lon="2.61518">
        <ele>196.73</ele>
        <time>2021-03-25T14:36:45Z</time>
      </trkpt>
      <trkpt lat="43.32373" lon="2.61517">
        <ele>196.73</ele>
        <time>2021-03-25T14:36:46Z</time>
      </trkpt>
      <trkpt lat="43.32371" lon="2.61513">
        <ele>197.69</ele>
        <time>2021-03-25T14:36:52Z</time>
      </trkpt>
      <trkpt lat="43.3237" lon="2.61512">
        <ele>197.69</ele>
        <time>2021-03-25T14:36:53Z</time>
      </trkpt>
      <trkpt lat="43.32369" lon="2.61511">
        <ele>197.69</ele>
        <time>2021-03-25T14:36:54Z</time>
      </trkpt>
      <trkpt lat="43.32361" lon="2.61502">
        <ele>198.65</ele>
        <time>2021-03-25T14:37:04Z</time>
      </trkpt>
      <trkpt lat="43.32359" lon="2.61503">
        <ele>199.13</ele>
        <time>2021-03-25T14:37:08Z</time>
      </trkpt>
      <trkpt lat="43.32357" lon="2.61503">
        <ele>199.13</ele>
        <time>2021-03-25T14:37:09Z</time>
      </trkpt>
      <trkpt lat="43.32355" lon="2.61503">
        <ele>199.13</ele>
        <time>2021-03-25T14:37:10Z</time>
      </trkpt>
      <trkpt lat="43.32354" lon="2.61503">
        <ele>199.13</ele>
        <time>2021-03-25T14:37:11Z</time>
      </trkpt>
      <trkpt lat="43.32352" lon="2.61503">
        <ele>199.13</ele>
        <time>2021-03-25T14:37:12Z</time>
      </trkpt>
      <trkpt lat="43.32343" lon="2.61509">
        <ele>200.57</ele>
        <time>2021-03-25T14:37:21Z</time>
      </trkpt>
      <trkpt lat="43.3234" lon="2.61513">
        <ele>200.57</ele>
        <time>2021-03-25T14:37:26Z</time>
      </trkpt>
      <trkpt lat="43.32339" lon="2.61514">
        <ele>200.57</ele>
        <time>2021-03-25T14:37:27Z</time>
      </trkpt>
      <trkpt lat="43.32333" lon="2.61521">
        <ele>201.05</ele>
        <time>2021-03-25T14:37:34Z</time>
      </trkpt>
      <trkpt lat="43.32332" lon="2.61523">
        <ele>201.53</ele>
        <time>2021-03-25T14:37:35Z</time>
      </trkpt>
      <trkpt lat="43.32324" lon="2.61536">
        <ele>203.94</ele>
        <time>2021-03-25T14:37:47Z</time>
      </trkpt>
      <trkpt lat="43.32316" lon="2.61548">
        <ele>206.34</ele>
        <time>2021-03-25T14:37:58Z</time>
      </trkpt>
      <trkpt lat="43.32308" lon="2.61561">
        <ele>208.26</ele>
        <time>2021-03-25T14:38:07Z</time>
      </trkpt>
      <trkpt lat="43.32305" lon="2.61562">
        <ele>208.74</ele>
        <time>2021-03-25T14:38:12Z</time>
      </trkpt>
      <trkpt lat="43.32304" lon="2.61563">
        <ele>209.22</ele>
        <time>2021-03-25T14:38:13Z</time>
      </trkpt>
      <trkpt lat="43.32302" lon="2.61564">
        <ele>209.22</ele>
        <time>2021-03-25T14:38:14Z</time>
      </trkpt>
      <trkpt lat="43.32291" lon="2.61569">
        <ele>211.15</ele>
        <time>2021-03-25T14:38:25Z</time>
      </trkpt>
      <trkpt lat="43.32286" lon="2.6157">
        <ele>212.11</ele>
        <time>2021-03-25T14:38:45Z</time>
      </trkpt>
      <trkpt lat="43.32284" lon="2.6157">
        <ele>212.59</ele>
        <time>2021-03-25T14:38:46Z</time>
      </trkpt>
      <trkpt lat="43.32281" lon="2.6157">
        <ele>213.07</ele>
        <time>2021-03-25T14:38:49Z</time>
      </trkpt>
      <trkpt lat="43.3228" lon="2.6157">
        <ele>213.07</ele>
        <time>2021-03-25T14:38:50Z</time>
      </trkpt>
      <trkpt lat="43.32277" lon="2.6157">
        <ele>213.55</ele>
        <time>2021-03-25T14:38:54Z</time>
      </trkpt>
      <trkpt lat="43.32275" lon="2.6157">
        <ele>213.55</ele>
        <time>2021-03-25T14:38:55Z</time>
      </trkpt>
      <trkpt lat="43.32271" lon="2.61571">
        <ele>214.03</ele>
        <time>2021-03-25T14:39:09Z</time>
      </trkpt>
      <trkpt lat="43.32271" lon="2.61573">
        <ele>214.03</ele>
        <time>2021-03-25T14:39:29Z</time>
      </trkpt>
      <trkpt lat="43.32271" lon="2.61573">
        <ele>214.99</ele>
        <time>2021-03-25T14:39:46Z</time>
      </trkpt>
      <trkpt lat="43.32272" lon="2.61573">
        <ele>214.99</ele>
        <time>2021-03-25T14:39:51Z</time>
      </trkpt>
      <trkpt lat="43.32279" lon="2.61573">
        <ele>213.55</ele>
        <time>2021-03-25T14:39:56Z</time>
      </trkpt>
      <trkpt lat="43.32281" lon="2.61572">
        <ele>213.55</ele>
        <time>2021-03-25T14:40:09Z</time>
      </trkpt>
      <trkpt lat="43.32279" lon="2.6157">
        <ele>213.55</ele>
        <time>2021-03-25T14:40:28Z</time>
      </trkpt>
      <trkpt lat="43.32262" lon="2.61566">
        <ele>215.95</ele>
        <time>2021-03-25T14:40:42Z</time>
      </trkpt>
      <trkpt lat="43.32256" lon="2.61565">
        <ele>216.91</ele>
        <time>2021-03-25T14:40:48Z</time>
      </trkpt>
      <trkpt lat="43.3225" lon="2.61566">
        <ele>216.43</ele>
        <time>2021-03-25T14:41:00Z</time>
      </trkpt>
      <trkpt lat="43.32249" lon="2.61564">
        <ele>216.43</ele>
        <time>2021-03-25T14:41:26Z</time>
      </trkpt>
      <trkpt lat="43.32249" lon="2.61567">
        <ele>216.43</ele>
        <time>2021-03-25T14:41:49Z</time>
      </trkpt>
      <trkpt lat="43.32249" lon="2.61571">
        <ele>215.47</ele>
        <time>2021-03-25T14:41:55Z</time>
      </trkpt>
      <trkpt lat="43.3225" lon="2.61571">
        <ele>216.91</ele>
        <time>2021-03-25T14:42:12Z</time>
      </trkpt>
      <trkpt lat="43.32246" lon="2.61568">
        <ele>216.91</ele>
        <time>2021-03-25T14:42:25Z</time>
      </trkpt>
      <trkpt lat="43.32248" lon="2.61569">
        <ele>216.91</ele>
        <time>2021-03-25T14:42:28Z</time>
      </trkpt>
      <trkpt lat="43.32246" lon="2.6157">
        <ele>216.91</ele>
        <time>2021-03-25T14:42:37Z</time>
      </trkpt>
      <trkpt lat="43.32246" lon="2.61568">
        <ele>216.91</ele>
        <time>2021-03-25T14:42:42Z</time>
      </trkpt>
      <trkpt lat="43.3226" lon="2.61565">
        <ele>215.95</ele>
        <time>2021-03-25T14:42:58Z</time>
      </trkpt>
      <trkpt lat="43.32265" lon="2.61567">
        <ele>215.47</ele>
        <time>2021-03-25T14:43:21Z</time>
      </trkpt>
      <trkpt lat="43.32263" lon="2.61569">
        <ele>216.43</ele>
        <time>2021-03-25T14:43:44Z</time>
      </trkpt>
      <trkpt lat="43.32262" lon="2.6157">
        <ele>216.43</ele>
        <time>2021-03-25T14:43:45Z</time>
      </trkpt>
      <trkpt lat="43.32255" lon="2.61568">
        <ele>216.91</ele>
        <time>2021-03-25T14:43:49Z</time>
      </trkpt>
      <trkpt lat="43.3223" lon="2.61566">
        <ele>216.91</ele>
        <time>2021-03-25T14:44:04Z</time>
      </trkpt>
      <trkpt lat="43.32199" lon="2.61568">
        <ele>216.91</ele>
        <time>2021-03-25T14:44:21Z</time>
      </trkpt>
      <trkpt lat="43.32173" lon="2.61563">
        <ele>217.88</ele>
        <time>2021-03-25T14:44:34Z</time>
      </trkpt>
      <trkpt lat="43.32153" lon="2.61573">
        <ele>220.28</ele>
        <time>2021-03-25T14:44:48Z</time>
      </trkpt>
      <trkpt lat="43.32144" lon="2.61574">
        <ele>222.68</ele>
        <time>2021-03-25T14:45:02Z</time>
      </trkpt>
      <trkpt lat="43.32135" lon="2.6157">
        <ele>224.61</ele>
        <time>2021-03-25T14:45:13Z</time>
      </trkpt>
      <trkpt lat="43.32133" lon="2.61569">
        <ele>224.61</ele>
        <time>2021-03-25T14:45:14Z</time>
      </trkpt>
      <trkpt lat="43.32112" lon="2.61551">
        <ele>223.16</ele>
        <time>2021-03-25T14:45:26Z</time>
      </trkpt>
      <trkpt lat="43.32111" lon="2.61551">
        <ele>223.16</ele>
        <time>2021-03-25T14:45:27Z</time>
      </trkpt>
      <trkpt lat="43.3211" lon="2.6155">
        <ele>223.16</ele>
        <time>2021-03-25T14:45:28Z</time>
      </trkpt>
      <trkpt lat="43.32109" lon="2.61553">
        <ele>223.16</ele>
        <time>2021-03-25T14:45:36Z</time>
      </trkpt>
      <trkpt lat="43.32108" lon="2.61552">
        <ele>223.16</ele>
        <time>2021-03-25T14:45:37Z</time>
      </trkpt>
      <trkpt lat="43.32107" lon="2.61551">
        <ele>223.16</ele>
        <time>2021-03-25T14:45:38Z</time>
      </trkpt>
      <trkpt lat="43.32103" lon="2.61538">
        <ele>222.68</ele>
        <time>2021-03-25T14:45:51Z</time>
      </trkpt>
      <trkpt lat="43.32089" lon="2.61517">
        <ele>222.2</ele>
        <time>2021-03-25T14:46:04Z</time>
      </trkpt>
      <trkpt lat="43.3208" lon="2.61502">
        <ele>221.24</ele>
        <time>2021-03-25T14:46:15Z</time>
      </trkpt>
      <trkpt lat="43.3208" lon="2.61501">
        <ele>220.28</ele>
        <time>2021-03-25T14:46:17Z</time>
      </trkpt>
      <trkpt lat="43.32077" lon="2.61485">
        <ele>220.28</ele>
        <time>2021-03-25T14:46:27Z</time>
      </trkpt>
      <trkpt lat="43.32076" lon="2.61483">
        <ele>220.28</ele>
        <time>2021-03-25T14:46:28Z</time>
      </trkpt>
      <trkpt lat="43.3207" lon="2.61481">
        <ele>219.8</ele>
        <time>2021-03-25T14:46:36Z</time>
      </trkpt>
      <trkpt lat="43.32068" lon="2.61482">
        <ele>219.8</ele>
        <time>2021-03-25T14:46:37Z</time>
      </trkpt>
      <trkpt lat="43.32066" lon="2.61483">
        <ele>219.8</ele>
        <time>2021-03-25T14:46:38Z</time>
      </trkpt>
      <trkpt lat="43.32053" lon="2.61481">
        <ele>218.84</ele>
        <time>2021-03-25T14:46:47Z</time>
      </trkpt>
      <trkpt lat="43.3205" lon="2.61481">
        <ele>218.36</ele>
        <time>2021-03-25T14:46:57Z</time>
      </trkpt>
      <trkpt lat="43.32033" lon="2.61473">
        <ele>218.36</ele>
        <time>2021-03-25T14:47:09Z</time>
      </trkpt>
      <trkpt lat="43.32026" lon="2.61468">
        <ele>217.4</ele>
        <time>2021-03-25T14:47:18Z</time>
      </trkpt>
      <trkpt lat="43.32025" lon="2.61467">
        <ele>217.4</ele>
        <time>2021-03-25T14:47:19Z</time>
      </trkpt>
      <trkpt lat="43.32024" lon="2.61466">
        <ele>217.4</ele>
        <time>2021-03-25T14:47:20Z</time>
      </trkpt>
      <trkpt lat="43.32007" lon="2.61452">
        <ele>216.43</ele>
        <time>2021-03-25T14:47:34Z</time>
      </trkpt>
      <trkpt lat="43.32005" lon="2.61451">
        <ele>215.95</ele>
        <time>2021-03-25T14:47:37Z</time>
      </trkpt>
      <trkpt lat="43.32004" lon="2.6145">
        <ele>215.95</ele>
        <time>2021-03-25T14:47:38Z</time>
      </trkpt>
      <trkpt lat="43.31988" lon="2.61439">
        <ele>214.51</ele>
        <time>2021-03-25T14:47:51Z</time>
      </trkpt>
      <trkpt lat="43.31988" lon="2.61438">
        <ele>214.51</ele>
        <time>2021-03-25T14:47:52Z</time>
      </trkpt>
      <trkpt lat="43.31987" lon="2.61438">
        <ele>214.03</ele>
        <time>2021-03-25T14:47:53Z</time>
      </trkpt>
      <trkpt lat="43.31985" lon="2.61437">
        <ele>214.03</ele>
        <time>2021-03-25T14:47:54Z</time>
      </trkpt>
      <trkpt lat="43.31983" lon="2.61436">
        <ele>214.03</ele>
        <time>2021-03-25T14:47:55Z</time>
      </trkpt>
      <trkpt lat="43.31981" lon="2.61434">
        <ele>214.03</ele>
        <time>2021-03-25T14:47:56Z</time>
      </trkpt>
      <trkpt lat="43.31979" lon="2.61433">
        <ele>214.03</ele>
        <time>2021-03-25T14:47:57Z</time>
      </trkpt>
      <trkpt lat="43.31977" lon="2.61432">
        <ele>214.51</ele>
        <time>2021-03-25T14:47:58Z</time>
      </trkpt>
      <trkpt lat="43.31975" lon="2.61432">
        <ele>213.55</ele>
        <time>2021-03-25T14:47:59Z</time>
      </trkpt>
      <trkpt lat="43.31972" lon="2.61432">
        <ele>213.55</ele>
        <time>2021-03-25T14:48:01Z</time>
      </trkpt>
      <trkpt lat="43.31971" lon="2.61431">
        <ele>213.55</ele>
        <time>2021-03-25T14:48:02Z</time>
      </trkpt>
      <trkpt lat="43.31956" lon="2.61422">
        <ele>213.07</ele>
        <time>2021-03-25T14:48:15Z</time>
      </trkpt>
      <trkpt lat="43.31955" lon="2.61421">
        <ele>213.07</ele>
        <time>2021-03-25T14:48:16Z</time>
      </trkpt>
      <trkpt lat="43.31954" lon="2.6142">
        <ele>212.11</ele>
        <time>2021-03-25T14:48:17Z</time>
      </trkpt>
      <trkpt lat="43.31953" lon="2.61419">
        <ele>212.11</ele>
        <time>2021-03-25T14:48:18Z</time>
      </trkpt>
      <trkpt lat="43.31952" lon="2.61418">
        <ele>212.11</ele>
        <time>2021-03-25T14:48:19Z</time>
      </trkpt>
      <trkpt lat="43.31949" lon="2.61414">
        <ele>212.11</ele>
        <time>2021-03-25T14:48:23Z</time>
      </trkpt>
      <trkpt lat="43.31948" lon="2.61413">
        <ele>212.11</ele>
        <time>2021-03-25T14:48:24Z</time>
      </trkpt>
      <trkpt lat="43.31947" lon="2.61412">
        <ele>212.11</ele>
        <time>2021-03-25T14:48:25Z</time>
      </trkpt>
      <trkpt lat="43.31946" lon="2.61411">
        <ele>212.11</ele>
        <time>2021-03-25T14:48:26Z</time>
      </trkpt>
      <trkpt lat="43.31945" lon="2.6141">
        <ele>211.63</ele>
        <time>2021-03-25T14:48:27Z</time>
      </trkpt>
      <trkpt lat="43.31944" lon="2.61408">
        <ele>211.63</ele>
        <time>2021-03-25T14:48:28Z</time>
      </trkpt>
      <trkpt lat="43.31926" lon="2.61391">
        <ele>210.67</ele>
        <time>2021-03-25T14:48:40Z</time>
      </trkpt>
      <trkpt lat="43.31913" lon="2.6138">
        <ele>209.22</ele>
        <time>2021-03-25T14:48:56Z</time>
      </trkpt>
      <trkpt lat="43.31911" lon="2.61379">
        <ele>209.22</ele>
        <time>2021-03-25T14:48:57Z</time>
      </trkpt>
      <trkpt lat="43.3191" lon="2.61378">
        <ele>209.22</ele>
        <time>2021-03-25T14:48:58Z</time>
      </trkpt>
      <trkpt lat="43.31889" lon="2.61361">
        <ele>207.3</ele>
        <time>2021-03-25T14:49:12Z</time>
      </trkpt>
      <trkpt lat="43.31886" lon="2.6136">
        <ele>206.82</ele>
        <time>2021-03-25T14:49:17Z</time>
      </trkpt>
      <trkpt lat="43.31884" lon="2.61358">
        <ele>206.82</ele>
        <time>2021-03-25T14:49:18Z</time>
      </trkpt>
      <trkpt lat="43.31883" lon="2.61357">
        <ele>206.82</ele>
        <time>2021-03-25T14:49:19Z</time>
      </trkpt>
      <trkpt lat="43.31881" lon="2.61355">
        <ele>206.82</ele>
        <time>2021-03-25T14:49:20Z</time>
      </trkpt>
      <trkpt lat="43.31879" lon="2.61354">
        <ele>206.82</ele>
        <time>2021-03-25T14:49:21Z</time>
      </trkpt>
      <trkpt lat="43.31877" lon="2.61353">
        <ele>206.82</ele>
        <time>2021-03-25T14:49:22Z</time>
      </trkpt>
      <trkpt lat="43.31871" lon="2.61347">
        <ele>206.82</ele>
        <time>2021-03-25T14:49:31Z</time>
      </trkpt>
      <trkpt lat="43.31869" lon="2.61346">
        <ele>206.82</ele>
        <time>2021-03-25T14:49:32Z</time>
      </trkpt>
      <trkpt lat="43.31865" lon="2.61344">
        <ele>207.78</ele>
        <time>2021-03-25T14:49:39Z</time>
      </trkpt>
      <trkpt lat="43.31852" lon="2.61345">
        <ele>208.74</ele>
        <time>2021-03-25T14:49:49Z</time>
      </trkpt>
      <trkpt lat="43.3185" lon="2.61345">
        <ele>208.74</ele>
        <time>2021-03-25T14:49:52Z</time>
      </trkpt>
      <trkpt lat="43.31848" lon="2.61346">
        <ele>209.22</ele>
        <time>2021-03-25T14:49:53Z</time>
      </trkpt>
      <trkpt lat="43.31841" lon="2.61353">
        <ele>209.7</ele>
        <time>2021-03-25T14:50:03Z</time>
      </trkpt>
      <trkpt lat="43.31835" lon="2.61365">
        <ele>209.7</ele>
        <time>2021-03-25T14:50:14Z</time>
      </trkpt>
      <trkpt lat="43.31834" lon="2.61367">
        <ele>209.7</ele>
        <time>2021-03-25T14:50:15Z</time>
      </trkpt>
      <trkpt lat="43.31833" lon="2.61369">
        <ele>209.7</ele>
        <time>2021-03-25T14:50:16Z</time>
      </trkpt>
      <trkpt lat="43.31832" lon="2.61371">
        <ele>209.7</ele>
        <time>2021-03-25T14:50:17Z</time>
      </trkpt>
      <trkpt lat="43.31831" lon="2.61374">
        <ele>209.7</ele>
        <time>2021-03-25T14:50:18Z</time>
      </trkpt>
      <trkpt lat="43.31831" lon="2.61376">
        <ele>209.7</ele>
        <time>2021-03-25T14:50:19Z</time>
      </trkpt>
      <trkpt lat="43.31829" lon="2.61381">
        <ele>208.74</ele>
        <time>2021-03-25T14:50:21Z</time>
      </trkpt>
      <trkpt lat="43.31817" lon="2.61403">
        <ele>207.78</ele>
        <time>2021-03-25T14:50:36Z</time>
      </trkpt>
      <trkpt lat="43.31811" lon="2.61408">
        <ele>206.34</ele>
        <time>2021-03-25T14:50:44Z</time>
      </trkpt>
      <trkpt lat="43.3179" lon="2.61426">
        <ele>205.86</ele>
        <time>2021-03-25T14:50:57Z</time>
      </trkpt>
      <trkpt lat="43.31779" lon="2.61434">
        <ele>205.38</ele>
        <time>2021-03-25T14:51:04Z</time>
      </trkpt>
      <trkpt lat="43.31775" lon="2.61436">
        <ele>205.38</ele>
        <time>2021-03-25T14:51:09Z</time>
      </trkpt>
      <trkpt lat="43.31774" lon="2.61437">
        <ele>205.38</ele>
        <time>2021-03-25T14:51:10Z</time>
      </trkpt>
      <trkpt lat="43.31773" lon="2.61438">
        <ele>204.9</ele>
        <time>2021-03-25T14:51:11Z</time>
      </trkpt>
      <trkpt lat="43.31771" lon="2.61439">
        <ele>204.9</ele>
        <time>2021-03-25T14:51:12Z</time>
      </trkpt>
      <trkpt lat="43.31767" lon="2.61444">
        <ele>203.46</ele>
        <time>2021-03-25T14:51:23Z</time>
      </trkpt>
      <trkpt lat="43.31766" lon="2.61446">
        <ele>202.98</ele>
        <time>2021-03-25T14:51:24Z</time>
      </trkpt>
      <trkpt lat="43.31764" lon="2.6145">
        <ele>202.98</ele>
        <time>2021-03-25T14:51:26Z</time>
      </trkpt>
      <trkpt lat="43.31762" lon="2.61451">
        <ele>202.98</ele>
        <time>2021-03-25T14:51:27Z</time>
      </trkpt>
      <trkpt lat="43.31761" lon="2.61451">
        <ele>202.49</ele>
        <time>2021-03-25T14:51:28Z</time>
      </trkpt>
      <trkpt lat="43.3176" lon="2.61452">
        <ele>202.49</ele>
        <time>2021-03-25T14:51:29Z</time>
      </trkpt>
      <trkpt lat="43.31758" lon="2.61452">
        <ele>202.01</ele>
        <time>2021-03-25T14:51:32Z</time>
      </trkpt>
      <trkpt lat="43.31757" lon="2.61452">
        <ele>202.01</ele>
        <time>2021-03-25T14:51:33Z</time>
      </trkpt>
      <trkpt lat="43.31755" lon="2.61452">
        <ele>202.01</ele>
        <time>2021-03-25T14:51:34Z</time>
      </trkpt>
      <trkpt lat="43.31743" lon="2.61453">
        <ele>201.05</ele>
        <time>2021-03-25T14:51:47Z</time>
      </trkpt>
      <trkpt lat="43.31732" lon="2.61454">
        <ele>200.09</ele>
        <time>2021-03-25T14:51:56Z</time>
      </trkpt>
      <trkpt lat="43.3173" lon="2.61455">
        <ele>200.09</ele>
        <time>2021-03-25T14:51:58Z</time>
      </trkpt>
      <trkpt lat="43.31728" lon="2.61455">
        <ele>200.09</ele>
        <time>2021-03-25T14:51:59Z</time>
      </trkpt>
      <trkpt lat="43.31714" lon="2.6146">
        <ele>199.61</ele>
        <time>2021-03-25T14:52:10Z</time>
      </trkpt>
      <trkpt lat="43.31712" lon="2.61462">
        <ele>199.61</ele>
        <time>2021-03-25T14:52:20Z</time>
      </trkpt>
      <trkpt lat="43.31711" lon="2.61463">
        <ele>199.61</ele>
        <time>2021-03-25T14:52:21Z</time>
      </trkpt>
      <trkpt lat="43.31709" lon="2.61463">
        <ele>199.61</ele>
        <time>2021-03-25T14:52:22Z</time>
      </trkpt>
      <trkpt lat="43.31708" lon="2.61464">
        <ele>199.61</ele>
        <time>2021-03-25T14:52:23Z</time>
      </trkpt>
      <trkpt lat="43.31705" lon="2.61464">
        <ele>199.13</ele>
        <time>2021-03-25T14:52:27Z</time>
      </trkpt>
      <trkpt lat="43.31704" lon="2.61465">
        <ele>199.13</ele>
        <time>2021-03-25T14:52:28Z</time>
      </trkpt>
      <trkpt lat="43.31703" lon="2.61465">
        <ele>199.13</ele>
        <time>2021-03-25T14:52:29Z</time>
      </trkpt>
      <trkpt lat="43.31701" lon="2.61466">
        <ele>199.13</ele>
        <time>2021-03-25T14:52:30Z</time>
      </trkpt>
      <trkpt lat="43.317" lon="2.61466">
        <ele>199.13</ele>
        <time>2021-03-25T14:52:31Z</time>
      </trkpt>
      <trkpt lat="43.31698" lon="2.61467">
        <ele>199.13</ele>
        <time>2021-03-25T14:52:32Z</time>
      </trkpt>
      <trkpt lat="43.31684" lon="2.61471">
        <ele>199.13</ele>
        <time>2021-03-25T14:52:42Z</time>
      </trkpt>
      <trkpt lat="43.31676" lon="2.61473">
        <ele>199.13</ele>
        <time>2021-03-25T14:52:54Z</time>
      </trkpt>
      <trkpt lat="43.31663" lon="2.61475">
        <ele>198.17</ele>
        <time>2021-03-25T14:53:06Z</time>
      </trkpt>
      <trkpt lat="43.31658" lon="2.61475">
        <ele>197.21</ele>
        <time>2021-03-25T14:53:17Z</time>
      </trkpt>
      <trkpt lat="43.3165" lon="2.61476">
        <ele>196.25</ele>
        <time>2021-03-25T14:53:26Z</time>
      </trkpt>
      <trkpt lat="43.31648" lon="2.61478">
        <ele>196.25</ele>
        <time>2021-03-25T14:53:46Z</time>
      </trkpt>
      <trkpt lat="43.31647" lon="2.61478">
        <ele>196.25</ele>
        <time>2021-03-25T14:54:07Z</time>
      </trkpt>
      <trkpt lat="43.31647" lon="2.61477">
        <ele>196.25</ele>
        <time>2021-03-25T14:54:19Z</time>
      </trkpt>
      <trkpt lat="43.31643" lon="2.61477">
        <ele>195.77</ele>
        <time>2021-03-25T14:54:32Z</time>
      </trkpt>
      <trkpt lat="43.31642" lon="2.61477">
        <ele>195.77</ele>
        <time>2021-03-25T14:54:53Z</time>
      </trkpt>
      <trkpt lat="43.31632" lon="2.61475">
        <ele>195.28</ele>
        <time>2021-03-25T14:55:11Z</time>
      </trkpt>
      <trkpt lat="43.31619" lon="2.61473">
        <ele>193.84</ele>
        <time>2021-03-25T14:55:23Z</time>
      </trkpt>
      <trkpt lat="43.31617" lon="2.61473">
        <ele>193.84</ele>
        <time>2021-03-25T14:55:24Z</time>
      </trkpt>
      <trkpt lat="43.31615" lon="2.61473">
        <ele>193.84</ele>
        <time>2021-03-25T14:55:25Z</time>
      </trkpt>
      <trkpt lat="43.31613" lon="2.61473">
        <ele>193.84</ele>
        <time>2021-03-25T14:55:26Z</time>
      </trkpt>
      <trkpt lat="43.31611" lon="2.61473">
        <ele>193.36</ele>
        <time>2021-03-25T14:55:27Z</time>
      </trkpt>
      <trkpt lat="43.3161" lon="2.61472">
        <ele>193.36</ele>
        <time>2021-03-25T14:55:28Z</time>
      </trkpt>
      <trkpt lat="43.31608" lon="2.61472">
        <ele>193.36</ele>
        <time>2021-03-25T14:55:29Z</time>
      </trkpt>
      <trkpt lat="43.31604" lon="2.6147">
        <ele>191.92</ele>
        <time>2021-03-25T14:55:39Z</time>
      </trkpt>
      <trkpt lat="43.31603" lon="2.61469">
        <ele>191.44</ele>
        <time>2021-03-25T14:55:40Z</time>
      </trkpt>
      <trkpt lat="43.31601" lon="2.61469">
        <ele>191.44</ele>
        <time>2021-03-25T14:55:41Z</time>
      </trkpt>
      <trkpt lat="43.31596" lon="2.61467">
        <ele>190.96</ele>
        <time>2021-03-25T14:55:45Z</time>
      </trkpt>
      <trkpt lat="43.31591" lon="2.61466">
        <ele>190.96</ele>
        <time>2021-03-25T14:55:49Z</time>
      </trkpt>
      <trkpt lat="43.31586" lon="2.61465">
        <ele>190</ele>
        <time>2021-03-25T14:55:54Z</time>
      </trkpt>
      <trkpt lat="43.31584" lon="2.61465">
        <ele>190</ele>
        <time>2021-03-25T14:55:56Z</time>
      </trkpt>
      <trkpt lat="43.31582" lon="2.61465">
        <ele>189.52</ele>
        <time>2021-03-25T14:55:57Z</time>
      </trkpt>
      <trkpt lat="43.31581" lon="2.61464">
        <ele>189.52</ele>
        <time>2021-03-25T14:55:58Z</time>
      </trkpt>
      <trkpt lat="43.31575" lon="2.61463">
        <ele>188.56</ele>
        <time>2021-03-25T14:56:02Z</time>
      </trkpt>
      <trkpt lat="43.31574" lon="2.61462">
        <ele>188.56</ele>
        <time>2021-03-25T14:56:03Z</time>
      </trkpt>
      <trkpt lat="43.31573" lon="2.61461">
        <ele>188.08</ele>
        <time>2021-03-25T14:56:04Z</time>
      </trkpt>
      <trkpt lat="43.31567" lon="2.61462">
        <ele>186.63</ele>
        <time>2021-03-25T14:56:17Z</time>
      </trkpt>
      <trkpt lat="43.3156" lon="2.61459">
        <ele>185.67</ele>
        <time>2021-03-25T14:56:26Z</time>
      </trkpt>
      <trkpt lat="43.31558" lon="2.61457">
        <ele>185.67</ele>
        <time>2021-03-25T14:56:27Z</time>
      </trkpt>
      <trkpt lat="43.31557" lon="2.61455">
        <ele>185.67</ele>
        <time>2021-03-25T14:56:28Z</time>
      </trkpt>
      <trkpt lat="43.31555" lon="2.61453">
        <ele>185.67</ele>
        <time>2021-03-25T14:56:29Z</time>
      </trkpt>
      <trkpt lat="43.31554" lon="2.6145">
        <ele>185.67</ele>
        <time>2021-03-25T14:56:30Z</time>
      </trkpt>
      <trkpt lat="43.31554" lon="2.61449">
        <ele>184.71</ele>
        <time>2021-03-25T14:56:31Z</time>
      </trkpt>
      <trkpt lat="43.31553" lon="2.61448">
        <ele>184.71</ele>
        <time>2021-03-25T14:56:32Z</time>
      </trkpt>
      <trkpt lat="43.31551" lon="2.61446">
        <ele>185.19</ele>
        <time>2021-03-25T14:56:37Z</time>
      </trkpt>
      <trkpt lat="43.31549" lon="2.61445">
        <ele>184.71</ele>
        <time>2021-03-25T14:56:38Z</time>
      </trkpt>
      <trkpt lat="43.31547" lon="2.61444">
        <ele>184.71</ele>
        <time>2021-03-25T14:56:39Z</time>
      </trkpt>
      <trkpt lat="43.31545" lon="2.61444">
        <ele>184.71</ele>
        <time>2021-03-25T14:56:40Z</time>
      </trkpt>
      <trkpt lat="43.31543" lon="2.61443">
        <ele>184.23</ele>
        <time>2021-03-25T14:56:41Z</time>
      </trkpt>
      <trkpt lat="43.31542" lon="2.61443">
        <ele>184.23</ele>
        <time>2021-03-25T14:56:42Z</time>
      </trkpt>
      <trkpt lat="43.31539" lon="2.61445">
        <ele>183.75</ele>
        <time>2021-03-25T14:56:49Z</time>
      </trkpt>
      <trkpt lat="43.31537" lon="2.61446">
        <ele>183.75</ele>
        <time>2021-03-25T14:56:50Z</time>
      </trkpt>
      <trkpt lat="43.31536" lon="2.61446">
        <ele>183.27</ele>
        <time>2021-03-25T14:56:51Z</time>
      </trkpt>
      <trkpt lat="43.31534" lon="2.61446">
        <ele>183.27</ele>
        <time>2021-03-25T14:56:52Z</time>
      </trkpt>
      <trkpt lat="43.31533" lon="2.61446">
        <ele>183.27</ele>
        <time>2021-03-25T14:56:53Z</time>
      </trkpt>
      <trkpt lat="43.31532" lon="2.61446">
        <ele>183.27</ele>
        <time>2021-03-25T14:56:54Z</time>
      </trkpt>
      <trkpt lat="43.31528" lon="2.61448">
        <ele>182.31</ele>
        <time>2021-03-25T14:56:59Z</time>
      </trkpt>
      <trkpt lat="43.31527" lon="2.61449">
        <ele>182.31</ele>
        <time>2021-03-25T14:57:00Z</time>
      </trkpt>
      <trkpt lat="43.31526" lon="2.6145">
        <ele>182.31</ele>
        <time>2021-03-25T14:57:01Z</time>
      </trkpt>
      <trkpt lat="43.31525" lon="2.61451">
        <ele>182.31</ele>
        <time>2021-03-25T14:57:02Z</time>
      </trkpt>
      <trkpt lat="43.31524" lon="2.61452">
        <ele>182.31</ele>
        <time>2021-03-25T14:57:03Z</time>
      </trkpt>
      <trkpt lat="43.31519" lon="2.61455">
        <ele>181.35</ele>
        <time>2021-03-25T14:57:10Z</time>
      </trkpt>
      <trkpt lat="43.31518" lon="2.61457">
        <ele>181.35</ele>
        <time>2021-03-25T14:57:11Z</time>
      </trkpt>
      <trkpt lat="43.31517" lon="2.6146">
        <ele>180.87</ele>
        <time>2021-03-25T14:57:14Z</time>
      </trkpt>
      <trkpt lat="43.31516" lon="2.61462">
        <ele>180.87</ele>
        <time>2021-03-25T14:57:15Z</time>
      </trkpt>
      <trkpt lat="43.31507" lon="2.61472">
        <ele>179.9</ele>
        <time>2021-03-25T14:57:27Z</time>
      </trkpt>
      <trkpt lat="43.31505" lon="2.61472">
        <ele>179.42</ele>
        <time>2021-03-25T14:57:28Z</time>
      </trkpt>
      <trkpt lat="43.31504" lon="2.61474">
        <ele>179.42</ele>
        <time>2021-03-25T14:57:29Z</time>
      </trkpt>
      <trkpt lat="43.31503" lon="2.61475">
        <ele>179.42</ele>
        <time>2021-03-25T14:57:30Z</time>
      </trkpt>
      <trkpt lat="43.31497" lon="2.61483">
        <ele>178.94</ele>
        <time>2021-03-25T14:57:36Z</time>
      </trkpt>
      <trkpt lat="43.31495" lon="2.61484">
        <ele>178.46</ele>
        <time>2021-03-25T14:57:37Z</time>
      </trkpt>
      <trkpt lat="43.31494" lon="2.61486">
        <ele>178.46</ele>
        <time>2021-03-25T14:57:38Z</time>
      </trkpt>
      <trkpt lat="43.31493" lon="2.61487">
        <ele>178.46</ele>
        <time>2021-03-25T14:57:39Z</time>
      </trkpt>
      <trkpt lat="43.31487" lon="2.61493">
        <ele>177.98</ele>
        <time>2021-03-25T14:57:50Z</time>
      </trkpt>
      <trkpt lat="43.31483" lon="2.61497">
        <ele>177.98</ele>
        <time>2021-03-25T14:57:54Z</time>
      </trkpt>
      <trkpt lat="43.31479" lon="2.61503">
        <ele>177.5</ele>
        <time>2021-03-25T14:58:01Z</time>
      </trkpt>
      <trkpt lat="43.31478" lon="2.61505">
        <ele>177.02</ele>
        <time>2021-03-25T14:58:02Z</time>
      </trkpt>
      <trkpt lat="43.31476" lon="2.61506">
        <ele>177.02</ele>
        <time>2021-03-25T14:58:11Z</time>
      </trkpt>
      <trkpt lat="43.31476" lon="2.61507">
        <ele>177.02</ele>
        <time>2021-03-25T14:58:22Z</time>
      </trkpt>
      <trkpt lat="43.31476" lon="2.6152">
        <ele>177.02</ele>
        <time>2021-03-25T14:58:34Z</time>
      </trkpt>
      <trkpt lat="43.31475" lon="2.61539">
        <ele>176.54</ele>
        <time>2021-03-25T14:58:48Z</time>
      </trkpt>
      <trkpt lat="43.31475" lon="2.61542">
        <ele>176.54</ele>
        <time>2021-03-25T14:58:51Z</time>
      </trkpt>
      <trkpt lat="43.31475" lon="2.61562">
        <ele>176.06</ele>
        <time>2021-03-25T14:59:07Z</time>
      </trkpt>
      <trkpt lat="43.31477" lon="2.61575">
        <ele>175.1</ele>
        <time>2021-03-25T14:59:15Z</time>
      </trkpt>
      <trkpt lat="43.31478" lon="2.61577">
        <ele>175.1</ele>
        <time>2021-03-25T14:59:16Z</time>
      </trkpt>
      <trkpt lat="43.31479" lon="2.61594">
        <ele>174.62</ele>
        <time>2021-03-25T14:59:29Z</time>
      </trkpt>
      <trkpt lat="43.31479" lon="2.6161">
        <ele>174.14</ele>
        <time>2021-03-25T14:59:43Z</time>
      </trkpt>
      <trkpt lat="43.31478" lon="2.61611">
        <ele>173.66</ele>
        <time>2021-03-25T14:59:56Z</time>
      </trkpt>
      <trkpt lat="43.3148" lon="2.61626">
        <ele>173.66</ele>
        <time>2021-03-25T15:00:06Z</time>
      </trkpt>
      <trkpt lat="43.31481" lon="2.61628">
        <ele>173.66</ele>
        <time>2021-03-25T15:00:07Z</time>
      </trkpt>
      <trkpt lat="43.31481" lon="2.61633">
        <ele>173.17</ele>
        <time>2021-03-25T15:00:17Z</time>
      </trkpt>
      <trkpt lat="43.31481" lon="2.61635">
        <ele>173.17</ele>
        <time>2021-03-25T15:00:18Z</time>
      </trkpt>
      <trkpt lat="43.31487" lon="2.6165">
        <ele>172.69</ele>
        <time>2021-03-25T15:00:31Z</time>
      </trkpt>
      <trkpt lat="43.31487" lon="2.61651">
        <ele>172.69</ele>
        <time>2021-03-25T15:00:32Z</time>
      </trkpt>
      <trkpt lat="43.31485" lon="2.61667">
        <ele>171.73</ele>
        <time>2021-03-25T15:00:46Z</time>
      </trkpt>
      <trkpt lat="43.31484" lon="2.61669">
        <ele>171.25</ele>
        <time>2021-03-25T15:00:48Z</time>
      </trkpt>
      <trkpt lat="43.31476" lon="2.61685">
        <ele>170.29</ele>
        <time>2021-03-25T15:01:03Z</time>
      </trkpt>
      <trkpt lat="43.31476" lon="2.61688">
        <ele>170.29</ele>
        <time>2021-03-25T15:01:12Z</time>
      </trkpt>
      <trkpt lat="43.31474" lon="2.61689">
        <ele>170.29</ele>
        <time>2021-03-25T15:01:14Z</time>
      </trkpt>
      <trkpt lat="43.31471" lon="2.617">
        <ele>169.33</ele>
        <time>2021-03-25T15:01:23Z</time>
      </trkpt>
      <trkpt lat="43.31471" lon="2.61702">
        <ele>169.33</ele>
        <time>2021-03-25T15:01:27Z</time>
      </trkpt>
      <trkpt lat="43.31471" lon="2.61704">
        <ele>169.33</ele>
        <time>2021-03-25T15:01:28Z</time>
      </trkpt>
      <trkpt lat="43.31464" lon="2.61713">
        <ele>168.85</ele>
        <time>2021-03-25T15:01:37Z</time>
      </trkpt>
      <trkpt lat="43.3146" lon="2.61721">
        <ele>167.89</ele>
        <time>2021-03-25T15:01:44Z</time>
      </trkpt>
      <trkpt lat="43.31459" lon="2.61722">
        <ele>167.89</ele>
        <time>2021-03-25T15:01:45Z</time>
      </trkpt>
      <trkpt lat="43.31457" lon="2.61724">
        <ele>167.89</ele>
        <time>2021-03-25T15:01:56Z</time>
      </trkpt>
      <trkpt lat="43.31456" lon="2.61726">
        <ele>167.41</ele>
        <time>2021-03-25T15:01:58Z</time>
      </trkpt>
      <trkpt lat="43.31449" lon="2.61739">
        <ele>166.93</ele>
        <time>2021-03-25T15:02:09Z</time>
      </trkpt>
      <trkpt lat="43.31443" lon="2.61749">
        <ele>165.96</ele>
        <time>2021-03-25T15:02:20Z</time>
      </trkpt>
      <trkpt lat="43.31442" lon="2.6175">
        <ele>165.96</ele>
        <time>2021-03-25T15:02:21Z</time>
      </trkpt>
      <trkpt lat="43.31431" lon="2.61766">
        <ele>165</ele>
        <time>2021-03-25T15:02:33Z</time>
      </trkpt>
      <trkpt lat="43.31429" lon="2.61772">
        <ele>164.52</ele>
        <time>2021-03-25T15:02:40Z</time>
      </trkpt>
      <trkpt lat="43.31428" lon="2.61774">
        <ele>164.52</ele>
        <time>2021-03-25T15:02:41Z</time>
      </trkpt>
      <trkpt lat="43.31427" lon="2.61776">
        <ele>164.52</ele>
        <time>2021-03-25T15:02:42Z</time>
      </trkpt>
      <trkpt lat="43.31426" lon="2.61778">
        <ele>164.52</ele>
        <time>2021-03-25T15:02:43Z</time>
      </trkpt>
      <trkpt lat="43.31425" lon="2.61779">
        <ele>164.52</ele>
        <time>2021-03-25T15:02:44Z</time>
      </trkpt>
      <trkpt lat="43.31424" lon="2.6178">
        <ele>164.52</ele>
        <time>2021-03-25T15:02:45Z</time>
      </trkpt>
      <trkpt lat="43.31418" lon="2.61793">
        <ele>164.04</ele>
        <time>2021-03-25T15:02:55Z</time>
      </trkpt>
      <trkpt lat="43.31413" lon="2.61803">
        <ele>163.08</ele>
        <time>2021-03-25T15:03:05Z</time>
      </trkpt>
      <trkpt lat="43.31413" lon="2.61805">
        <ele>163.08</ele>
        <time>2021-03-25T15:03:16Z</time>
      </trkpt>
      <trkpt lat="43.31408" lon="2.61812">
        <ele>162.12</ele>
        <time>2021-03-25T15:03:25Z</time>
      </trkpt>
      <trkpt lat="43.31402" lon="2.61826">
        <ele>161.16</ele>
        <time>2021-03-25T15:03:35Z</time>
      </trkpt>
      <trkpt lat="43.31397" lon="2.61832">
        <ele>160.2</ele>
        <time>2021-03-25T15:03:43Z</time>
      </trkpt>
      <trkpt lat="43.31393" lon="2.61842">
        <ele>160.2</ele>
        <time>2021-03-25T15:03:53Z</time>
      </trkpt>
      <trkpt lat="43.31392" lon="2.61844">
        <ele>160.2</ele>
        <time>2021-03-25T15:03:55Z</time>
      </trkpt>
      <trkpt lat="43.3139" lon="2.61848">
        <ele>159.72</ele>
        <time>2021-03-25T15:03:58Z</time>
      </trkpt>
      <trkpt lat="43.3139" lon="2.6185">
        <ele>159.72</ele>
        <time>2021-03-25T15:03:59Z</time>
      </trkpt>
      <trkpt lat="43.31388" lon="2.61857">
        <ele>159.72</ele>
        <time>2021-03-25T15:04:04Z</time>
      </trkpt>
      <trkpt lat="43.31394" lon="2.61874">
        <ele>159.24</ele>
        <time>2021-03-25T15:04:14Z</time>
      </trkpt>
      <trkpt lat="43.31398" lon="2.61882">
        <ele>158.75</ele>
        <time>2021-03-25T15:04:23Z</time>
      </trkpt>
      <trkpt lat="43.31399" lon="2.61883">
        <ele>158.75</ele>
        <time>2021-03-25T15:04:24Z</time>
      </trkpt>
      <trkpt lat="43.314" lon="2.61885">
        <ele>158.75</ele>
        <time>2021-03-25T15:04:25Z</time>
      </trkpt>
      <trkpt lat="43.314" lon="2.61887">
        <ele>158.75</ele>
        <time>2021-03-25T15:04:26Z</time>
      </trkpt>
      <trkpt lat="43.314" lon="2.61897">
        <ele>158.27</ele>
        <time>2021-03-25T15:04:38Z</time>
      </trkpt>
      <trkpt lat="43.314" lon="2.619">
        <ele>158.27</ele>
        <time>2021-03-25T15:04:51Z</time>
      </trkpt>
      <trkpt lat="43.31399" lon="2.61903">
        <ele>158.27</ele>
        <time>2021-03-25T15:04:52Z</time>
      </trkpt>
      <trkpt lat="43.31399" lon="2.61905">
        <ele>158.27</ele>
        <time>2021-03-25T15:04:53Z</time>
      </trkpt>
      <trkpt lat="43.31398" lon="2.61907">
        <ele>158.27</ele>
        <time>2021-03-25T15:04:54Z</time>
      </trkpt>
      <trkpt lat="43.31398" lon="2.61909">
        <ele>158.27</ele>
        <time>2021-03-25T15:04:55Z</time>
      </trkpt>
      <trkpt lat="43.31394" lon="2.61925">
        <ele>157.79</ele>
        <time>2021-03-25T15:05:06Z</time>
      </trkpt>
      <trkpt lat="43.31393" lon="2.61928">
        <ele>157.31</ele>
        <time>2021-03-25T15:05:09Z</time>
      </trkpt>
      <trkpt lat="43.31393" lon="2.6193">
        <ele>157.31</ele>
        <time>2021-03-25T15:05:10Z</time>
      </trkpt>
      <trkpt lat="43.31393" lon="2.61934">
        <ele>157.31</ele>
        <time>2021-03-25T15:05:12Z</time>
      </trkpt>
      <trkpt lat="43.31391" lon="2.61937">
        <ele>157.31</ele>
        <time>2021-03-25T15:05:14Z</time>
      </trkpt>
      <trkpt lat="43.3139" lon="2.61952">
        <ele>155.87</ele>
        <time>2021-03-25T15:05:27Z</time>
      </trkpt>
      <trkpt lat="43.31387" lon="2.6197">
        <ele>154.91</ele>
        <time>2021-03-25T15:05:45Z</time>
      </trkpt>
      <trkpt lat="43.31386" lon="2.61977">
        <ele>154.43</ele>
        <time>2021-03-25T15:06:01Z</time>
      </trkpt>
      <trkpt lat="43.31384" lon="2.61983">
        <ele>154.43</ele>
        <time>2021-03-25T15:06:10Z</time>
      </trkpt>
      <trkpt lat="43.31383" lon="2.61985">
        <ele>154.43</ele>
        <time>2021-03-25T15:06:12Z</time>
      </trkpt>
      <trkpt lat="43.31378" lon="2.61997">
        <ele>153.95</ele>
        <time>2021-03-25T15:06:23Z</time>
      </trkpt>
      <trkpt lat="43.31376" lon="2.62013">
        <ele>153.95</ele>
        <time>2021-03-25T15:06:37Z</time>
      </trkpt>
      <trkpt lat="43.31375" lon="2.62023">
        <ele>153.95</ele>
        <time>2021-03-25T15:06:48Z</time>
      </trkpt>
      <trkpt lat="43.31372" lon="2.62035">
        <ele>153.95</ele>
        <time>2021-03-25T15:06:54Z</time>
      </trkpt>
      <trkpt lat="43.31372" lon="2.62043">
        <ele>153.47</ele>
        <time>2021-03-25T15:07:02Z</time>
      </trkpt>
      <trkpt lat="43.31372" lon="2.62045">
        <ele>153.47</ele>
        <time>2021-03-25T15:07:03Z</time>
      </trkpt>
      <trkpt lat="43.31373" lon="2.62047">
        <ele>153.47</ele>
        <time>2021-03-25T15:07:04Z</time>
      </trkpt>
      <trkpt lat="43.31373" lon="2.62049">
        <ele>153.47</ele>
        <time>2021-03-25T15:07:05Z</time>
      </trkpt>
      <trkpt lat="43.31373" lon="2.62051">
        <ele>153.47</ele>
        <time>2021-03-25T15:07:06Z</time>
      </trkpt>
      <trkpt lat="43.31373" lon="2.62061">
        <ele>152.99</ele>
        <time>2021-03-25T15:07:16Z</time>
      </trkpt>
      <trkpt lat="43.31372" lon="2.62076">
        <ele>152.99</ele>
        <time>2021-03-25T15:07:28Z</time>
      </trkpt>
      <trkpt lat="43.3137" lon="2.62085">
        <ele>152.51</ele>
        <time>2021-03-25T15:07:35Z</time>
      </trkpt>
      <trkpt lat="43.3137" lon="2.62093">
        <ele>152.51</ele>
        <time>2021-03-25T15:07:47Z</time>
      </trkpt>
      <trkpt lat="43.31368" lon="2.62096">
        <ele>152.51</ele>
        <time>2021-03-25T15:08:06Z</time>
      </trkpt>
      <trkpt lat="43.31366" lon="2.62104">
        <ele>152.03</ele>
        <time>2021-03-25T15:08:16Z</time>
      </trkpt>
      <trkpt lat="43.31364" lon="2.62111">
        <ele>151.54</ele>
        <time>2021-03-25T15:08:27Z</time>
      </trkpt>
      <trkpt lat="43.31362" lon="2.6212">
        <ele>151.54</ele>
        <time>2021-03-25T15:08:35Z</time>
      </trkpt>
      <trkpt lat="43.31362" lon="2.62122">
        <ele>151.54</ele>
        <time>2021-03-25T15:08:36Z</time>
      </trkpt>
      <trkpt lat="43.31361" lon="2.62124">
        <ele>151.06</ele>
        <time>2021-03-25T15:08:37Z</time>
      </trkpt>
      <trkpt lat="43.3136" lon="2.62126">
        <ele>151.06</ele>
        <time>2021-03-25T15:08:38Z</time>
      </trkpt>
      <trkpt lat="43.31359" lon="2.62128">
        <ele>151.06</ele>
        <time>2021-03-25T15:08:39Z</time>
      </trkpt>
      <trkpt lat="43.31357" lon="2.62134">
        <ele>151.06</ele>
        <time>2021-03-25T15:08:48Z</time>
      </trkpt>
      <trkpt lat="43.31358" lon="2.62136">
        <ele>151.06</ele>
        <time>2021-03-25T15:08:49Z</time>
      </trkpt>
      <trkpt lat="43.31358" lon="2.62145">
        <ele>150.1</ele>
        <time>2021-03-25T15:08:56Z</time>
      </trkpt>
      <trkpt lat="43.31357" lon="2.62148">
        <ele>150.1</ele>
        <time>2021-03-25T15:08:57Z</time>
      </trkpt>
      <trkpt lat="43.31354" lon="2.62158">
        <ele>150.1</ele>
        <time>2021-03-25T15:09:03Z</time>
      </trkpt>
      <trkpt lat="43.31354" lon="2.6216">
        <ele>150.1</ele>
        <time>2021-03-25T15:09:04Z</time>
      </trkpt>
      <trkpt lat="43.31354" lon="2.62163">
        <ele>150.1</ele>
        <time>2021-03-25T15:09:05Z</time>
      </trkpt>
      <trkpt lat="43.31353" lon="2.62165">
        <ele>150.1</ele>
        <time>2021-03-25T15:09:06Z</time>
      </trkpt>
      <trkpt lat="43.31351" lon="2.62179">
        <ele>149.14</ele>
        <time>2021-03-25T15:09:17Z</time>
      </trkpt>
      <trkpt lat="43.3135" lon="2.62185">
        <ele>149.14</ele>
        <time>2021-03-25T15:09:22Z</time>
      </trkpt>
      <trkpt lat="43.31346" lon="2.622">
        <ele>148.66</ele>
        <time>2021-03-25T15:09:34Z</time>
      </trkpt>
      <trkpt lat="43.31346" lon="2.62209">
        <ele>148.66</ele>
        <time>2021-03-25T15:09:40Z</time>
      </trkpt>
      <trkpt lat="43.31345" lon="2.62211">
        <ele>148.66</ele>
        <time>2021-03-25T15:09:41Z</time>
      </trkpt>
      <trkpt lat="43.31345" lon="2.62214">
        <ele>148.66</ele>
        <time>2021-03-25T15:09:42Z</time>
      </trkpt>
      <trkpt lat="43.31344" lon="2.62216">
        <ele>148.66</ele>
        <time>2021-03-25T15:09:43Z</time>
      </trkpt>
      <trkpt lat="43.31343" lon="2.62217">
        <ele>148.66</ele>
        <time>2021-03-25T15:09:44Z</time>
      </trkpt>
      <trkpt lat="43.31342" lon="2.62219">
        <ele>148.66</ele>
        <time>2021-03-25T15:09:46Z</time>
      </trkpt>
      <trkpt lat="43.31341" lon="2.62227">
        <ele>148.66</ele>
        <time>2021-03-25T15:09:51Z</time>
      </trkpt>
      <trkpt lat="43.31343" lon="2.62244">
        <ele>148.66</ele>
        <time>2021-03-25T15:10:02Z</time>
      </trkpt>
      <trkpt lat="43.31342" lon="2.62247">
        <ele>148.66</ele>
        <time>2021-03-25T15:10:12Z</time>
      </trkpt>
      <trkpt lat="43.31342" lon="2.62251">
        <ele>148.66</ele>
        <time>2021-03-25T15:10:23Z</time>
      </trkpt>
      <trkpt lat="43.31342" lon="2.62253">
        <ele>148.66</ele>
        <time>2021-03-25T15:10:24Z</time>
      </trkpt>
      <trkpt lat="43.31342" lon="2.62255">
        <ele>148.66</ele>
        <time>2021-03-25T15:10:25Z</time>
      </trkpt>
      <trkpt lat="43.31341" lon="2.62256">
        <ele>148.66</ele>
        <time>2021-03-25T15:10:26Z</time>
      </trkpt>
      <trkpt lat="43.31341" lon="2.62258">
        <ele>148.18</ele>
        <time>2021-03-25T15:10:27Z</time>
      </trkpt>
      <trkpt lat="43.3134" lon="2.62258">
        <ele>148.18</ele>
        <time>2021-03-25T15:10:28Z</time>
      </trkpt>
      <trkpt lat="43.31339" lon="2.62262">
        <ele>147.7</ele>
        <time>2021-03-25T15:10:33Z</time>
      </trkpt>
      <trkpt lat="43.31338" lon="2.62264">
        <ele>147.7</ele>
        <time>2021-03-25T15:10:34Z</time>
      </trkpt>
      <trkpt lat="43.31338" lon="2.62266">
        <ele>147.7</ele>
        <time>2021-03-25T15:10:35Z</time>
      </trkpt>
      <trkpt lat="43.31337" lon="2.62267">
        <ele>147.22</ele>
        <time>2021-03-25T15:10:36Z</time>
      </trkpt>
      <trkpt lat="43.3133" lon="2.62274">
        <ele>146.26</ele>
        <time>2021-03-25T15:10:45Z</time>
      </trkpt>
      <trkpt lat="43.31318" lon="2.62286">
        <ele>145.3</ele>
        <time>2021-03-25T15:10:57Z</time>
      </trkpt>
      <trkpt lat="43.31314" lon="2.62289">
        <ele>145.3</ele>
        <time>2021-03-25T15:11:01Z</time>
      </trkpt>
      <trkpt lat="43.31301" lon="2.62297">
        <ele>144.82</ele>
        <time>2021-03-25T15:11:16Z</time>
      </trkpt>
      <trkpt lat="43.31298" lon="2.62298">
        <ele>144.34</ele>
        <time>2021-03-25T15:11:18Z</time>
      </trkpt>
      <trkpt lat="43.31297" lon="2.62298">
        <ele>143.85</ele>
        <time>2021-03-25T15:11:19Z</time>
      </trkpt>
      <trkpt lat="43.31292" lon="2.62303">
        <ele>143.37</ele>
        <time>2021-03-25T15:11:26Z</time>
      </trkpt>
      <trkpt lat="43.31292" lon="2.62305">
        <ele>143.37</ele>
        <time>2021-03-25T15:11:27Z</time>
      </trkpt>
      <trkpt lat="43.3129" lon="2.62311">
        <ele>143.37</ele>
        <time>2021-03-25T15:11:31Z</time>
      </trkpt>
      <trkpt lat="43.3129" lon="2.62313">
        <ele>143.37</ele>
        <time>2021-03-25T15:11:32Z</time>
      </trkpt>
      <trkpt lat="43.3129" lon="2.62315">
        <ele>143.37</ele>
        <time>2021-03-25T15:11:33Z</time>
      </trkpt>
      <trkpt lat="43.31287" lon="2.62343">
        <ele>141.93</ele>
        <time>2021-03-25T15:11:49Z</time>
      </trkpt>
      <trkpt lat="43.31287" lon="2.62361">
        <ele>141.45</ele>
        <time>2021-03-25T15:12:03Z</time>
      </trkpt>
      <trkpt lat="43.31287" lon="2.62369">
        <ele>141.45</ele>
        <time>2021-03-25T15:12:07Z</time>
      </trkpt>
      <trkpt lat="43.31286" lon="2.62372">
        <ele>141.45</ele>
        <time>2021-03-25T15:12:08Z</time>
      </trkpt>
      <trkpt lat="43.31284" lon="2.62384">
        <ele>141.45</ele>
        <time>2021-03-25T15:12:14Z</time>
      </trkpt>
      <trkpt lat="43.31283" lon="2.62386">
        <ele>141.45</ele>
        <time>2021-03-25T15:12:15Z</time>
      </trkpt>
      <trkpt lat="43.31283" lon="2.62389">
        <ele>140.97</ele>
        <time>2021-03-25T15:12:16Z</time>
      </trkpt>
      <trkpt lat="43.31283" lon="2.6239">
        <ele>140.97</ele>
        <time>2021-03-25T15:12:17Z</time>
      </trkpt>
      <trkpt lat="43.31283" lon="2.62392">
        <ele>140.49</ele>
        <time>2021-03-25T15:12:18Z</time>
      </trkpt>
      <trkpt lat="43.31282" lon="2.62393">
        <ele>140.49</ele>
        <time>2021-03-25T15:12:19Z</time>
      </trkpt>
      <trkpt lat="43.31282" lon="2.62395">
        <ele>140.49</ele>
        <time>2021-03-25T15:12:20Z</time>
      </trkpt>
      <trkpt lat="43.31282" lon="2.62397">
        <ele>140.49</ele>
        <time>2021-03-25T15:12:21Z</time>
      </trkpt>
      <trkpt lat="43.31282" lon="2.62398">
        <ele>140.49</ele>
        <time>2021-03-25T15:12:22Z</time>
      </trkpt>
      <trkpt lat="43.31281" lon="2.624">
        <ele>140.49</ele>
        <time>2021-03-25T15:12:23Z</time>
      </trkpt>
      <trkpt lat="43.31278" lon="2.62415">
        <ele>140.01</ele>
        <time>2021-03-25T15:12:34Z</time>
      </trkpt>
      <trkpt lat="43.31278" lon="2.62419">
        <ele>140.01</ele>
        <time>2021-03-25T15:12:37Z</time>
      </trkpt>
      <trkpt lat="43.31279" lon="2.62438">
        <ele>138.57</ele>
        <time>2021-03-25T15:12:48Z</time>
      </trkpt>
      <trkpt lat="43.31279" lon="2.62453">
        <ele>138.09</ele>
        <time>2021-03-25T15:12:58Z</time>
      </trkpt>
      <trkpt lat="43.31281" lon="2.62475">
        <ele>138.09</ele>
        <time>2021-03-25T15:13:08Z</time>
      </trkpt>
      <trkpt lat="43.31282" lon="2.6249">
        <ele>137.13</ele>
        <time>2021-03-25T15:13:19Z</time>
      </trkpt>
      <trkpt lat="43.31284" lon="2.62506">
        <ele>137.13</ele>
        <time>2021-03-25T15:13:31Z</time>
      </trkpt>
      <trkpt lat="43.31284" lon="2.62512">
        <ele>137.13</ele>
        <time>2021-03-25T15:13:36Z</time>
      </trkpt>
      <trkpt lat="43.31284" lon="2.62516">
        <ele>136.64</ele>
        <time>2021-03-25T15:13:47Z</time>
      </trkpt>
      <trkpt lat="43.31284" lon="2.62517">
        <ele>136.64</ele>
        <time>2021-03-25T15:13:48Z</time>
      </trkpt>
      <trkpt lat="43.31284" lon="2.62518">
        <ele>136.16</ele>
        <time>2021-03-25T15:13:49Z</time>
      </trkpt>
      <trkpt lat="43.31285" lon="2.62521">
        <ele>136.16</ele>
        <time>2021-03-25T15:13:53Z</time>
      </trkpt>
      <trkpt lat="43.31287" lon="2.62523">
        <ele>136.16</ele>
        <time>2021-03-25T15:13:58Z</time>
      </trkpt>
      <trkpt lat="43.31289" lon="2.62524">
        <ele>136.16</ele>
        <time>2021-03-25T15:13:59Z</time>
      </trkpt>
      <trkpt lat="43.3129" lon="2.62526">
        <ele>136.16</ele>
        <time>2021-03-25T15:14:00Z</time>
      </trkpt>
      <trkpt lat="43.31291" lon="2.62528">
        <ele>136.16</ele>
        <time>2021-03-25T15:14:01Z</time>
      </trkpt>
      <trkpt lat="43.31292" lon="2.6253">
        <ele>136.16</ele>
        <time>2021-03-25T15:14:02Z</time>
      </trkpt>
      <trkpt lat="43.31295" lon="2.62534">
        <ele>136.16</ele>
        <time>2021-03-25T15:14:12Z</time>
      </trkpt>
      <trkpt lat="43.31299" lon="2.62557">
        <ele>136.16</ele>
        <time>2021-03-25T15:14:26Z</time>
      </trkpt>
      <trkpt lat="43.31301" lon="2.62569">
        <ele>136.16</ele>
        <time>2021-03-25T15:14:33Z</time>
      </trkpt>
      <trkpt lat="43.31301" lon="2.62573">
        <ele>136.16</ele>
        <time>2021-03-25T15:14:35Z</time>
      </trkpt>
      <trkpt lat="43.31302" lon="2.6258">
        <ele>136.16</ele>
        <time>2021-03-25T15:14:47Z</time>
      </trkpt>
      <trkpt lat="43.31304" lon="2.62582">
        <ele>137.61</ele>
        <time>2021-03-25T15:14:55Z</time>
      </trkpt>
      <trkpt lat="43.31303" lon="2.62599">
        <ele>137.61</ele>
        <time>2021-03-25T15:15:09Z</time>
      </trkpt>
      <trkpt lat="43.31303" lon="2.6261">
        <ele>137.61</ele>
        <time>2021-03-25T15:15:14Z</time>
      </trkpt>
      <trkpt lat="43.31303" lon="2.62612">
        <ele>137.61</ele>
        <time>2021-03-25T15:15:15Z</time>
      </trkpt>
      <trkpt lat="43.31303" lon="2.62613">
        <ele>137.61</ele>
        <time>2021-03-25T15:15:16Z</time>
      </trkpt>
      <trkpt lat="43.31303" lon="2.62615">
        <ele>137.61</ele>
        <time>2021-03-25T15:15:17Z</time>
      </trkpt>
      <trkpt lat="43.31304" lon="2.62617">
        <ele>137.61</ele>
        <time>2021-03-25T15:15:18Z</time>
      </trkpt>
      <trkpt lat="43.31304" lon="2.62618">
        <ele>137.61</ele>
        <time>2021-03-25T15:15:19Z</time>
      </trkpt>
      <trkpt lat="43.31304" lon="2.6262">
        <ele>137.61</ele>
        <time>2021-03-25T15:15:20Z</time>
      </trkpt>
      <trkpt lat="43.3131" lon="2.62642">
        <ele>137.61</ele>
        <time>2021-03-25T15:15:35Z</time>
      </trkpt>
      <trkpt lat="43.31312" lon="2.62648">
        <ele>137.61</ele>
        <time>2021-03-25T15:15:41Z</time>
      </trkpt>
      <trkpt lat="43.3132" lon="2.62666">
        <ele>135.68</ele>
        <time>2021-03-25T15:15:53Z</time>
      </trkpt>
      <trkpt lat="43.31321" lon="2.62667">
        <ele>135.68</ele>
        <time>2021-03-25T15:15:54Z</time>
      </trkpt>
      <trkpt lat="43.31323" lon="2.62673">
        <ele>135.68</ele>
        <time>2021-03-25T15:15:57Z</time>
      </trkpt>
      <trkpt lat="43.31324" lon="2.62674">
        <ele>135.68</ele>
        <time>2021-03-25T15:15:58Z</time>
      </trkpt>
      <trkpt lat="43.31324" lon="2.62676">
        <ele>135.68</ele>
        <time>2021-03-25T15:15:59Z</time>
      </trkpt>
      <trkpt lat="43.31325" lon="2.62678">
        <ele>135.68</ele>
        <time>2021-03-25T15:16:00Z</time>
      </trkpt>
      <trkpt lat="43.31326" lon="2.62687">
        <ele>135.2</ele>
        <time>2021-03-25T15:16:07Z</time>
      </trkpt>
      <trkpt lat="43.31327" lon="2.62689">
        <ele>135.2</ele>
        <time>2021-03-25T15:16:08Z</time>
      </trkpt>
      <trkpt lat="43.31327" lon="2.62691">
        <ele>135.2</ele>
        <time>2021-03-25T15:16:09Z</time>
      </trkpt>
      <trkpt lat="43.31328" lon="2.62693">
        <ele>135.2</ele>
        <time>2021-03-25T15:16:10Z</time>
      </trkpt>
      <trkpt lat="43.31328" lon="2.62696">
        <ele>135.2</ele>
        <time>2021-03-25T15:16:11Z</time>
      </trkpt>
      <trkpt lat="43.31328" lon="2.62699">
        <ele>135.2</ele>
        <time>2021-03-25T15:16:12Z</time>
      </trkpt>
      <trkpt lat="43.31329" lon="2.62701">
        <ele>135.2</ele>
        <time>2021-03-25T15:16:13Z</time>
      </trkpt>
      <trkpt lat="43.31328" lon="2.62704">
        <ele>135.2</ele>
        <time>2021-03-25T15:16:15Z</time>
      </trkpt>
      <trkpt lat="43.31328" lon="2.62706">
        <ele>135.2</ele>
        <time>2021-03-25T15:16:16Z</time>
      </trkpt>
      <trkpt lat="43.3133" lon="2.62719">
        <ele>135.2</ele>
        <time>2021-03-25T15:16:28Z</time>
      </trkpt>
      <trkpt lat="43.3133" lon="2.62723">
        <ele>135.2</ele>
        <time>2021-03-25T15:16:30Z</time>
      </trkpt>
      <trkpt lat="43.3133" lon="2.62726">
        <ele>135.2</ele>
        <time>2021-03-25T15:16:31Z</time>
      </trkpt>
      <trkpt lat="43.3133" lon="2.62728">
        <ele>135.2</ele>
        <time>2021-03-25T15:16:32Z</time>
      </trkpt>
      <trkpt lat="43.3133" lon="2.6273">
        <ele>135.2</ele>
        <time>2021-03-25T15:16:33Z</time>
      </trkpt>
      <trkpt lat="43.31331" lon="2.62733">
        <ele>135.2</ele>
        <time>2021-03-25T15:16:34Z</time>
      </trkpt>
      <trkpt lat="43.31333" lon="2.62754">
        <ele>134.72</ele>
        <time>2021-03-25T15:16:47Z</time>
      </trkpt>
      <trkpt lat="43.31334" lon="2.62783">
        <ele>133.76</ele>
        <time>2021-03-25T15:17:00Z</time>
      </trkpt>
      <trkpt lat="43.3133" lon="2.62798">
        <ele>132.8</ele>
        <time>2021-03-25T15:17:12Z</time>
      </trkpt>
      <trkpt lat="43.31323" lon="2.62815">
        <ele>131.84</ele>
        <time>2021-03-25T15:17:21Z</time>
      </trkpt>
      <trkpt lat="43.31317" lon="2.6283">
        <ele>131.36</ele>
        <time>2021-03-25T15:17:34Z</time>
      </trkpt>
      <trkpt lat="43.31316" lon="2.62833">
        <ele>131.36</ele>
        <time>2021-03-25T15:17:35Z</time>
      </trkpt>
      <trkpt lat="43.31316" lon="2.62837">
        <ele>130.88</ele>
        <time>2021-03-25T15:17:37Z</time>
      </trkpt>
      <trkpt lat="43.31316" lon="2.62839">
        <ele>130.88</ele>
        <time>2021-03-25T15:17:38Z</time>
      </trkpt>
      <trkpt lat="43.31315" lon="2.62841">
        <ele>130.4</ele>
        <time>2021-03-25T15:17:39Z</time>
      </trkpt>
      <trkpt lat="43.31315" lon="2.62843">
        <ele>130.4</ele>
        <time>2021-03-25T15:17:40Z</time>
      </trkpt>
      <trkpt lat="43.31312" lon="2.62861">
        <ele>129.43</ele>
        <time>2021-03-25T15:17:49Z</time>
      </trkpt>
      <trkpt lat="43.31306" lon="2.62859">
        <ele>129.92</ele>
        <time>2021-03-25T15:17:55Z</time>
      </trkpt>
      <trkpt lat="43.31305" lon="2.62859">
        <ele>129.92</ele>
        <time>2021-03-25T15:17:56Z</time>
      </trkpt>
      <trkpt lat="43.31303" lon="2.62858">
        <ele>129.92</ele>
        <time>2021-03-25T15:17:57Z</time>
      </trkpt>
      <trkpt lat="43.31301" lon="2.62857">
        <ele>129.92</ele>
        <time>2021-03-25T15:17:58Z</time>
      </trkpt>
      <trkpt lat="43.31299" lon="2.62856">
        <ele>129.92</ele>
        <time>2021-03-25T15:17:59Z</time>
      </trkpt>
      <trkpt lat="43.31298" lon="2.62855">
        <ele>129.92</ele>
        <time>2021-03-25T15:18:00Z</time>
      </trkpt>
      <trkpt lat="43.31296" lon="2.62853">
        <ele>129.92</ele>
        <time>2021-03-25T15:18:01Z</time>
      </trkpt>
      <trkpt lat="43.31295" lon="2.62852">
        <ele>129.92</ele>
        <time>2021-03-25T15:18:02Z</time>
      </trkpt>
      <trkpt lat="43.31294" lon="2.62851">
        <ele>129.92</ele>
        <time>2021-03-25T15:18:03Z</time>
      </trkpt>
      <trkpt lat="43.31293" lon="2.6285">
        <ele>129.92</ele>
        <time>2021-03-25T15:18:04Z</time>
      </trkpt>
      <trkpt lat="43.31281" lon="2.62841">
        <ele>129.92</ele>
        <time>2021-03-25T15:18:15Z</time>
      </trkpt>
      <trkpt lat="43.31277" lon="2.62839">
        <ele>129.43</ele>
        <time>2021-03-25T15:18:22Z</time>
      </trkpt>
      <trkpt lat="43.31276" lon="2.62838">
        <ele>129.43</ele>
        <time>2021-03-25T15:18:23Z</time>
      </trkpt>
      <trkpt lat="43.31274" lon="2.62836">
        <ele>129.43</ele>
        <time>2021-03-25T15:18:24Z</time>
      </trkpt>
      <trkpt lat="43.31273" lon="2.62835">
        <ele>129.43</ele>
        <time>2021-03-25T15:18:25Z</time>
      </trkpt>
      <trkpt lat="43.31271" lon="2.62833">
        <ele>129.43</ele>
        <time>2021-03-25T15:18:26Z</time>
      </trkpt>
      <trkpt lat="43.31256" lon="2.6282">
        <ele>128.47</ele>
        <time>2021-03-25T15:18:41Z</time>
      </trkpt>
      <trkpt lat="43.31254" lon="2.62818">
        <ele>128.47</ele>
        <time>2021-03-25T15:18:45Z</time>
      </trkpt>
      <trkpt lat="43.31252" lon="2.62817">
        <ele>128.47</ele>
        <time>2021-03-25T15:18:46Z</time>
      </trkpt>
      <trkpt lat="43.31235" lon="2.62797">
        <ele>127.99</ele>
        <time>2021-03-25T15:18:58Z</time>
      </trkpt>
      <trkpt lat="43.31229" lon="2.62786">
        <ele>127.51</ele>
        <time>2021-03-25T15:19:09Z</time>
      </trkpt>
      <trkpt lat="43.31228" lon="2.62785">
        <ele>127.51</ele>
        <time>2021-03-25T15:19:10Z</time>
      </trkpt>
      <trkpt lat="43.31227" lon="2.62784">
        <ele>127.51</ele>
        <time>2021-03-25T15:19:11Z</time>
      </trkpt>
      <trkpt lat="43.31226" lon="2.62782">
        <ele>127.51</ele>
        <time>2021-03-25T15:19:12Z</time>
      </trkpt>
      <trkpt lat="43.31224" lon="2.62781">
        <ele>127.51</ele>
        <time>2021-03-25T15:19:13Z</time>
      </trkpt>
      <trkpt lat="43.31223" lon="2.62779">
        <ele>127.51</ele>
        <time>2021-03-25T15:19:14Z</time>
      </trkpt>
      <trkpt lat="43.31212" lon="2.62769">
        <ele>127.99</ele>
        <time>2021-03-25T15:19:26Z</time>
      </trkpt>
      <trkpt lat="43.31205" lon="2.62762">
        <ele>126.55</ele>
        <time>2021-03-25T15:19:32Z</time>
      </trkpt>
      <trkpt lat="43.31192" lon="2.6274">
        <ele>127.99</ele>
        <time>2021-03-25T15:19:47Z</time>
      </trkpt>
      <trkpt lat="43.31185" lon="2.62724">
        <ele>125.11</ele>
        <time>2021-03-25T15:19:59Z</time>
      </trkpt>
      <trkpt lat="43.31184" lon="2.62722">
        <ele>127.51</ele>
        <time>2021-03-25T15:20:00Z</time>
      </trkpt>
      <trkpt lat="43.31176" lon="2.627">
        <ele>126.07</ele>
        <time>2021-03-25T15:20:12Z</time>
      </trkpt>
      <trkpt lat="43.31175" lon="2.62689">
        <ele>127.51</ele>
        <time>2021-03-25T15:20:19Z</time>
      </trkpt>
      <trkpt lat="43.31174" lon="2.62687">
        <ele>127.51</ele>
        <time>2021-03-25T15:20:20Z</time>
      </trkpt>
      <trkpt lat="43.3117" lon="2.62664">
        <ele>127.99</ele>
        <time>2021-03-25T15:20:31Z</time>
      </trkpt>
      <trkpt lat="43.3117" lon="2.62662">
        <ele>126.55</ele>
        <time>2021-03-25T15:20:36Z</time>
      </trkpt>
      <trkpt lat="43.31168" lon="2.62658">
        <ele>126.55</ele>
        <time>2021-03-25T15:20:40Z</time>
      </trkpt>
      <trkpt lat="43.31161" lon="2.62641">
        <ele>126.07</ele>
        <time>2021-03-25T15:20:50Z</time>
      </trkpt>
      <trkpt lat="43.31155" lon="2.62624">
        <ele>126.07</ele>
        <time>2021-03-25T15:21:01Z</time>
      </trkpt>
      <trkpt lat="43.31155" lon="2.62622">
        <ele>126.07</ele>
        <time>2021-03-25T15:21:02Z</time>
      </trkpt>
      <trkpt lat="43.31149" lon="2.62598">
        <ele>126.07</ele>
        <time>2021-03-25T15:21:17Z</time>
      </trkpt>
      <trkpt lat="43.31145" lon="2.62583">
        <ele>126.07</ele>
        <time>2021-03-25T15:21:29Z</time>
      </trkpt>
      <trkpt lat="43.3114" lon="2.62562">
        <ele>126.07</ele>
        <time>2021-03-25T15:21:42Z</time>
      </trkpt>
      <trkpt lat="43.3114" lon="2.6256">
        <ele>126.07</ele>
        <time>2021-03-25T15:21:44Z</time>
      </trkpt>
      <trkpt lat="43.3114" lon="2.62558">
        <ele>125.59</ele>
        <time>2021-03-25T15:21:45Z</time>
      </trkpt>
      <trkpt lat="43.31139" lon="2.62556">
        <ele>125.59</ele>
        <time>2021-03-25T15:21:46Z</time>
      </trkpt>
      <trkpt lat="43.31133" lon="2.62538">
        <ele>125.11</ele>
        <time>2021-03-25T15:21:58Z</time>
      </trkpt>
      <trkpt lat="43.31124" lon="2.62524">
        <ele>125.11</ele>
        <time>2021-03-25T15:22:11Z</time>
      </trkpt>
      <trkpt lat="43.31124" lon="2.62523">
        <ele>125.11</ele>
        <time>2021-03-25T15:22:34Z</time>
      </trkpt>
      <trkpt lat="43.31125" lon="2.62522">
        <ele>125.11</ele>
        <time>2021-03-25T15:22:46Z</time>
      </trkpt>
      <trkpt lat="43.31126" lon="2.62523">
        <ele>125.11</ele>
        <time>2021-03-25T15:22:47Z</time>
      </trkpt>
      <trkpt lat="43.31127" lon="2.62524">
        <ele>125.11</ele>
        <time>2021-03-25T15:22:48Z</time>
      </trkpt>
      <trkpt lat="43.31129" lon="2.62526">
        <ele>125.11</ele>
        <time>2021-03-25T15:22:51Z</time>
      </trkpt>
      <trkpt lat="43.31131" lon="2.62524">
        <ele>125.11</ele>
        <time>2021-03-25T15:22:53Z</time>
      </trkpt>
      <trkpt lat="43.31132" lon="2.62521">
        <ele>126.07</ele>
        <time>2021-03-25T15:22:55Z</time>
      </trkpt>
      <trkpt lat="43.31135" lon="2.62498">
        <ele>126.55</ele>
        <time>2021-03-25T15:23:10Z</time>
      </trkpt>
      <trkpt lat="43.31135" lon="2.62489">
        <ele>127.03</ele>
        <time>2021-03-25T15:23:14Z</time>
      </trkpt>
      <trkpt lat="43.31137" lon="2.62468">
        <ele>127.51</ele>
        <time>2021-03-25T15:23:27Z</time>
      </trkpt>
      <trkpt lat="43.31138" lon="2.62446">
        <ele>127.51</ele>
        <time>2021-03-25T15:23:39Z</time>
      </trkpt>
      <trkpt lat="43.31134" lon="2.62428">
        <ele>127.51</ele>
        <time>2021-03-25T15:23:50Z</time>
      </trkpt>
      <trkpt lat="43.31134" lon="2.62418">
        <ele>127.51</ele>
        <time>2021-03-25T15:23:55Z</time>
      </trkpt>
      <trkpt lat="43.3113" lon="2.62408">
        <ele>127.51</ele>
        <time>2021-03-25T15:24:03Z</time>
      </trkpt>
      <trkpt lat="43.3113" lon="2.62397">
        <ele>127.99</ele>
        <time>2021-03-25T15:24:09Z</time>
      </trkpt>
      <trkpt lat="43.31128" lon="2.62376">
        <ele>128.47</ele>
        <time>2021-03-25T15:24:22Z</time>
      </trkpt>
      <trkpt lat="43.31126" lon="2.62351">
        <ele>128.95</ele>
        <time>2021-03-25T15:24:35Z</time>
      </trkpt>
      <trkpt lat="43.31122" lon="2.6233">
        <ele>129.43</ele>
        <time>2021-03-25T15:24:48Z</time>
      </trkpt>
      <trkpt lat="43.31118" lon="2.62316">
        <ele>129.43</ele>
        <time>2021-03-25T15:24:57Z</time>
      </trkpt>
      <trkpt lat="43.31118" lon="2.6231">
        <ele>129.92</ele>
        <time>2021-03-25T15:25:01Z</time>
      </trkpt>
      <trkpt lat="43.31113" lon="2.62282">
        <ele>129.92</ele>
        <time>2021-03-25T15:25:14Z</time>
      </trkpt>
      <trkpt lat="43.31113" lon="2.62279">
        <ele>129.92</ele>
        <time>2021-03-25T15:25:18Z</time>
      </trkpt>
      <trkpt lat="43.31112" lon="2.62276">
        <ele>129.92</ele>
        <time>2021-03-25T15:25:20Z</time>
      </trkpt>
      <trkpt lat="43.31104" lon="2.62253">
        <ele>129.92</ele>
        <time>2021-03-25T15:25:33Z</time>
      </trkpt>
      <trkpt lat="43.31099" lon="2.62229">
        <ele>130.4</ele>
        <time>2021-03-25T15:25:45Z</time>
      </trkpt>
      <trkpt lat="43.31097" lon="2.62213">
        <ele>130.88</ele>
        <time>2021-03-25T15:25:56Z</time>
      </trkpt>
      <trkpt lat="43.31098" lon="2.62204">
        <ele>130.88</ele>
        <time>2021-03-25T15:26:04Z</time>
      </trkpt>
      <trkpt lat="43.31098" lon="2.62192">
        <ele>130.88</ele>
        <time>2021-03-25T15:26:11Z</time>
      </trkpt>
      <trkpt lat="43.31098" lon="2.62177">
        <ele>130.88</ele>
        <time>2021-03-25T15:26:18Z</time>
      </trkpt>
      <trkpt lat="43.31097" lon="2.62161">
        <ele>131.36</ele>
        <time>2021-03-25T15:26:29Z</time>
      </trkpt>
      <trkpt lat="43.31097" lon="2.62143">
        <ele>131.84</ele>
        <time>2021-03-25T15:26:41Z</time>
      </trkpt>
      <trkpt lat="43.31098" lon="2.62133">
        <ele>131.84</ele>
        <time>2021-03-25T15:26:50Z</time>
      </trkpt>
      <trkpt lat="43.31097" lon="2.62111">
        <ele>132.8</ele>
        <time>2021-03-25T15:27:03Z</time>
      </trkpt>
      <trkpt lat="43.31099" lon="2.62106">
        <ele>132.8</ele>
        <time>2021-03-25T15:27:07Z</time>
      </trkpt>
      <trkpt lat="43.31098" lon="2.62103">
        <ele>132.8</ele>
        <time>2021-03-25T15:27:09Z</time>
      </trkpt>
      <trkpt lat="43.31098" lon="2.62099">
        <ele>132.8</ele>
        <time>2021-03-25T15:27:13Z</time>
      </trkpt>
      <trkpt lat="43.31095" lon="2.62084">
        <ele>132.8</ele>
        <time>2021-03-25T15:27:20Z</time>
      </trkpt>
      <trkpt lat="43.31095" lon="2.62053">
        <ele>133.28</ele>
        <time>2021-03-25T15:27:36Z</time>
      </trkpt>
      <trkpt lat="43.31097" lon="2.62033">
        <ele>133.28</ele>
        <time>2021-03-25T15:27:48Z</time>
      </trkpt>
      <trkpt lat="43.31098" lon="2.62018">
        <ele>133.76</ele>
        <time>2021-03-25T15:27:58Z</time>
      </trkpt>
      <trkpt lat="43.31098" lon="2.62003">
        <ele>134.24</ele>
        <time>2021-03-25T15:28:06Z</time>
      </trkpt>
      <trkpt lat="43.31097" lon="2.61981">
        <ele>134.24</ele>
        <time>2021-03-25T15:28:18Z</time>
      </trkpt>
      <trkpt lat="43.31093" lon="2.61968">
        <ele>134.72</ele>
        <time>2021-03-25T15:28:28Z</time>
      </trkpt>
      <trkpt lat="43.31092" lon="2.61961">
        <ele>135.2</ele>
        <time>2021-03-25T15:28:38Z</time>
      </trkpt>
      <trkpt lat="43.31088" lon="2.61941">
        <ele>135.2</ele>
        <time>2021-03-25T15:28:51Z</time>
      </trkpt>
      <trkpt lat="43.31085" lon="2.61923">
        <ele>135.2</ele>
        <time>2021-03-25T15:29:00Z</time>
      </trkpt>
      <trkpt lat="43.31081" lon="2.61909">
        <ele>135.2</ele>
        <time>2021-03-25T15:29:12Z</time>
      </trkpt>
      <trkpt lat="43.31077" lon="2.61885">
        <ele>136.16</ele>
        <time>2021-03-25T15:29:26Z</time>
      </trkpt>
      <trkpt lat="43.31074" lon="2.61862">
        <ele>136.16</ele>
        <time>2021-03-25T15:29:40Z</time>
      </trkpt>
      <trkpt lat="43.31073" lon="2.61844">
        <ele>136.64</ele>
        <time>2021-03-25T15:29:52Z</time>
      </trkpt>
      <trkpt lat="43.31073" lon="2.61831">
        <ele>137.13</ele>
        <time>2021-03-25T15:29:58Z</time>
      </trkpt>
      <trkpt lat="43.31072" lon="2.61806">
        <ele>137.13</ele>
        <time>2021-03-25T15:30:11Z</time>
      </trkpt>
      <trkpt lat="43.31072" lon="2.61792">
        <ele>137.13</ele>
        <time>2021-03-25T15:30:21Z</time>
      </trkpt>
      <trkpt lat="43.31072" lon="2.61782">
        <ele>137.61</ele>
        <time>2021-03-25T15:30:26Z</time>
      </trkpt>
      <trkpt lat="43.31072" lon="2.61777">
        <ele>137.61</ele>
        <time>2021-03-25T15:30:31Z</time>
      </trkpt>
      <trkpt lat="43.3107" lon="2.61768">
        <ele>138.09</ele>
        <time>2021-03-25T15:30:35Z</time>
      </trkpt>
      <trkpt lat="43.31068" lon="2.61751">
        <ele>138.09</ele>
        <time>2021-03-25T15:30:46Z</time>
      </trkpt>
      <trkpt lat="43.31066" lon="2.61734">
        <ele>138.09</ele>
        <time>2021-03-25T15:30:58Z</time>
      </trkpt>
      <trkpt lat="43.31062" lon="2.61718">
        <ele>137.13</ele>
        <time>2021-03-25T15:31:10Z</time>
      </trkpt>
      <trkpt lat="43.31058" lon="2.61696">
        <ele>138.09</ele>
        <time>2021-03-25T15:31:22Z</time>
      </trkpt>
      <trkpt lat="43.31057" lon="2.61692">
        <ele>138.09</ele>
        <time>2021-03-25T15:31:26Z</time>
      </trkpt>
      <trkpt lat="43.31054" lon="2.61681">
        <ele>138.09</ele>
        <time>2021-03-25T15:31:32Z</time>
      </trkpt>
      <trkpt lat="43.31053" lon="2.61676">
        <ele>138.09</ele>
        <time>2021-03-25T15:31:36Z</time>
      </trkpt>
      <trkpt lat="43.31041" lon="2.61657">
        <ele>138.57</ele>
        <time>2021-03-25T15:31:48Z</time>
      </trkpt>
      <trkpt lat="43.31038" lon="2.61655">
        <ele>138.57</ele>
        <time>2021-03-25T15:32:01Z</time>
      </trkpt>
      <trkpt lat="43.31037" lon="2.61653">
        <ele>138.09</ele>
        <time>2021-03-25T15:32:12Z</time>
      </trkpt>
      <trkpt lat="43.31038" lon="2.61652">
        <ele>138.09</ele>
        <time>2021-03-25T15:32:25Z</time>
      </trkpt>
      <trkpt lat="43.3104" lon="2.61645">
        <ele>138.09</ele>
        <time>2021-03-25T15:32:30Z</time>
      </trkpt>
      <trkpt lat="43.31044" lon="2.61623">
        <ele>140.01</ele>
        <time>2021-03-25T15:32:41Z</time>
      </trkpt>
      <trkpt lat="43.31044" lon="2.61622">
        <ele>140.01</ele>
        <time>2021-03-25T15:32:42Z</time>
      </trkpt>
      <trkpt lat="43.31049" lon="2.61617">
        <ele>140.01</ele>
        <time>2021-03-25T15:32:47Z</time>
      </trkpt>
      <trkpt lat="43.31053" lon="2.61613">
        <ele>140.01</ele>
        <time>2021-03-25T15:32:53Z</time>
      </trkpt>
      <trkpt lat="43.31057" lon="2.6161">
        <ele>140.97</ele>
        <time>2021-03-25T15:32:56Z</time>
      </trkpt>
      <trkpt lat="43.31058" lon="2.61609">
        <ele>140.97</ele>
        <time>2021-03-25T15:32:57Z</time>
      </trkpt>
      <trkpt lat="43.3108" lon="2.61612">
        <ele>140.97</ele>
        <time>2021-03-25T15:33:10Z</time>
      </trkpt>
      <trkpt lat="43.31098" lon="2.6161">
        <ele>141.45</ele>
        <time>2021-03-25T15:33:20Z</time>
      </trkpt>
      <trkpt lat="43.31116" lon="2.61609">
        <ele>141.93</ele>
        <time>2021-03-25T15:33:33Z</time>
      </trkpt>
      <trkpt lat="43.31123" lon="2.61621">
        <ele>142.89</ele>
        <time>2021-03-25T15:33:42Z</time>
      </trkpt>
      <trkpt lat="43.31124" lon="2.61622">
        <ele>142.89</ele>
        <time>2021-03-25T15:33:43Z</time>
      </trkpt>
      <trkpt lat="43.31125" lon="2.61622">
        <ele>142.89</ele>
        <time>2021-03-25T15:33:44Z</time>
      </trkpt>
      <trkpt lat="43.31126" lon="2.61622">
        <ele>142.89</ele>
        <time>2021-03-25T15:33:45Z</time>
      </trkpt>
      <trkpt lat="43.31127" lon="2.61622">
        <ele>142.89</ele>
        <time>2021-03-25T15:33:46Z</time>
      </trkpt>
      <trkpt lat="43.31143" lon="2.61622">
        <ele>144.82</ele>
        <time>2021-03-25T15:33:58Z</time>
      </trkpt>
      <trkpt lat="43.3115" lon="2.61617">
        <ele>145.78</ele>
        <time>2021-03-25T15:34:05Z</time>
      </trkpt>
      <trkpt lat="43.31151" lon="2.61616">
        <ele>145.78</ele>
        <time>2021-03-25T15:34:06Z</time>
      </trkpt>
      <trkpt lat="43.31161" lon="2.61592">
        <ele>146.26</ele>
        <time>2021-03-25T15:34:18Z</time>
      </trkpt>
      <trkpt lat="43.31169" lon="2.61576">
        <ele>146.74</ele>
        <time>2021-03-25T15:34:30Z</time>
      </trkpt>
      <trkpt lat="43.31174" lon="2.61555">
        <ele>147.22</ele>
        <time>2021-03-25T15:34:45Z</time>
      </trkpt>
      <trkpt lat="43.31182" lon="2.6154">
        <ele>148.18</ele>
        <time>2021-03-25T15:34:57Z</time>
      </trkpt>
      <trkpt lat="43.31184" lon="2.61539">
        <ele>148.18</ele>
        <time>2021-03-25T15:34:58Z</time>
      </trkpt>
      <trkpt lat="43.31192" lon="2.61527">
        <ele>148.66</ele>
        <time>2021-03-25T15:35:04Z</time>
      </trkpt>
      <trkpt lat="43.31193" lon="2.61524">
        <ele>149.14</ele>
        <time>2021-03-25T15:35:08Z</time>
      </trkpt>
      <trkpt lat="43.31194" lon="2.61522">
        <ele>149.14</ele>
        <time>2021-03-25T15:35:09Z</time>
      </trkpt>
      <trkpt lat="43.31195" lon="2.6152">
        <ele>149.14</ele>
        <time>2021-03-25T15:35:10Z</time>
      </trkpt>
      <trkpt lat="43.31197" lon="2.61514">
        <ele>149.62</ele>
        <time>2021-03-25T15:35:22Z</time>
      </trkpt>
      <trkpt lat="43.31199" lon="2.6151">
        <ele>150.1</ele>
        <time>2021-03-25T15:35:33Z</time>
      </trkpt>
      <trkpt lat="43.31197" lon="2.61514">
        <ele>150.1</ele>
        <time>2021-03-25T15:35:38Z</time>
      </trkpt>
      <trkpt lat="43.31198" lon="2.61516">
        <ele>150.1</ele>
        <time>2021-03-25T15:35:39Z</time>
      </trkpt>
      <trkpt lat="43.31198" lon="2.61518">
        <ele>150.1</ele>
        <time>2021-03-25T15:35:40Z</time>
      </trkpt>
      <trkpt lat="43.312" lon="2.61521">
        <ele>150.1</ele>
        <time>2021-03-25T15:35:45Z</time>
      </trkpt>
      <trkpt lat="43.31205" lon="2.61526">
        <ele>150.58</ele>
        <time>2021-03-25T15:35:54Z</time>
      </trkpt>
      <trkpt lat="43.31201" lon="2.61519">
        <ele>150.58</ele>
        <time>2021-03-25T15:36:07Z</time>
      </trkpt>
      <trkpt lat="43.312" lon="2.6152">
        <ele>150.58</ele>
        <time>2021-03-25T15:36:11Z</time>
      </trkpt>
      <trkpt lat="43.31197" lon="2.6152">
        <ele>149.14</ele>
        <time>2021-03-25T15:36:14Z</time>
      </trkpt>
      <trkpt lat="43.31196" lon="2.61519">
        <ele>149.14</ele>
        <time>2021-03-25T15:36:26Z</time>
      </trkpt>
      <trkpt lat="43.31199" lon="2.61515">
        <ele>149.14</ele>
        <time>2021-03-25T15:36:41Z</time>
      </trkpt>
      <trkpt lat="43.31197" lon="2.61514">
        <ele>150.58</ele>
        <time>2021-03-25T15:36:59Z</time>
      </trkpt>
      <trkpt lat="43.31196" lon="2.61516">
        <ele>149.14</ele>
        <time>2021-03-25T15:37:19Z</time>
      </trkpt>
      <trkpt lat="43.31196" lon="2.61523">
        <ele>149.62</ele>
        <time>2021-03-25T15:37:35Z</time>
      </trkpt>
      <trkpt lat="43.31199" lon="2.61523">
        <ele>149.62</ele>
        <time>2021-03-25T15:37:57Z</time>
      </trkpt>
      <trkpt lat="43.31199" lon="2.61512">
        <ele>150.1</ele>
        <time>2021-03-25T15:38:19Z</time>
      </trkpt>
      <trkpt lat="43.31199" lon="2.61514">
        <ele>150.1</ele>
        <time>2021-03-25T15:38:39Z</time>
      </trkpt>
      <trkpt lat="43.31199" lon="2.61514">
        <ele>150.1</ele>
        <time>2021-03-25T15:39:02Z</time>
      </trkpt>
      <trkpt lat="43.31198" lon="2.61516">
        <ele>150.1</ele>
        <time>2021-03-25T15:39:28Z</time>
      </trkpt>
      <trkpt lat="43.312" lon="2.61516">
        <ele>149.62</ele>
        <time>2021-03-25T15:40:02Z</time>
      </trkpt>
      <trkpt lat="43.31199" lon="2.6152">
        <ele>148.66</ele>
        <time>2021-03-25T15:40:06Z</time>
      </trkpt>
      <trkpt lat="43.31199" lon="2.61521">
        <ele>147.7</ele>
        <time>2021-03-25T15:40:07Z</time>
      </trkpt>
      <trkpt lat="43.31184" lon="2.61537">
        <ele>148.66</ele>
        <time>2021-03-25T15:40:19Z</time>
      </trkpt>
      <trkpt lat="43.31182" lon="2.61538">
        <ele>147.7</ele>
        <time>2021-03-25T15:40:23Z</time>
      </trkpt>
      <trkpt lat="43.31182" lon="2.61539">
        <ele>147.7</ele>
        <time>2021-03-25T15:40:24Z</time>
      </trkpt>
      <trkpt lat="43.31173" lon="2.61549">
        <ele>147.22</ele>
        <time>2021-03-25T15:40:35Z</time>
      </trkpt>
      <trkpt lat="43.31172" lon="2.6156">
        <ele>147.22</ele>
        <time>2021-03-25T15:40:51Z</time>
      </trkpt>
      <trkpt lat="43.31172" lon="2.61564">
        <ele>147.22</ele>
        <time>2021-03-25T15:40:53Z</time>
      </trkpt>
      <trkpt lat="43.31172" lon="2.61574">
        <ele>147.22</ele>
        <time>2021-03-25T15:40:59Z</time>
      </trkpt>
      <trkpt lat="43.31158" lon="2.616">
        <ele>146.26</ele>
        <time>2021-03-25T15:41:19Z</time>
      </trkpt>
      <trkpt lat="43.31148" lon="2.61622">
        <ele>144.82</ele>
        <time>2021-03-25T15:41:33Z</time>
      </trkpt>
      <trkpt lat="43.31128" lon="2.61619">
        <ele>142.89</ele>
        <time>2021-03-25T15:41:49Z</time>
      </trkpt>
      <trkpt lat="43.31119" lon="2.61616">
        <ele>141.93</ele>
        <time>2021-03-25T15:41:57Z</time>
      </trkpt>
      <trkpt lat="43.31112" lon="2.61608">
        <ele>141.45</ele>
        <time>2021-03-25T15:42:06Z</time>
      </trkpt>
      <trkpt lat="43.31095" lon="2.6161">
        <ele>140.97</ele>
        <time>2021-03-25T15:42:18Z</time>
      </trkpt>
      <trkpt lat="43.31077" lon="2.61608">
        <ele>140.97</ele>
        <time>2021-03-25T15:42:29Z</time>
      </trkpt>
      <trkpt lat="43.3106" lon="2.61607">
        <ele>140.01</ele>
        <time>2021-03-25T15:42:42Z</time>
      </trkpt>
      <trkpt lat="43.31059" lon="2.61608">
        <ele>140.01</ele>
        <time>2021-03-25T15:42:43Z</time>
      </trkpt>
      <trkpt lat="43.31057" lon="2.61609">
        <ele>140.01</ele>
        <time>2021-03-25T15:42:44Z</time>
      </trkpt>
      <trkpt lat="43.31044" lon="2.61626">
        <ele>139.05</ele>
        <time>2021-03-25T15:42:55Z</time>
      </trkpt>
      <trkpt lat="43.31041" lon="2.61635">
        <ele>139.05</ele>
        <time>2021-03-25T15:43:04Z</time>
      </trkpt>
      <trkpt lat="43.31035" lon="2.61656">
        <ele>138.09</ele>
        <time>2021-03-25T15:43:15Z</time>
      </trkpt>
      <trkpt lat="43.3103" lon="2.61661">
        <ele>137.13</ele>
        <time>2021-03-25T15:43:32Z</time>
      </trkpt>
      <trkpt lat="43.31026" lon="2.61663">
        <ele>138.57</ele>
        <time>2021-03-25T15:43:35Z</time>
      </trkpt>
      <trkpt lat="43.31016" lon="2.61667">
        <ele>137.61</ele>
        <time>2021-03-25T15:43:44Z</time>
      </trkpt>
      <trkpt lat="43.31003" lon="2.61673">
        <ele>136.64</ele>
        <time>2021-03-25T15:43:55Z</time>
      </trkpt>
      <trkpt lat="43.30988" lon="2.61688">
        <ele>135.2</ele>
        <time>2021-03-25T15:44:07Z</time>
      </trkpt>
      <trkpt lat="43.30982" lon="2.61693">
        <ele>134.72</ele>
        <time>2021-03-25T15:44:16Z</time>
      </trkpt>
      <trkpt lat="43.30981" lon="2.61694">
        <ele>134.72</ele>
        <time>2021-03-25T15:44:17Z</time>
      </trkpt>
      <trkpt lat="43.3098" lon="2.61694">
        <ele>134.72</ele>
        <time>2021-03-25T15:44:18Z</time>
      </trkpt>
      <trkpt lat="43.30978" lon="2.61695">
        <ele>134.72</ele>
        <time>2021-03-25T15:44:19Z</time>
      </trkpt>
      <trkpt lat="43.30977" lon="2.61696">
        <ele>134.72</ele>
        <time>2021-03-25T15:44:20Z</time>
      </trkpt>
      <trkpt lat="43.30976" lon="2.61696">
        <ele>134.72</ele>
        <time>2021-03-25T15:44:21Z</time>
      </trkpt>
      <trkpt lat="43.30974" lon="2.61696">
        <ele>134.72</ele>
        <time>2021-03-25T15:44:22Z</time>
      </trkpt>
      <trkpt lat="43.30973" lon="2.61697">
        <ele>134.72</ele>
        <time>2021-03-25T15:44:23Z</time>
      </trkpt>
      <trkpt lat="43.30971" lon="2.61697">
        <ele>134.24</ele>
        <time>2021-03-25T15:44:24Z</time>
      </trkpt>
      <trkpt lat="43.3097" lon="2.61697">
        <ele>134.24</ele>
        <time>2021-03-25T15:44:25Z</time>
      </trkpt>
      <trkpt lat="43.30963" lon="2.617">
        <ele>133.76</ele>
        <time>2021-03-25T15:44:35Z</time>
      </trkpt>
      <trkpt lat="43.30951" lon="2.61701">
        <ele>132.8</ele>
        <time>2021-03-25T15:44:46Z</time>
      </trkpt>
      <trkpt lat="43.3094" lon="2.61706">
        <ele>131.36</ele>
        <time>2021-03-25T15:44:58Z</time>
      </trkpt>
      <trkpt lat="43.30939" lon="2.61704">
        <ele>130.88</ele>
        <time>2021-03-25T15:45:00Z</time>
      </trkpt>
      <trkpt lat="43.30937" lon="2.617">
        <ele>130.88</ele>
        <time>2021-03-25T15:45:02Z</time>
      </trkpt>
      <trkpt lat="43.30937" lon="2.61698">
        <ele>130.88</ele>
        <time>2021-03-25T15:45:03Z</time>
      </trkpt>
      <trkpt lat="43.30933" lon="2.61675">
        <ele>130.4</ele>
        <time>2021-03-25T15:45:17Z</time>
      </trkpt>
      <trkpt lat="43.30938" lon="2.61657">
        <ele>130.4</ele>
        <time>2021-03-25T15:45:30Z</time>
      </trkpt>
      <trkpt lat="43.30945" lon="2.61632">
        <ele>129.92</ele>
        <time>2021-03-25T15:45:45Z</time>
      </trkpt>
      <trkpt lat="43.30953" lon="2.61609">
        <ele>131.36</ele>
        <time>2021-03-25T15:45:58Z</time>
      </trkpt>
      <trkpt lat="43.30965" lon="2.61582">
        <ele>131.36</ele>
        <time>2021-03-25T15:46:11Z</time>
      </trkpt>
      <trkpt lat="43.30972" lon="2.61571">
        <ele>131.36</ele>
        <time>2021-03-25T15:46:24Z</time>
      </trkpt>
      <trkpt lat="43.30981" lon="2.61558">
        <ele>131.36</ele>
        <time>2021-03-25T15:46:37Z</time>
      </trkpt>
      <trkpt lat="43.30994" lon="2.61542">
        <ele>131.36</ele>
        <time>2021-03-25T15:46:48Z</time>
      </trkpt>
      <trkpt lat="43.31001" lon="2.61533">
        <ele>131.36</ele>
        <time>2021-03-25T15:46:59Z</time>
      </trkpt>
      <trkpt lat="43.31015" lon="2.61516">
        <ele>131.84</ele>
        <time>2021-03-25T15:47:11Z</time>
      </trkpt>
      <trkpt lat="43.31027" lon="2.61501">
        <ele>133.76</ele>
        <time>2021-03-25T15:47:24Z</time>
      </trkpt>
      <trkpt lat="43.31038" lon="2.61487">
        <ele>133.76</ele>
        <time>2021-03-25T15:47:37Z</time>
      </trkpt>
      <trkpt lat="43.31039" lon="2.61486">
        <ele>133.76</ele>
        <time>2021-03-25T15:47:38Z</time>
      </trkpt>
      <trkpt lat="43.31047" lon="2.61469">
        <ele>133.76</ele>
        <time>2021-03-25T15:47:48Z</time>
      </trkpt>
      <trkpt lat="43.31046" lon="2.61467">
        <ele>134.24</ele>
        <time>2021-03-25T15:47:54Z</time>
      </trkpt>
      <trkpt lat="43.31045" lon="2.61467">
        <ele>134.24</ele>
        <time>2021-03-25T15:47:55Z</time>
      </trkpt>
      <trkpt lat="43.31029" lon="2.61464">
        <ele>134.24</ele>
        <time>2021-03-25T15:48:08Z</time>
      </trkpt>
      <trkpt lat="43.3101" lon="2.61459">
        <ele>134.24</ele>
        <time>2021-03-25T15:48:23Z</time>
      </trkpt>
      <trkpt lat="43.31005" lon="2.61459">
        <ele>134.24</ele>
        <time>2021-03-25T15:48:36Z</time>
      </trkpt>
      <trkpt lat="43.30987" lon="2.61453">
        <ele>134.72</ele>
        <time>2021-03-25T15:48:51Z</time>
      </trkpt>
      <trkpt lat="43.30973" lon="2.61451">
        <ele>135.2</ele>
        <time>2021-03-25T15:49:03Z</time>
      </trkpt>
      <trkpt lat="43.30956" lon="2.61446">
        <ele>135.2</ele>
        <time>2021-03-25T15:49:17Z</time>
      </trkpt>
      <trkpt lat="43.30943" lon="2.61448">
        <ele>135.68</ele>
        <time>2021-03-25T15:49:25Z</time>
      </trkpt>
      <trkpt lat="43.30941" lon="2.61449">
        <ele>134.24</ele>
        <time>2021-03-25T15:49:26Z</time>
      </trkpt>
      <trkpt lat="43.3094" lon="2.6145">
        <ele>134.24</ele>
        <time>2021-03-25T15:49:27Z</time>
      </trkpt>
      <trkpt lat="43.30939" lon="2.61452">
        <ele>134.24</ele>
        <time>2021-03-25T15:49:28Z</time>
      </trkpt>
      <trkpt lat="43.30938" lon="2.61454">
        <ele>133.76</ele>
        <time>2021-03-25T15:49:39Z</time>
      </trkpt>
    </trkseg>
  </trk>
</gpx>